<?xml version='1.0' encoding='UTF-8'?>
<gpx version="1.1" creator="https://www.komoot.de" xmlns="http://www.topografix.com/GPX/1/1" xmlns:xsi="http://www.w3.org/2001/XMLSchema-instance" xsi:schemaLocation="http://www.topografix.com/GPX/1/1 http://www.topografix.com/GPX/1/1/gpx.xsd">
  <metadata>
    <name>Nord-West</name>
    <author>
      <link href="https://www.komoot.de">
        <text>komoot</text>
        <type>text/html</type>
      </link>
    </author>
  </metadata>
  <trk>
    <name>Nord-West</name>
    <trkseg>
      <trkpt lat="51.714163" lon="7.122015">
        <ele>38.280251</ele>
        <time>2025-08-12T09:10:25.101Z</time>
      </trkpt>
      <trkpt lat="51.714093" lon="7.119860">
        <ele>38.324425</ele>
        <time>2025-08-12T09:10:42.378Z</time>
      </trkpt>
      <trkpt lat="51.714111" lon="7.119590">
        <ele>38.341405</ele>
        <time>2025-08-12T09:10:44.586Z</time>
      </trkpt>
      <trkpt lat="51.714224" lon="7.119139">
        <ele>38.371824</ele>
        <time>2025-08-12T09:10:48.578Z</time>
      </trkpt>
      <trkpt lat="51.714249" lon="7.118921">
        <ele>38.385687</ele>
        <time>2025-08-12T09:10:50.373Z</time>
      </trkpt>
      <trkpt lat="51.714178" lon="7.118755">
        <ele>38.398299</ele>
        <time>2025-08-12T09:10:51.968Z</time>
      </trkpt>
      <trkpt lat="51.714121" lon="7.118451">
        <ele>38.418159</ele>
        <time>2025-08-12T09:10:54.362Z</time>
      </trkpt>
      <trkpt lat="51.714100" lon="7.117990">
        <ele>38.447063</ele>
        <time>2025-08-12T09:10:57.600Z</time>
      </trkpt>
      <trkpt lat="51.714087" lon="7.117480">
        <ele>38.253217</ele>
        <time>2025-08-12T09:11:00.965Z</time>
      </trkpt>
      <trkpt lat="51.714045" lon="7.117173">
        <ele>38.014992</ele>
        <time>2025-08-12T09:11:03.035Z</time>
      </trkpt>
      <trkpt lat="51.713471" lon="7.115353">
        <ele>36.467547</ele>
        <time>2025-08-12T09:11:14.893Z</time>
      </trkpt>
      <trkpt lat="51.713176" lon="7.114488">
        <ele>35.326051</ele>
        <time>2025-08-12T09:11:20.149Z</time>
      </trkpt>
      <trkpt lat="51.712603" lon="7.112685">
        <ele>32.677873</ele>
        <time>2025-08-12T09:11:30.941Z</time>
      </trkpt>
      <trkpt lat="51.712530" lon="7.112566">
        <ele>32.461839</ele>
        <time>2025-08-12T09:11:31.860Z</time>
      </trkpt>
      <trkpt lat="51.712405" lon="7.112476">
        <ele>32.260007</ele>
        <time>2025-08-12T09:11:33.092Z</time>
      </trkpt>
      <trkpt lat="51.712240" lon="7.112529">
        <ele>32.011931</ele>
        <time>2025-08-12T09:11:34.628Z</time>
      </trkpt>
      <trkpt lat="51.711353" lon="7.113335">
        <ele>30.510919</ele>
        <time>2025-08-12T09:11:44.149Z</time>
      </trkpt>
      <trkpt lat="51.711192" lon="7.113448">
        <ele>30.252033</ele>
        <time>2025-08-12T09:11:45.815Z</time>
      </trkpt>
      <trkpt lat="51.711139" lon="7.113442">
        <ele>30.173689</ele>
        <time>2025-08-12T09:11:46.327Z</time>
      </trkpt>
      <trkpt lat="51.711038" lon="7.113267">
        <ele>29.955178</ele>
        <time>2025-08-12T09:11:47.728Z</time>
      </trkpt>
      <trkpt lat="51.710371" lon="7.109921">
        <ele>27.482315</ele>
        <time>2025-08-12T09:12:08.452Z</time>
      </trkpt>
      <trkpt lat="51.710280" lon="7.109426">
        <ele>27.239363</ele>
        <time>2025-08-12T09:12:11.687Z</time>
      </trkpt>
      <trkpt lat="51.710201" lon="7.108718">
        <ele>26.900863</ele>
        <time>2025-08-12T09:12:16.295Z</time>
      </trkpt>
      <trkpt lat="51.710160" lon="7.108540">
        <ele>26.811507</ele>
        <time>2025-08-12T09:12:17.512Z</time>
      </trkpt>
      <trkpt lat="51.710099" lon="7.108453">
        <ele>26.749688</ele>
        <time>2025-08-12T09:12:18.367Z</time>
      </trkpt>
      <trkpt lat="51.710012" lon="7.108434">
        <ele>26.683020</ele>
        <time>2025-08-12T09:12:19.284Z</time>
      </trkpt>
      <trkpt lat="51.709309" lon="7.108686">
        <ele>26.291700</ele>
        <time>2025-08-12T09:12:26.757Z</time>
      </trkpt>
      <trkpt lat="51.709262" lon="7.108703">
        <ele>26.284041</ele>
        <time>2025-08-12T09:12:27.254Z</time>
      </trkpt>
      <trkpt lat="51.709095" lon="7.108643">
        <ele>26.256835</ele>
        <time>2025-08-12T09:12:29.018Z</time>
      </trkpt>
      <trkpt lat="51.708976" lon="7.108430">
        <ele>26.228576</ele>
        <time>2025-08-12T09:12:30.880Z</time>
      </trkpt>
      <trkpt lat="51.708559" lon="7.106975">
        <ele>26.070614</ele>
        <time>2025-08-12T09:12:42.445Z</time>
      </trkpt>
      <trkpt lat="51.707499" lon="7.103299">
        <ele>27.069716</ele>
        <time>2025-08-12T09:13:18.094Z</time>
      </trkpt>
      <trkpt lat="51.707428" lon="7.103109">
        <ele>27.031467</ele>
        <time>2025-08-12T09:13:19.563Z</time>
      </trkpt>
      <trkpt lat="51.707147" lon="7.102629">
        <ele>26.917632</ele>
        <time>2025-08-12T09:13:23.738Z</time>
      </trkpt>
      <trkpt lat="51.707082" lon="7.102267">
        <ele>26.852659</ele>
        <time>2025-08-12T09:13:26.073Z</time>
      </trkpt>
      <trkpt lat="51.707099" lon="7.102100">
        <ele>26.823484</ele>
        <time>2025-08-12T09:13:27.120Z</time>
      </trkpt>
      <trkpt lat="51.707125" lon="7.102022">
        <ele>26.808215</ele>
        <time>2025-08-12T09:13:27.662Z</time>
      </trkpt>
      <trkpt lat="51.707383" lon="7.101651">
        <ele>26.744468</ele>
        <time>2025-08-12T09:13:31.045Z</time>
      </trkpt>
      <trkpt lat="51.707457" lon="7.101383">
        <ele>26.808262</ele>
        <time>2025-08-12T09:13:32.852Z</time>
      </trkpt>
      <trkpt lat="51.707445" lon="7.101106">
        <ele>26.868638</ele>
        <time>2025-08-12T09:13:34.582Z</time>
      </trkpt>
      <trkpt lat="51.707319" lon="7.100317">
        <ele>27.045796</ele>
        <time>2025-08-12T09:13:40.165Z</time>
      </trkpt>
      <trkpt lat="51.707192" lon="7.099248">
        <ele>27.282463</ele>
        <time>2025-08-12T09:13:50.092Z</time>
      </trkpt>
      <trkpt lat="51.706978" lon="7.097798">
        <ele>28.706219</ele>
        <time>2025-08-12T09:14:10.736Z</time>
      </trkpt>
      <trkpt lat="51.706938" lon="7.097585">
        <ele>28.968287</ele>
        <time>2025-08-12T09:14:13.376Z</time>
      </trkpt>
      <trkpt lat="51.706908" lon="7.097534">
        <ele>29.051086</ele>
        <time>2025-08-12T09:14:14.218Z</time>
      </trkpt>
      <trkpt lat="51.706711" lon="7.097201">
        <ele>29.593178</ele>
        <time>2025-08-12T09:14:19.727Z</time>
      </trkpt>
      <trkpt lat="51.705709" lon="7.095576">
        <ele>31.839720</ele>
        <time>2025-08-12T09:14:45.092Z</time>
      </trkpt>
      <trkpt lat="51.704699" lon="7.093941">
        <ele>33.317574</ele>
        <time>2025-08-12T09:15:06.151Z</time>
      </trkpt>
      <trkpt lat="51.704609" lon="7.093604">
        <ele>33.393932</ele>
        <time>2025-08-12T09:15:09.118Z</time>
      </trkpt>
      <trkpt lat="51.704641" lon="7.093576">
        <ele>33.406154</ele>
        <time>2025-08-12T09:15:09.744Z</time>
      </trkpt>
      <trkpt lat="51.704649" lon="7.093491">
        <ele>33.424044</ele>
        <time>2025-08-12T09:15:10.658Z</time>
      </trkpt>
      <trkpt lat="51.704688" lon="7.093419">
        <ele>33.443942</ele>
        <time>2025-08-12T09:15:11.670Z</time>
      </trkpt>
      <trkpt lat="51.704827" lon="7.093330">
        <ele>33.494154</ele>
        <time>2025-08-12T09:15:14.181Z</time>
      </trkpt>
      <trkpt lat="51.705500" lon="7.092948">
        <ele>33.733699</ele>
        <time>2025-08-12T09:15:25.970Z</time>
      </trkpt>
      <trkpt lat="51.706043" lon="7.092645">
        <ele>33.674267</ele>
        <time>2025-08-12T09:15:35.296Z</time>
      </trkpt>
      <trkpt lat="51.706180" lon="7.092499">
        <ele>33.636446</ele>
        <time>2025-08-12T09:15:37.171Z</time>
      </trkpt>
      <trkpt lat="51.706199" lon="7.092433">
        <ele>33.626058</ele>
        <time>2025-08-12T09:15:37.672Z</time>
      </trkpt>
      <trkpt lat="51.706430" lon="7.092501">
        <ele>33.571966</ele>
        <time>2025-08-12T09:15:40.331Z</time>
      </trkpt>
      <trkpt lat="51.706484" lon="7.092518">
        <ele>33.559293</ele>
        <time>2025-08-12T09:15:40.946Z</time>
      </trkpt>
      <trkpt lat="51.706706" lon="7.092586">
        <ele>33.507240</ele>
        <time>2025-08-12T09:15:43.481Z</time>
      </trkpt>
      <trkpt lat="51.707423" lon="7.092809">
        <ele>33.288564</ele>
        <time>2025-08-12T09:15:51.335Z</time>
      </trkpt>
      <trkpt lat="51.708382" lon="7.093108">
        <ele>32.582022</ele>
        <time>2025-08-12T09:16:01.161Z</time>
      </trkpt>
      <trkpt lat="51.708447" lon="7.093121">
        <ele>32.534643</ele>
        <time>2025-08-12T09:16:01.815Z</time>
      </trkpt>
      <trkpt lat="51.708952" lon="7.093193">
        <ele>32.167917</ele>
        <time>2025-08-12T09:16:06.836Z</time>
      </trkpt>
      <trkpt lat="51.709335" lon="7.093184">
        <ele>32.029611</ele>
        <time>2025-08-12T09:16:10.785Z</time>
      </trkpt>
      <trkpt lat="51.709726" lon="7.093137">
        <ele>31.976581</ele>
        <time>2025-08-12T09:16:15.140Z</time>
      </trkpt>
      <trkpt lat="51.710189" lon="7.093013">
        <ele>31.913103</ele>
        <time>2025-08-12T09:16:20.602Z</time>
      </trkpt>
      <trkpt lat="51.710602" lon="7.092837">
        <ele>31.855330</ele>
        <time>2025-08-12T09:16:25.750Z</time>
      </trkpt>
      <trkpt lat="51.711261" lon="7.092482">
        <ele>31.826481</ele>
        <time>2025-08-12T09:16:34.735Z</time>
      </trkpt>
      <trkpt lat="51.711354" lon="7.092434">
        <ele>31.828390</ele>
        <time>2025-08-12T09:16:36.005Z</time>
      </trkpt>
      <trkpt lat="51.711335" lon="7.092367">
        <ele>31.829283</ele>
        <time>2025-08-12T09:16:36.585Z</time>
      </trkpt>
      <trkpt lat="51.710834" lon="7.090520">
        <ele>31.836839</ele>
        <time>2025-08-12T09:16:51.724Z</time>
      </trkpt>
      <trkpt lat="51.710107" lon="7.087839">
        <ele>29.748484</ele>
        <time>2025-08-12T09:17:09.373Z</time>
      </trkpt>
      <trkpt lat="51.709757" lon="7.086585">
        <ele>27.982195</ele>
        <time>2025-08-12T09:17:16.322Z</time>
      </trkpt>
      <trkpt lat="51.709606" lon="7.086185">
        <ele>27.380667</ele>
        <time>2025-08-12T09:17:18.703Z</time>
      </trkpt>
      <trkpt lat="51.709397" lon="7.085782">
        <ele>26.705758</ele>
        <time>2025-08-12T09:17:21.509Z</time>
      </trkpt>
      <trkpt lat="51.709106" lon="7.085399">
        <ele>26.085835</ele>
        <time>2025-08-12T09:17:25.247Z</time>
      </trkpt>
      <trkpt lat="51.708034" lon="7.084237">
        <ele>26.162887</ele>
        <time>2025-08-12T09:17:42.146Z</time>
      </trkpt>
      <trkpt lat="51.706931" lon="7.083063">
        <ele>27.599660</ele>
        <time>2025-08-12T09:17:58.767Z</time>
      </trkpt>
      <trkpt lat="51.705404" lon="7.081454">
        <ele>31.442194</ele>
        <time>2025-08-12T09:18:37.171Z</time>
      </trkpt>
      <trkpt lat="51.704878" lon="7.080889">
        <ele>33.100186</ele>
        <time>2025-08-12T09:18:50.852Z</time>
      </trkpt>
      <trkpt lat="51.704776" lon="7.080778">
        <ele>33.422999</ele>
        <time>2025-08-12T09:18:53.140Z</time>
      </trkpt>
      <trkpt lat="51.704305" lon="7.080112">
        <ele>34.018348</ele>
        <time>2025-08-12T09:19:03.385Z</time>
      </trkpt>
      <trkpt lat="51.704131" lon="7.079760">
        <ele>34.160872</ele>
        <time>2025-08-12T09:19:07.037Z</time>
      </trkpt>
      <trkpt lat="51.703845" lon="7.079012">
        <ele>34.439079</ele>
        <time>2025-08-12T09:19:12.966Z</time>
      </trkpt>
      <trkpt lat="51.703620" lon="7.078271">
        <ele>34.699832</ele>
        <time>2025-08-12T09:19:18.635Z</time>
      </trkpt>
      <trkpt lat="51.702545" lon="7.074726">
        <ele>35.777734</ele>
        <time>2025-08-12T09:19:52.522Z</time>
      </trkpt>
      <trkpt lat="51.702315" lon="7.074044">
        <ele>35.919309</ele>
        <time>2025-08-12T09:19:58.340Z</time>
      </trkpt>
      <trkpt lat="51.701854" lon="7.072751">
        <ele>36.301215</ele>
        <time>2025-08-12T09:20:09.214Z</time>
      </trkpt>
      <trkpt lat="51.701837" lon="7.072704">
        <ele>36.324072</ele>
        <time>2025-08-12T09:20:09.635Z</time>
      </trkpt>
      <trkpt lat="51.701371" lon="7.071419">
        <ele>36.949405</ele>
        <time>2025-08-12T09:20:22.565Z</time>
      </trkpt>
      <trkpt lat="51.700636" lon="7.069241">
        <ele>37.901990</ele>
        <time>2025-08-12T09:20:46.338Z</time>
      </trkpt>
      <trkpt lat="51.700576" lon="7.069037">
        <ele>37.984136</ele>
        <time>2025-08-12T09:20:48.049Z</time>
      </trkpt>
      <trkpt lat="51.700432" lon="7.068540">
        <ele>38.183721</ele>
        <time>2025-08-12T09:20:52.057Z</time>
      </trkpt>
      <trkpt lat="51.700398" lon="7.068404">
        <ele>38.237070</ele>
        <time>2025-08-12T09:20:53.097Z</time>
      </trkpt>
      <trkpt lat="51.700311" lon="7.068051">
        <ele>38.375269</ele>
        <time>2025-08-12T09:20:55.807Z</time>
      </trkpt>
      <trkpt lat="51.700535" lon="7.067917">
        <ele>38.458330</ele>
        <time>2025-08-12T09:20:58.566Z</time>
      </trkpt>
      <trkpt lat="51.700992" lon="7.067642">
        <ele>38.622295</ele>
        <time>2025-08-12T09:21:04.546Z</time>
      </trkpt>
      <trkpt lat="51.701227" lon="7.067613">
        <ele>38.701524</ele>
        <time>2025-08-12T09:21:07.537Z</time>
      </trkpt>
      <trkpt lat="51.701370" lon="7.067667">
        <ele>38.750895</ele>
        <time>2025-08-12T09:21:09.548Z</time>
      </trkpt>
      <trkpt lat="51.701452" lon="7.067740">
        <ele>38.782378</ele>
        <time>2025-08-12T09:21:10.887Z</time>
      </trkpt>
      <trkpt lat="51.701560" lon="7.067911">
        <ele>38.833244</ele>
        <time>2025-08-12T09:21:13.105Z</time>
      </trkpt>
      <trkpt lat="51.701631" lon="7.068108">
        <ele>38.880723</ele>
        <time>2025-08-12T09:21:15.218Z</time>
      </trkpt>
      <trkpt lat="51.701696" lon="7.068481">
        <ele>38.961447</ele>
        <time>2025-08-12T09:21:18.732Z</time>
      </trkpt>
      <trkpt lat="51.701166" lon="7.068795">
        <ele>38.828201</ele>
        <time>2025-08-12T09:21:26.213Z</time>
      </trkpt>
      <trkpt lat="51.700741" lon="7.069057">
        <ele>38.681514</ele>
        <time>2025-08-12T09:21:31.035Z</time>
      </trkpt>
      <trkpt lat="51.700445" lon="7.069239">
        <ele>38.579384</ele>
        <time>2025-08-12T09:21:34.217Z</time>
      </trkpt>
      <trkpt lat="51.700175" lon="7.069404">
        <ele>38.486297</ele>
        <time>2025-08-12T09:21:37.109Z</time>
      </trkpt>
      <trkpt lat="51.700055" lon="7.069477">
        <ele>38.444949</ele>
        <time>2025-08-12T09:21:38.382Z</time>
      </trkpt>
      <trkpt lat="51.699207" lon="7.069931">
        <ele>38.003200</ele>
        <time>2025-08-12T09:21:47.343Z</time>
      </trkpt>
      <trkpt lat="51.698644" lon="7.070127">
        <ele>37.703148</ele>
        <time>2025-08-12T09:21:53.654Z</time>
      </trkpt>
      <trkpt lat="51.698056" lon="7.070196">
        <ele>37.403066</ele>
        <time>2025-08-12T09:22:00.255Z</time>
      </trkpt>
      <trkpt lat="51.697529" lon="7.070128">
        <ele>37.154112</ele>
        <time>2025-08-12T09:22:06.127Z</time>
      </trkpt>
      <trkpt lat="51.697019" lon="7.069941">
        <ele>36.907832</ele>
        <time>2025-08-12T09:22:11.789Z</time>
      </trkpt>
      <trkpt lat="51.696421" lon="7.069584">
        <ele>36.596619</ele>
        <time>2025-08-12T09:22:18.350Z</time>
      </trkpt>
      <trkpt lat="51.695915" lon="7.069198">
        <ele>36.138770</ele>
        <time>2025-08-12T09:22:23.826Z</time>
      </trkpt>
      <trkpt lat="51.694969" lon="7.068336">
        <ele>35.250037</ele>
        <time>2025-08-12T09:22:34.493Z</time>
      </trkpt>
      <trkpt lat="51.694873" lon="7.068240">
        <ele>35.157646</ele>
        <time>2025-08-12T09:22:35.671Z</time>
      </trkpt>
      <trkpt lat="51.693836" lon="7.067334">
        <ele>34.890940</ele>
        <time>2025-08-12T09:22:49.320Z</time>
      </trkpt>
      <trkpt lat="51.693158" lon="7.066891">
        <ele>34.755650</ele>
        <time>2025-08-12T09:22:57.706Z</time>
      </trkpt>
      <trkpt lat="51.692618" lon="7.066630">
        <ele>34.777592</ele>
        <time>2025-08-12T09:23:03.821Z</time>
      </trkpt>
      <trkpt lat="51.692093" lon="7.066450">
        <ele>34.798482</ele>
        <time>2025-08-12T09:23:09.949Z</time>
      </trkpt>
      <trkpt lat="51.691352" lon="7.066316">
        <ele>34.955466</ele>
        <time>2025-08-12T09:23:19.664Z</time>
      </trkpt>
      <trkpt lat="51.690874" lon="7.066314">
        <ele>35.377430</ele>
        <time>2025-08-12T09:23:27.144Z</time>
      </trkpt>
      <trkpt lat="51.690578" lon="7.066312">
        <ele>35.638732</ele>
        <time>2025-08-12T09:23:31.843Z</time>
      </trkpt>
      <trkpt lat="51.690244" lon="7.066358">
        <ele>35.934649</ele>
        <time>2025-08-12T09:23:36.948Z</time>
      </trkpt>
      <trkpt lat="51.689689" lon="7.066496">
        <ele>36.425396</ele>
        <time>2025-08-12T09:23:45.082Z</time>
      </trkpt>
      <trkpt lat="51.689190" lon="7.066676">
        <ele>36.769770</ele>
        <time>2025-08-12T09:23:52.228Z</time>
      </trkpt>
      <trkpt lat="51.689148" lon="7.066697">
        <ele>36.799384</ele>
        <time>2025-08-12T09:23:52.815Z</time>
      </trkpt>
      <trkpt lat="51.688830" lon="7.066853">
        <ele>37.023240</ele>
        <time>2025-08-12T09:23:57.342Z</time>
      </trkpt>
      <trkpt lat="51.688127" lon="7.067296">
        <ele>37.531552</ele>
        <time>2025-08-12T09:24:08.357Z</time>
      </trkpt>
      <trkpt lat="51.687616" lon="7.067720">
        <ele>37.469728</ele>
        <time>2025-08-12T09:24:16.001Z</time>
      </trkpt>
      <trkpt lat="51.687142" lon="7.068195">
        <ele>37.279130</ele>
        <time>2025-08-12T09:24:22.304Z</time>
      </trkpt>
      <trkpt lat="51.686900" lon="7.067780">
        <ele>37.158487</ele>
        <time>2025-08-12T09:24:25.936Z</time>
      </trkpt>
      <trkpt lat="51.686778" lon="7.067658">
        <ele>37.109459</ele>
        <time>2025-08-12T09:24:27.348Z</time>
      </trkpt>
      <trkpt lat="51.686542" lon="7.067577">
        <ele>37.027047</ele>
        <time>2025-08-12T09:24:29.649Z</time>
      </trkpt>
      <trkpt lat="51.686306" lon="7.067698">
        <ele>36.891970</ele>
        <time>2025-08-12T09:24:31.935Z</time>
      </trkpt>
      <trkpt lat="51.685816" lon="7.068098">
        <ele>36.556294</ele>
        <time>2025-08-12T09:24:37.105Z</time>
      </trkpt>
      <trkpt lat="51.685744" lon="7.068093">
        <ele>36.512245</ele>
        <time>2025-08-12T09:24:37.850Z</time>
      </trkpt>
      <trkpt lat="51.685686" lon="7.068024">
        <ele>36.468193</ele>
        <time>2025-08-12T09:24:38.627Z</time>
      </trkpt>
      <trkpt lat="51.685637" lon="7.067835">
        <ele>36.390562</ele>
        <time>2025-08-12T09:24:39.985Z</time>
      </trkpt>
      <trkpt lat="51.685566" lon="7.067401">
        <ele>36.220469</ele>
        <time>2025-08-12T09:24:43.016Z</time>
      </trkpt>
      <trkpt lat="51.685519" lon="7.066889">
        <ele>36.024331</ele>
        <time>2025-08-12T09:24:46.631Z</time>
      </trkpt>
      <trkpt lat="51.685473" lon="7.066671">
        <ele>35.937066</ele>
        <time>2025-08-12T09:24:48.324Z</time>
      </trkpt>
      <trkpt lat="51.685131" lon="7.065830">
        <ele>36.080285</ele>
        <time>2025-08-12T09:24:56.505Z</time>
      </trkpt>
      <trkpt lat="51.685006" lon="7.065401">
        <ele>36.168925</ele>
        <time>2025-08-12T09:25:00.491Z</time>
      </trkpt>
      <trkpt lat="51.684925" lon="7.064736">
        <ele>36.295656</ele>
        <time>2025-08-12T09:25:06.094Z</time>
      </trkpt>
      <trkpt lat="51.684916" lon="7.064226">
        <ele>36.391064</ele>
        <time>2025-08-12T09:25:10.202Z</time>
      </trkpt>
      <trkpt lat="51.684963" lon="7.063819">
        <ele>36.446105</ele>
        <time>2025-08-12T09:25:13.402Z</time>
      </trkpt>
      <trkpt lat="51.685330" lon="7.062693">
        <ele>36.403080</ele>
        <time>2025-08-12T09:25:22.685Z</time>
      </trkpt>
      <trkpt lat="51.685410" lon="7.062292">
        <ele>36.388832</ele>
        <time>2025-08-12T09:25:25.656Z</time>
      </trkpt>
      <trkpt lat="51.685437" lon="7.062034">
        <ele>36.379983</ele>
        <time>2025-08-12T09:25:27.491Z</time>
      </trkpt>
      <trkpt lat="51.685415" lon="7.061556">
        <ele>36.363771</ele>
        <time>2025-08-12T09:25:30.834Z</time>
      </trkpt>
      <trkpt lat="51.685311" lon="7.060964">
        <ele>36.276710</ele>
        <time>2025-08-12T09:25:35.120Z</time>
      </trkpt>
      <trkpt lat="51.685226" lon="7.060370">
        <ele>36.094441</ele>
        <time>2025-08-12T09:25:39.511Z</time>
      </trkpt>
      <trkpt lat="51.685152" lon="7.059449">
        <ele>35.816768</ele>
        <time>2025-08-12T09:25:45.812Z</time>
      </trkpt>
      <trkpt lat="51.685093" lon="7.059159">
        <ele>35.725512</ele>
        <time>2025-08-12T09:25:47.760Z</time>
      </trkpt>
      <trkpt lat="51.684973" lon="7.058807">
        <ele>35.605406</ele>
        <time>2025-08-12T09:25:50.298Z</time>
      </trkpt>
      <trkpt lat="51.684821" lon="7.058021">
        <ele>35.332415</ele>
        <time>2025-08-12T09:25:55.315Z</time>
      </trkpt>
      <trkpt lat="51.684369" lon="7.057024">
        <ele>34.883755</ele>
        <time>2025-08-12T09:26:02.689Z</time>
      </trkpt>
      <trkpt lat="51.683946" lon="7.056423">
        <ele>34.553474</ele>
        <time>2025-08-12T09:26:08.698Z</time>
      </trkpt>
      <trkpt lat="51.683768" lon="7.056105">
        <ele>34.477135</ele>
        <time>2025-08-12T09:26:11.899Z</time>
      </trkpt>
      <trkpt lat="51.683013" lon="7.054459">
        <ele>35.557427</ele>
        <time>2025-08-12T09:26:31.133Z</time>
      </trkpt>
      <trkpt lat="51.682421" lon="7.053291">
        <ele>36.008199</ele>
        <time>2025-08-12T09:26:45.430Z</time>
      </trkpt>
      <trkpt lat="51.682045" lon="7.052522">
        <ele>36.070576</ele>
        <time>2025-08-12T09:26:53.130Z</time>
      </trkpt>
      <trkpt lat="51.681868" lon="7.052225">
        <ele>36.096815</ele>
        <time>2025-08-12T09:26:55.944Z</time>
      </trkpt>
      <trkpt lat="51.680695" lon="7.050562">
        <ele>35.640068</ele>
        <time>2025-08-12T09:27:11.917Z</time>
      </trkpt>
      <trkpt lat="51.680443" lon="7.050155">
        <ele>35.474233</ele>
        <time>2025-08-12T09:27:15.834Z</time>
      </trkpt>
      <trkpt lat="51.680191" lon="7.049747">
        <ele>35.308725</ele>
        <time>2025-08-12T09:27:19.937Z</time>
      </trkpt>
      <trkpt lat="51.679269" lon="7.048411">
        <ele>35.034273</ele>
        <time>2025-08-12T09:27:34.310Z</time>
      </trkpt>
      <trkpt lat="51.679147" lon="7.048244">
        <ele>34.998841</ele>
        <time>2025-08-12T09:27:36.165Z</time>
      </trkpt>
      <trkpt lat="51.679029" lon="7.048108">
        <ele>34.966726</ele>
        <time>2025-08-12T09:27:37.776Z</time>
      </trkpt>
      <trkpt lat="51.678479" lon="7.047631">
        <ele>34.927485</ele>
        <time>2025-08-12T09:27:44.254Z</time>
      </trkpt>
      <trkpt lat="51.678346" lon="7.047415">
        <ele>34.935865</ele>
        <time>2025-08-12T09:27:46.176Z</time>
      </trkpt>
      <trkpt lat="51.678275" lon="7.047251">
        <ele>34.941371</ele>
        <time>2025-08-12T09:27:47.483Z</time>
      </trkpt>
      <trkpt lat="51.678060" lon="7.046438">
        <ele>34.965702</ele>
        <time>2025-08-12T09:27:54.067Z</time>
      </trkpt>
      <trkpt lat="51.677943" lon="7.046093">
        <ele>34.976527</ele>
        <time>2025-08-12T09:27:57.171Z</time>
      </trkpt>
      <trkpt lat="51.677559" lon="7.045435">
        <ele>35.285160</ele>
        <time>2025-08-12T09:28:05.030Z</time>
      </trkpt>
      <trkpt lat="51.677278" lon="7.044611">
        <ele>36.003700</ele>
        <time>2025-08-12T09:28:14.812Z</time>
      </trkpt>
      <trkpt lat="51.676972" lon="7.043869">
        <ele>36.684593</ele>
        <time>2025-08-12T09:28:24.178Z</time>
      </trkpt>
      <trkpt lat="51.676743" lon="7.043004">
        <ele>37.306005</ele>
        <time>2025-08-12T09:28:33.293Z</time>
      </trkpt>
      <trkpt lat="51.676642" lon="7.042608">
        <ele>37.470951</ele>
        <time>2025-08-12T09:28:37.154Z</time>
      </trkpt>
      <trkpt lat="51.676483" lon="7.042225">
        <ele>37.648503</ele>
        <time>2025-08-12T09:28:41.172Z</time>
      </trkpt>
      <trkpt lat="51.676362" lon="7.041801">
        <ele>37.828303</ele>
        <time>2025-08-12T09:28:45.063Z</time>
      </trkpt>
      <trkpt lat="51.676304" lon="7.041441">
        <ele>37.971588</ele>
        <time>2025-08-12T09:28:48.082Z</time>
      </trkpt>
      <trkpt lat="51.676265" lon="7.040653">
        <ele>38.276110</ele>
        <time>2025-08-12T09:28:54.477Z</time>
      </trkpt>
      <trkpt lat="51.676150" lon="7.040260">
        <ele>38.378386</ele>
        <time>2025-08-12T09:28:58.076Z</time>
      </trkpt>
      <trkpt lat="51.675890" lon="7.039604">
        <ele>38.514195</ele>
        <time>2025-08-12T09:29:04.398Z</time>
      </trkpt>
      <trkpt lat="51.675621" lon="7.038940">
        <ele>38.652551</ele>
        <time>2025-08-12T09:29:10.586Z</time>
      </trkpt>
      <trkpt lat="51.675354" lon="7.038390">
        <ele>38.774396</ele>
        <time>2025-08-12T09:29:15.944Z</time>
      </trkpt>
      <trkpt lat="51.675251" lon="7.038236">
        <ele>38.813908</ele>
        <time>2025-08-12T09:29:17.670Z</time>
      </trkpt>
      <trkpt lat="51.674244" lon="7.037048">
        <ele>39.030966</ele>
        <time>2025-08-12T09:29:33.422Z</time>
      </trkpt>
      <trkpt lat="51.673761" lon="7.036234">
        <ele>39.100808</ele>
        <time>2025-08-12T09:29:42.182Z</time>
      </trkpt>
      <trkpt lat="51.673680" lon="7.036080">
        <ele>39.054320</ele>
        <time>2025-08-12T09:29:43.725Z</time>
      </trkpt>
      <trkpt lat="51.672383" lon="7.033714">
        <ele>38.222170</ele>
        <time>2025-08-12T09:30:04.589Z</time>
      </trkpt>
      <trkpt lat="51.671999" lon="7.032971">
        <ele>37.830783</ele>
        <time>2025-08-12T09:30:10.471Z</time>
      </trkpt>
      <trkpt lat="51.671620" lon="7.032261">
        <ele>37.451693</ele>
        <time>2025-08-12T09:30:16.197Z</time>
      </trkpt>
      <trkpt lat="51.670998" lon="7.031082">
        <ele>37.514417</ele>
        <time>2025-08-12T09:30:27.281Z</time>
      </trkpt>
      <trkpt lat="51.670935" lon="7.030867">
        <ele>37.560144</ele>
        <time>2025-08-12T09:30:29.303Z</time>
      </trkpt>
      <trkpt lat="51.670487" lon="7.028758">
        <ele>37.715526</ele>
        <time>2025-08-12T09:30:49.073Z</time>
      </trkpt>
      <trkpt lat="51.670440" lon="7.028532">
        <ele>37.671031</ele>
        <time>2025-08-12T09:30:50.922Z</time>
      </trkpt>
      <trkpt lat="51.670389" lon="7.028306">
        <ele>37.626139</ele>
        <time>2025-08-12T09:30:52.692Z</time>
      </trkpt>
      <trkpt lat="51.669773" lon="7.025559">
        <ele>36.495595</ele>
        <time>2025-08-12T09:31:10.568Z</time>
      </trkpt>
      <trkpt lat="51.669690" lon="7.025198">
        <ele>36.239165</ele>
        <time>2025-08-12T09:31:12.927Z</time>
      </trkpt>
      <trkpt lat="51.669490" lon="7.024629">
        <ele>35.803557</ele>
        <time>2025-08-12T09:31:16.879Z</time>
      </trkpt>
      <trkpt lat="51.669452" lon="7.024537">
        <ele>35.729936</ele>
        <time>2025-08-12T09:31:17.521Z</time>
      </trkpt>
      <trkpt lat="51.669053" lon="7.023581">
        <ele>35.163774</ele>
        <time>2025-08-12T09:31:24.223Z</time>
      </trkpt>
      <trkpt lat="51.669399" lon="7.023225">
        <ele>34.936956</ele>
        <time>2025-08-12T09:31:28.096Z</time>
      </trkpt>
      <trkpt lat="51.670125" lon="7.022478">
        <ele>34.461031</ele>
        <time>2025-08-12T09:31:37.402Z</time>
      </trkpt>
      <trkpt lat="51.670275" lon="7.022327">
        <ele>34.416563</ele>
        <time>2025-08-12T09:31:39.863Z</time>
      </trkpt>
      <trkpt lat="51.670893" lon="7.021705">
        <ele>35.089794</ele>
        <time>2025-08-12T09:31:51.416Z</time>
      </trkpt>
      <trkpt lat="51.671263" lon="7.021470">
        <ele>35.457287</ele>
        <time>2025-08-12T09:31:57.710Z</time>
      </trkpt>
      <trkpt lat="51.671613" lon="7.021344">
        <ele>35.788691</ele>
        <time>2025-08-12T09:32:02.783Z</time>
      </trkpt>
      <trkpt lat="51.672609" lon="7.021178">
        <ele>36.654138</ele>
        <time>2025-08-12T09:32:17.676Z</time>
      </trkpt>
      <trkpt lat="51.672786" lon="7.021154">
        <ele>36.803584</ele>
        <time>2025-08-12T09:32:20.176Z</time>
      </trkpt>
      <trkpt lat="51.672963" lon="7.021123">
        <ele>36.953380</ele>
        <time>2025-08-12T09:32:22.691Z</time>
      </trkpt>
      <trkpt lat="51.673076" lon="7.021098">
        <ele>37.049344</ele>
        <time>2025-08-12T09:32:24.312Z</time>
      </trkpt>
      <trkpt lat="51.673363" lon="7.021016">
        <ele>37.294575</ele>
        <time>2025-08-12T09:32:28.728Z</time>
      </trkpt>
      <trkpt lat="51.673458" lon="7.020953">
        <ele>37.380999</ele>
        <time>2025-08-12T09:32:30.320Z</time>
      </trkpt>
      <trkpt lat="51.673813" lon="7.020749">
        <ele>37.591021</ele>
        <time>2025-08-12T09:32:35.975Z</time>
      </trkpt>
      <trkpt lat="51.673836" lon="7.020736">
        <ele>37.595776</ele>
        <time>2025-08-12T09:32:36.329Z</time>
      </trkpt>
      <trkpt lat="51.673949" lon="7.020703">
        <ele>37.618181</ele>
        <time>2025-08-12T09:32:37.895Z</time>
      </trkpt>
      <trkpt lat="51.674347" lon="7.020608">
        <ele>37.696679</ele>
        <time>2025-08-12T09:32:42.564Z</time>
      </trkpt>
      <trkpt lat="51.674664" lon="7.020535">
        <ele>37.759154</ele>
        <time>2025-08-12T09:32:46.145Z</time>
      </trkpt>
      <trkpt lat="51.674694" lon="7.020527">
        <ele>37.765087</ele>
        <time>2025-08-12T09:32:46.509Z</time>
      </trkpt>
      <trkpt lat="51.675059" lon="7.020458">
        <ele>37.836787</ele>
        <time>2025-08-12T09:32:51.034Z</time>
      </trkpt>
      <trkpt lat="51.675303" lon="7.020412">
        <ele>37.884717</ele>
        <time>2025-08-12T09:32:54.196Z</time>
      </trkpt>
      <trkpt lat="51.675375" lon="7.020398">
        <ele>37.898866</ele>
        <time>2025-08-12T09:32:55.097Z</time>
      </trkpt>
      <trkpt lat="51.675438" lon="7.020390">
        <ele>37.907426</ele>
        <time>2025-08-12T09:32:55.831Z</time>
      </trkpt>
      <trkpt lat="51.675897" lon="7.020301">
        <ele>37.781531</ele>
        <time>2025-08-12T09:33:01.222Z</time>
      </trkpt>
      <trkpt lat="51.676277" lon="7.020188">
        <ele>37.676306</ele>
        <time>2025-08-12T09:33:05.730Z</time>
      </trkpt>
      <trkpt lat="51.676449" lon="7.020121">
        <ele>37.628120</ele>
        <time>2025-08-12T09:33:07.771Z</time>
      </trkpt>
      <trkpt lat="51.676918" lon="7.019875">
        <ele>37.493817</ele>
        <time>2025-08-12T09:33:13.226Z</time>
      </trkpt>
      <trkpt lat="51.677895" lon="7.019242">
        <ele>37.164689</ele>
        <time>2025-08-12T09:33:23.730Z</time>
      </trkpt>
      <trkpt lat="51.678093" lon="7.019110">
        <ele>37.094715</ele>
        <time>2025-08-12T09:33:26.094Z</time>
      </trkpt>
      <trkpt lat="51.678753" lon="7.018674">
        <ele>36.861774</ele>
        <time>2025-08-12T09:33:34.590Z</time>
      </trkpt>
      <trkpt lat="51.679507" lon="7.018180">
        <ele>36.854601</ele>
        <time>2025-08-12T09:33:44.774Z</time>
      </trkpt>
      <trkpt lat="51.680879" lon="7.017295">
        <ele>36.923093</ele>
        <time>2025-08-12T09:34:02.006Z</time>
      </trkpt>
      <trkpt lat="51.681392" lon="7.016965">
        <ele>36.971759</ele>
        <time>2025-08-12T09:34:08.520Z</time>
      </trkpt>
      <trkpt lat="51.681747" lon="7.016736">
        <ele>37.005449</ele>
        <time>2025-08-12T09:34:13.257Z</time>
      </trkpt>
      <trkpt lat="51.681914" lon="7.016632">
        <ele>37.021223</ele>
        <time>2025-08-12T09:34:15.526Z</time>
      </trkpt>
      <trkpt lat="51.682304" lon="7.017571">
        <ele>37.163394</ele>
        <time>2025-08-12T09:34:24.632Z</time>
      </trkpt>
      <trkpt lat="51.682998" lon="7.019191">
        <ele>37.505507</ele>
        <time>2025-08-12T09:34:40.489Z</time>
      </trkpt>
      <trkpt lat="51.684035" lon="7.021609">
        <ele>37.596257</ele>
        <time>2025-08-12T09:35:02.034Z</time>
      </trkpt>
      <trkpt lat="51.684491" lon="7.022678">
        <ele>37.543756</ele>
        <time>2025-08-12T09:35:11.660Z</time>
      </trkpt>
      <trkpt lat="51.684658" lon="7.023083">
        <ele>37.518426</ele>
        <time>2025-08-12T09:35:15.121Z</time>
      </trkpt>
      <trkpt lat="51.684956" lon="7.023857">
        <ele>37.470978</ele>
        <time>2025-08-12T09:35:21.498Z</time>
      </trkpt>
      <trkpt lat="51.684983" lon="7.023927">
        <ele>37.466685</ele>
        <time>2025-08-12T09:35:22.069Z</time>
      </trkpt>
      <trkpt lat="51.685513" lon="7.025228">
        <ele>37.318398</ele>
        <time>2025-08-12T09:35:33.014Z</time>
      </trkpt>
      <trkpt lat="51.687305" lon="7.029531">
        <ele>36.873807</ele>
        <time>2025-08-12T09:36:09.797Z</time>
      </trkpt>
      <trkpt lat="51.688425" lon="7.032222">
        <ele>36.944516</ele>
        <time>2025-08-12T09:36:33.806Z</time>
      </trkpt>
      <trkpt lat="51.688737" lon="7.032970">
        <ele>37.011665</ele>
        <time>2025-08-12T09:36:40.677Z</time>
      </trkpt>
      <trkpt lat="51.688897" lon="7.033353">
        <ele>37.046063</ele>
        <time>2025-08-12T09:36:44.230Z</time>
      </trkpt>
      <trkpt lat="51.689378" lon="7.034500">
        <ele>37.094364</ele>
        <time>2025-08-12T09:36:54.980Z</time>
      </trkpt>
      <trkpt lat="51.689612" lon="7.035136">
        <ele>37.097693</ele>
        <time>2025-08-12T09:37:00.524Z</time>
      </trkpt>
      <trkpt lat="51.689745" lon="7.035703">
        <ele>37.100422</ele>
        <time>2025-08-12T09:37:04.973Z</time>
      </trkpt>
      <trkpt lat="51.690009" lon="7.036877">
        <ele>36.912923</ele>
        <time>2025-08-12T09:37:13.824Z</time>
      </trkpt>
      <trkpt lat="51.690346" lon="7.038375">
        <ele>36.274801</ele>
        <time>2025-08-12T09:37:24.411Z</time>
      </trkpt>
      <trkpt lat="51.690369" lon="7.038475">
        <ele>36.232091</ele>
        <time>2025-08-12T09:37:25.065Z</time>
      </trkpt>
      <trkpt lat="51.691031" lon="7.038317">
        <ele>35.767203</ele>
        <time>2025-08-12T09:37:31.344Z</time>
      </trkpt>
      <trkpt lat="51.691862" lon="7.037876">
        <ele>35.072556</ele>
        <time>2025-08-12T09:37:39.389Z</time>
      </trkpt>
      <trkpt lat="51.692385" lon="7.037555">
        <ele>34.628225</ele>
        <time>2025-08-12T09:37:45.303Z</time>
      </trkpt>
      <trkpt lat="51.692644" lon="7.037480">
        <ele>34.646701</ele>
        <time>2025-08-12T09:37:48.847Z</time>
      </trkpt>
      <trkpt lat="51.693839" lon="7.037311">
        <ele>35.984700</ele>
        <time>2025-08-12T09:38:09.074Z</time>
      </trkpt>
      <trkpt lat="51.694008" lon="7.037224">
        <ele>36.182565</ele>
        <time>2025-08-12T09:38:11.966Z</time>
      </trkpt>
      <trkpt lat="51.694143" lon="7.036847">
        <ele>36.483584</ele>
        <time>2025-08-12T09:38:16.131Z</time>
      </trkpt>
      <trkpt lat="51.694368" lon="7.036456">
        <ele>36.581463</ele>
        <time>2025-08-12T09:38:20.833Z</time>
      </trkpt>
      <trkpt lat="51.694686" lon="7.036020">
        <ele>36.667479</ele>
        <time>2025-08-12T09:38:26.032Z</time>
      </trkpt>
      <trkpt lat="51.694939" lon="7.035670">
        <ele>36.736172</ele>
        <time>2025-08-12T09:38:29.761Z</time>
      </trkpt>
      <trkpt lat="51.695179" lon="7.035417">
        <ele>36.795263</ele>
        <time>2025-08-12T09:38:33.017Z</time>
      </trkpt>
      <trkpt lat="51.695448" lon="7.035251">
        <ele>36.854625</ele>
        <time>2025-08-12T09:38:36.322Z</time>
      </trkpt>
      <trkpt lat="51.695911" lon="7.035028">
        <ele>37.023929</ele>
        <time>2025-08-12T09:38:42.070Z</time>
      </trkpt>
      <trkpt lat="51.696064" lon="7.034914">
        <ele>37.096824</ele>
        <time>2025-08-12T09:38:44.139Z</time>
      </trkpt>
      <trkpt lat="51.697388" lon="7.033545">
        <ele>37.790845</ele>
        <time>2025-08-12T09:39:05.956Z</time>
      </trkpt>
      <trkpt lat="51.698422" lon="7.032610">
        <ele>38.368987</ele>
        <time>2025-08-12T09:39:22.360Z</time>
      </trkpt>
      <trkpt lat="51.699698" lon="7.031624">
        <ele>38.653641</ele>
        <time>2025-08-12T09:39:39.119Z</time>
      </trkpt>
      <trkpt lat="51.700212" lon="7.031231">
        <ele>38.711835</ele>
        <time>2025-08-12T09:39:45.856Z</time>
      </trkpt>
      <trkpt lat="51.701283" lon="7.030221">
        <ele>39.476123</ele>
        <time>2025-08-12T09:40:02.322Z</time>
      </trkpt>
      <trkpt lat="51.701527" lon="7.030058">
        <ele>39.661563</ele>
        <time>2025-08-12T09:40:06.181Z</time>
      </trkpt>
      <trkpt lat="51.702750" lon="7.029391">
        <ele>40.955109</ele>
        <time>2025-08-12T09:40:26.980Z</time>
      </trkpt>
      <trkpt lat="51.703144" lon="7.029043">
        <ele>41.482797</ele>
        <time>2025-08-12T09:40:34.270Z</time>
      </trkpt>
      <trkpt lat="51.704465" lon="7.027535">
        <ele>42.810947</ele>
        <time>2025-08-12T09:40:57.794Z</time>
      </trkpt>
      <trkpt lat="51.704834" lon="7.027119">
        <ele>43.102661</ele>
        <time>2025-08-12T09:41:03.626Z</time>
      </trkpt>
      <trkpt lat="51.706538" lon="7.025180">
        <ele>43.964385</ele>
        <time>2025-08-12T09:41:30.524Z</time>
      </trkpt>
      <trkpt lat="51.708269" lon="7.023210">
        <ele>44.884395</ele>
        <time>2025-08-12T09:41:59.922Z</time>
      </trkpt>
      <trkpt lat="51.708407" lon="7.023064">
        <ele>44.860943</ele>
        <time>2025-08-12T09:42:01.957Z</time>
      </trkpt>
      <trkpt lat="51.708509" lon="7.023305">
        <ele>44.835240</ele>
        <time>2025-08-12T09:42:04.878Z</time>
      </trkpt>
      <trkpt lat="51.708746" lon="7.024018">
        <ele>44.763983</ele>
        <time>2025-08-12T09:42:12.636Z</time>
      </trkpt>
      <trkpt lat="51.709154" lon="7.025190">
        <ele>44.571159</ele>
        <time>2025-08-12T09:42:24.653Z</time>
      </trkpt>
      <trkpt lat="51.709965" lon="7.027001">
        <ele>43.919532</ele>
        <time>2025-08-12T09:42:45.254Z</time>
      </trkpt>
      <trkpt lat="51.710418" lon="7.028059">
        <ele>43.768420</ele>
        <time>2025-08-12T09:42:57.719Z</time>
      </trkpt>
      <trkpt lat="51.710960" lon="7.030170">
        <ele>43.772582</ele>
        <time>2025-08-12T09:43:14.085Z</time>
      </trkpt>
      <trkpt lat="51.711010" lon="7.030354">
        <ele>43.842275</ele>
        <time>2025-08-12T09:43:15.608Z</time>
      </trkpt>
      <trkpt lat="51.711083" lon="7.030506">
        <ele>43.908983</ele>
        <time>2025-08-12T09:43:17.090Z</time>
      </trkpt>
      <trkpt lat="51.711205" lon="7.030625">
        <ele>43.988784</ele>
        <time>2025-08-12T09:43:18.912Z</time>
      </trkpt>
      <trkpt lat="51.711304" lon="7.030636">
        <ele>44.044337</ele>
        <time>2025-08-12T09:43:20.196Z</time>
      </trkpt>
      <trkpt lat="51.712321" lon="7.030565">
        <ele>44.614195</ele>
        <time>2025-08-12T09:43:34.870Z</time>
      </trkpt>
      <trkpt lat="51.712435" lon="7.030544">
        <ele>44.696716</ele>
        <time>2025-08-12T09:43:36.670Z</time>
      </trkpt>
      <trkpt lat="51.713702" lon="7.030238">
        <ele>45.922078</ele>
        <time>2025-08-12T09:43:56.803Z</time>
      </trkpt>
      <trkpt lat="51.714215" lon="7.030043">
        <ele>46.376548</ele>
        <time>2025-08-12T09:44:04.387Z</time>
      </trkpt>
      <trkpt lat="51.716186" lon="7.029162">
        <ele>46.409513</ele>
        <time>2025-08-12T09:44:28.527Z</time>
      </trkpt>
      <trkpt lat="51.717988" lon="7.028333">
        <ele>45.916977</ele>
        <time>2025-08-12T09:44:48.952Z</time>
      </trkpt>
      <trkpt lat="51.718200" lon="7.028188">
        <ele>45.853257</ele>
        <time>2025-08-12T09:44:51.539Z</time>
      </trkpt>
      <trkpt lat="51.718401" lon="7.028104">
        <ele>45.795797</ele>
        <time>2025-08-12T09:44:53.889Z</time>
      </trkpt>
      <trkpt lat="51.718345" lon="7.028391">
        <ele>45.744207</ele>
        <time>2025-08-12T09:44:55.990Z</time>
      </trkpt>
      <trkpt lat="51.718114" lon="7.029514">
        <ele>45.541331</ele>
        <time>2025-08-12T09:45:04.345Z</time>
      </trkpt>
      <trkpt lat="51.717651" lon="7.031797">
        <ele>45.058060</ele>
        <time>2025-08-12T09:45:20.296Z</time>
      </trkpt>
      <trkpt lat="51.717517" lon="7.032447">
        <ele>44.936227</ele>
        <time>2025-08-12T09:45:26.716Z</time>
      </trkpt>
      <trkpt lat="51.716969" lon="7.035141">
        <ele>44.953446</ele>
        <time>2025-08-12T09:45:55.642Z</time>
      </trkpt>
      <trkpt lat="51.716589" lon="7.036980">
        <ele>44.639293</ele>
        <time>2025-08-12T09:46:14.923Z</time>
      </trkpt>
      <trkpt lat="51.716157" lon="7.039047">
        <ele>43.950198</ele>
        <time>2025-08-12T09:46:34.369Z</time>
      </trkpt>
      <trkpt lat="51.716145" lon="7.039104">
        <ele>43.924016</ele>
        <time>2025-08-12T09:46:34.735Z</time>
      </trkpt>
      <trkpt lat="51.716121" lon="7.039216">
        <ele>43.872475</ele>
        <time>2025-08-12T09:46:35.446Z</time>
      </trkpt>
      <trkpt lat="51.715867" lon="7.040542">
        <ele>43.268851</ele>
        <time>2025-08-12T09:46:44.055Z</time>
      </trkpt>
      <trkpt lat="51.715836" lon="7.040735">
        <ele>43.217050</ele>
        <time>2025-08-12T09:46:45.375Z</time>
      </trkpt>
      <trkpt lat="51.715790" lon="7.041174">
        <ele>43.190866</ele>
        <time>2025-08-12T09:46:48.439Z</time>
      </trkpt>
      <trkpt lat="51.715777" lon="7.041675">
        <ele>43.161377</ele>
        <time>2025-08-12T09:46:52.095Z</time>
      </trkpt>
      <trkpt lat="51.715860" lon="7.042966">
        <ele>43.085047</ele>
        <time>2025-08-12T09:47:02.244Z</time>
      </trkpt>
      <trkpt lat="51.715855" lon="7.043711">
        <ele>42.971914</ele>
        <time>2025-08-12T09:47:07.642Z</time>
      </trkpt>
      <trkpt lat="51.715842" lon="7.044220">
        <ele>42.745104</ele>
        <time>2025-08-12T09:47:11.075Z</time>
      </trkpt>
      <trkpt lat="51.715800" lon="7.045622">
        <ele>42.120176</ele>
        <time>2025-08-12T09:47:20.059Z</time>
      </trkpt>
      <trkpt lat="51.715761" lon="7.046857">
        <ele>41.206913</ele>
        <time>2025-08-12T09:47:27.298Z</time>
      </trkpt>
      <trkpt lat="51.715748" lon="7.047263">
        <ele>40.679757</ele>
        <time>2025-08-12T09:47:29.581Z</time>
      </trkpt>
      <trkpt lat="51.715724" lon="7.048026">
        <ele>39.689114</ele>
        <time>2025-08-12T09:47:33.741Z</time>
      </trkpt>
      <trkpt lat="51.715660" lon="7.050628">
        <ele>36.517246</ele>
        <time>2025-08-12T09:47:47.278Z</time>
      </trkpt>
      <trkpt lat="51.715599" lon="7.053139">
        <ele>34.824195</ele>
        <time>2025-08-12T09:48:01.988Z</time>
      </trkpt>
      <trkpt lat="51.715545" lon="7.055103">
        <ele>35.117847</ele>
        <time>2025-08-12T09:48:19.458Z</time>
      </trkpt>
      <trkpt lat="51.715527" lon="7.055787">
        <ele>35.700815</ele>
        <time>2025-08-12T09:48:26.885Z</time>
      </trkpt>
      <trkpt lat="51.715481" lon="7.057363">
        <ele>37.094751</ele>
        <time>2025-08-12T09:48:44.183Z</time>
      </trkpt>
      <trkpt lat="51.715188" lon="7.068405">
        <ele>42.562034</ele>
        <time>2025-08-12T09:50:23.920Z</time>
      </trkpt>
      <trkpt lat="51.715077" lon="7.072195">
        <ele>41.904014</ele>
        <time>2025-08-12T09:50:48.517Z</time>
      </trkpt>
      <trkpt lat="51.714969" lon="7.076088">
        <ele>41.025618</ele>
        <time>2025-08-12T09:51:15.464Z</time>
      </trkpt>
      <trkpt lat="51.714938" lon="7.077217">
        <ele>40.571557</ele>
        <time>2025-08-12T09:51:22.812Z</time>
      </trkpt>
      <trkpt lat="51.714894" lon="7.077486">
        <ele>40.459774</ele>
        <time>2025-08-12T09:51:24.539Z</time>
      </trkpt>
      <trkpt lat="51.714820" lon="7.077672">
        <ele>40.370961</ele>
        <time>2025-08-12T09:51:25.891Z</time>
      </trkpt>
      <trkpt lat="51.714317" lon="7.078624">
        <ele>39.702313</ele>
        <time>2025-08-12T09:51:33.309Z</time>
      </trkpt>
      <trkpt lat="51.714061" lon="7.079538">
        <ele>39.035892</ele>
        <time>2025-08-12T09:51:39.246Z</time>
      </trkpt>
      <trkpt lat="51.713071" lon="7.082943">
        <ele>36.519917</ele>
        <time>2025-08-12T09:52:02.356Z</time>
      </trkpt>
      <trkpt lat="51.712770" lon="7.084412">
        <ele>35.433455</ele>
        <time>2025-08-12T09:52:10.936Z</time>
      </trkpt>
      <trkpt lat="51.712619" lon="7.085123">
        <ele>34.897297</ele>
        <time>2025-08-12T09:52:14.995Z</time>
      </trkpt>
      <trkpt lat="51.712553" lon="7.085618">
        <ele>34.536106</ele>
        <time>2025-08-12T09:52:18.049Z</time>
      </trkpt>
      <trkpt lat="51.712563" lon="7.086088">
        <ele>34.200634</ele>
        <time>2025-08-12T09:52:21.540Z</time>
      </trkpt>
      <trkpt lat="51.712668" lon="7.086675">
        <ele>34.640268</ele>
        <time>2025-08-12T09:52:27.013Z</time>
      </trkpt>
      <trkpt lat="51.713076" lon="7.087752">
        <ele>35.665498</ele>
        <time>2025-08-12T09:52:40.461Z</time>
      </trkpt>
      <trkpt lat="51.714497" lon="7.090382">
        <ele>39.034450</ele>
        <time>2025-08-12T09:53:17.862Z</time>
      </trkpt>
      <trkpt lat="51.715677" lon="7.092541">
        <ele>41.933197</ele>
        <time>2025-08-12T09:53:47.713Z</time>
      </trkpt>
      <trkpt lat="51.715787" lon="7.092591">
        <ele>42.117950</ele>
        <time>2025-08-12T09:53:50.289Z</time>
      </trkpt>
      <trkpt lat="51.715920" lon="7.092707">
        <ele>42.362353</ele>
        <time>2025-08-12T09:53:53.671Z</time>
      </trkpt>
      <trkpt lat="51.716095" lon="7.092860">
        <ele>42.678212</ele>
        <time>2025-08-12T09:53:58.126Z</time>
      </trkpt>
      <trkpt lat="51.716288" lon="7.092950">
        <ele>42.995201</ele>
        <time>2025-08-12T09:54:02.596Z</time>
      </trkpt>
      <trkpt lat="51.717007" lon="7.093211">
        <ele>44.158046</ele>
        <time>2025-08-12T09:54:18.348Z</time>
      </trkpt>
      <trkpt lat="51.717069" lon="7.093224">
        <ele>44.256698</ele>
        <time>2025-08-12T09:54:19.654Z</time>
      </trkpt>
      <trkpt lat="51.717825" lon="7.092192">
        <ele>45.819386</ele>
        <time>2025-08-12T09:54:35.628Z</time>
      </trkpt>
      <trkpt lat="51.719185" lon="7.090094">
        <ele>48.334537</ele>
        <time>2025-08-12T09:55:08.241Z</time>
      </trkpt>
      <trkpt lat="51.719385" lon="7.089862">
        <ele>48.460495</ele>
        <time>2025-08-12T09:55:11.732Z</time>
      </trkpt>
      <trkpt lat="51.719650" lon="7.089556">
        <ele>48.627130</ele>
        <time>2025-08-12T09:55:16.045Z</time>
      </trkpt>
      <trkpt lat="51.719884" lon="7.089311">
        <ele>48.769774</ele>
        <time>2025-08-12T09:55:19.388Z</time>
      </trkpt>
      <trkpt lat="51.720104" lon="7.089084">
        <ele>48.903311</ele>
        <time>2025-08-12T09:55:22.300Z</time>
      </trkpt>
      <trkpt lat="51.720159" lon="7.089026">
        <ele>48.936910</ele>
        <time>2025-08-12T09:55:23.018Z</time>
      </trkpt>
      <trkpt lat="51.720653" lon="7.088520">
        <ele>48.923437</ele>
        <time>2025-08-12T09:55:29.119Z</time>
      </trkpt>
      <trkpt lat="51.720710" lon="7.088475">
        <ele>48.905116</ele>
        <time>2025-08-12T09:55:29.800Z</time>
      </trkpt>
      <trkpt lat="51.721117" lon="7.088157">
        <ele>48.774552</ele>
        <time>2025-08-12T09:55:34.822Z</time>
      </trkpt>
      <trkpt lat="51.721252" lon="7.088095">
        <ele>48.734024</ele>
        <time>2025-08-12T09:55:36.396Z</time>
      </trkpt>
      <trkpt lat="51.721379" lon="7.088037">
        <ele>48.695914</ele>
        <time>2025-08-12T09:55:37.879Z</time>
      </trkpt>
      <trkpt lat="51.721700" lon="7.087956">
        <ele>48.602100</ele>
        <time>2025-08-12T09:55:41.540Z</time>
      </trkpt>
      <trkpt lat="51.721897" lon="7.087906">
        <ele>48.544517</ele>
        <time>2025-08-12T09:55:43.781Z</time>
      </trkpt>
      <trkpt lat="51.722105" lon="7.087890">
        <ele>48.549342</ele>
        <time>2025-08-12T09:55:46.136Z</time>
      </trkpt>
      <trkpt lat="51.722429" lon="7.087918">
        <ele>48.642732</ele>
        <time>2025-08-12T09:55:49.859Z</time>
      </trkpt>
      <trkpt lat="51.722678" lon="7.087992">
        <ele>48.715606</ele>
        <time>2025-08-12T09:55:52.870Z</time>
      </trkpt>
      <trkpt lat="51.722808" lon="7.088050">
        <ele>48.754427</ele>
        <time>2025-08-12T09:55:54.461Z</time>
      </trkpt>
      <trkpt lat="51.723747" lon="7.088506">
        <ele>49.045580</ele>
        <time>2025-08-12T09:56:07.258Z</time>
      </trkpt>
      <trkpt lat="51.723937" lon="7.088563">
        <ele>49.343992</ele>
        <time>2025-08-12T09:56:10.251Z</time>
      </trkpt>
      <trkpt lat="51.724226" lon="7.088625">
        <ele>49.794175</ele>
        <time>2025-08-12T09:56:15.132Z</time>
      </trkpt>
      <trkpt lat="51.724710" lon="7.088687">
        <ele>50.543894</ele>
        <time>2025-08-12T09:56:23.828Z</time>
      </trkpt>
      <trkpt lat="51.725493" lon="7.088816">
        <ele>51.759244</ele>
        <time>2025-08-12T09:56:38.061Z</time>
      </trkpt>
      <trkpt lat="51.725777" lon="7.088861">
        <ele>52.039050</ele>
        <time>2025-08-12T09:56:42.854Z</time>
      </trkpt>
      <trkpt lat="51.726695" lon="7.089005">
        <ele>52.872705</ele>
        <time>2025-08-12T09:56:56.306Z</time>
      </trkpt>
      <trkpt lat="51.726825" lon="7.089026">
        <ele>52.990794</ele>
        <time>2025-08-12T09:56:58.035Z</time>
      </trkpt>
      <trkpt lat="51.727419" lon="7.089067">
        <ele>53.523678</ele>
        <time>2025-08-12T09:57:06.024Z</time>
      </trkpt>
      <trkpt lat="51.727459" lon="7.089069">
        <ele>53.558050</ele>
        <time>2025-08-12T09:57:06.564Z</time>
      </trkpt>
      <trkpt lat="51.727865" lon="7.089044">
        <ele>53.907009</ele>
        <time>2025-08-12T09:57:12.115Z</time>
      </trkpt>
      <trkpt lat="51.728361" lon="7.088952">
        <ele>54.335817</ele>
        <time>2025-08-12T09:57:19.095Z</time>
      </trkpt>
      <trkpt lat="51.728753" lon="7.088826">
        <ele>54.679106</ele>
        <time>2025-08-12T09:57:25.021Z</time>
      </trkpt>
      <trkpt lat="51.728812" lon="7.088802">
        <ele>54.731364</ele>
        <time>2025-08-12T09:57:25.965Z</time>
      </trkpt>
      <trkpt lat="51.728942" lon="7.088749">
        <ele>54.846523</ele>
        <time>2025-08-12T09:57:28.026Z</time>
      </trkpt>
      <trkpt lat="51.729047" lon="7.088706">
        <ele>54.939562</ele>
        <time>2025-08-12T09:57:29.715Z</time>
      </trkpt>
      <trkpt lat="51.730439" lon="7.088026">
        <ele>57.083478</ele>
        <time>2025-08-12T09:57:54.324Z</time>
      </trkpt>
      <trkpt lat="51.730694" lon="7.087900">
        <ele>57.482449</ele>
        <time>2025-08-12T09:57:59.021Z</time>
      </trkpt>
      <trkpt lat="51.731852" lon="7.087325">
        <ele>58.780066</ele>
        <time>2025-08-12T09:58:18.422Z</time>
      </trkpt>
      <trkpt lat="51.733329" lon="7.086585">
        <ele>60.041998</ele>
        <time>2025-08-12T09:58:39.448Z</time>
      </trkpt>
      <trkpt lat="51.733758" lon="7.086318">
        <ele>60.336169</ele>
        <time>2025-08-12T09:58:45.836Z</time>
      </trkpt>
      <trkpt lat="51.734078" lon="7.086072">
        <ele>60.562935</ele>
        <time>2025-08-12T09:58:50.877Z</time>
      </trkpt>
      <trkpt lat="51.734495" lon="7.085667">
        <ele>60.816892</ele>
        <time>2025-08-12T09:58:57.936Z</time>
      </trkpt>
      <trkpt lat="51.734753" lon="7.085356">
        <ele>60.967534</ele>
        <time>2025-08-12T09:59:02.521Z</time>
      </trkpt>
      <trkpt lat="51.734817" lon="7.085279">
        <ele>61.004877</ele>
        <time>2025-08-12T09:59:03.624Z</time>
      </trkpt>
      <trkpt lat="51.735182" lon="7.084748">
        <ele>61.234746</ele>
        <time>2025-08-12T09:59:10.204Z</time>
      </trkpt>
      <trkpt lat="51.735402" lon="7.084361">
        <ele>61.386964</ele>
        <time>2025-08-12T09:59:14.408Z</time>
      </trkpt>
      <trkpt lat="51.735520" lon="7.084133">
        <ele>61.473061</ele>
        <time>2025-08-12T09:59:16.753Z</time>
      </trkpt>
      <trkpt lat="51.736415" lon="7.082238">
        <ele>61.110076</ele>
        <time>2025-08-12T09:59:33.252Z</time>
      </trkpt>
      <trkpt lat="51.737119" lon="7.080717">
        <ele>61.173831</ele>
        <time>2025-08-12T09:59:45.386Z</time>
      </trkpt>
      <trkpt lat="51.737210" lon="7.080486">
        <ele>61.210415</ele>
        <time>2025-08-12T09:59:47.238Z</time>
      </trkpt>
      <trkpt lat="51.737797" lon="7.079005">
        <ele>61.835754</ele>
        <time>2025-08-12T10:00:03.410Z</time>
      </trkpt>
      <trkpt lat="51.738108" lon="7.078210">
        <ele>62.868677</ele>
        <time>2025-08-12T10:00:14.644Z</time>
      </trkpt>
      <trkpt lat="51.738789" lon="7.076465">
        <ele>64.483697</ele>
        <time>2025-08-12T10:00:38.113Z</time>
      </trkpt>
      <trkpt lat="51.738811" lon="7.076412">
        <ele>64.471255</ele>
        <time>2025-08-12T10:00:38.673Z</time>
      </trkpt>
      <trkpt lat="51.738986" lon="7.075963">
        <ele>64.367809</ele>
        <time>2025-08-12T10:00:42.766Z</time>
      </trkpt>
      <trkpt lat="51.739201" lon="7.075409">
        <ele>64.240326</ele>
        <time>2025-08-12T10:00:46.980Z</time>
      </trkpt>
      <trkpt lat="51.739367" lon="7.074976">
        <ele>64.141027</ele>
        <time>2025-08-12T10:00:49.918Z</time>
      </trkpt>
      <trkpt lat="51.739814" lon="7.073816">
        <ele>63.396224</ele>
        <time>2025-08-12T10:00:57.427Z</time>
      </trkpt>
      <trkpt lat="51.740217" lon="7.072769">
        <ele>62.339154</ele>
        <time>2025-08-12T10:01:04.414Z</time>
      </trkpt>
      <trkpt lat="51.740435" lon="7.072194">
        <ele>61.761043</ele>
        <time>2025-08-12T10:01:08.367Z</time>
      </trkpt>
      <trkpt lat="51.740536" lon="7.071926">
        <ele>61.526834</ele>
        <time>2025-08-12T10:01:10.309Z</time>
      </trkpt>
      <trkpt lat="51.740673" lon="7.071571">
        <ele>61.549034</ele>
        <time>2025-08-12T10:01:13.017Z</time>
      </trkpt>
      <trkpt lat="51.740818" lon="7.071195">
        <ele>61.572542</ele>
        <time>2025-08-12T10:01:16.089Z</time>
      </trkpt>
      <trkpt lat="51.741299" lon="7.069938">
        <ele>61.650962</ele>
        <time>2025-08-12T10:01:28.125Z</time>
      </trkpt>
      <trkpt lat="51.741890" lon="7.068396">
        <ele>61.440328</ele>
        <time>2025-08-12T10:01:43.282Z</time>
      </trkpt>
      <trkpt lat="51.742648" lon="7.066416">
        <ele>60.957113</ele>
        <time>2025-08-12T10:01:57.534Z</time>
      </trkpt>
      <trkpt lat="51.742902" lon="7.065648">
        <ele>60.732633</ele>
        <time>2025-08-12T10:02:02.947Z</time>
      </trkpt>
      <trkpt lat="51.743166" lon="7.064407">
        <ele>60.394325</ele>
        <time>2025-08-12T10:02:12.249Z</time>
      </trkpt>
      <trkpt lat="51.743715" lon="7.061830">
        <ele>61.409173</ele>
        <time>2025-08-12T10:02:36.014Z</time>
      </trkpt>
      <trkpt lat="51.743980" lon="7.060524">
        <ele>61.926892</ele>
        <time>2025-08-12T10:02:48.032Z</time>
      </trkpt>
      <trkpt lat="51.744020" lon="7.060209">
        <ele>62.048093</ele>
        <time>2025-08-12T10:02:50.841Z</time>
      </trkpt>
      <trkpt lat="51.744048" lon="7.059993">
        <ele>62.131272</ele>
        <time>2025-08-12T10:02:52.779Z</time>
      </trkpt>
      <trkpt lat="51.744041" lon="7.059366">
        <ele>62.367637</ele>
        <time>2025-08-12T10:02:58.275Z</time>
      </trkpt>
      <trkpt lat="51.743923" lon="7.057435">
        <ele>62.534237</ele>
        <time>2025-08-12T10:03:13.859Z</time>
      </trkpt>
      <trkpt lat="51.743877" lon="7.056620">
        <ele>62.509383</ele>
        <time>2025-08-12T10:03:19.402Z</time>
      </trkpt>
      <trkpt lat="51.743856" lon="7.056247">
        <ele>62.498008</ele>
        <time>2025-08-12T10:03:21.894Z</time>
      </trkpt>
      <trkpt lat="51.743856" lon="7.055516">
        <ele>62.157852</ele>
        <time>2025-08-12T10:03:26.718Z</time>
      </trkpt>
      <trkpt lat="51.743946" lon="7.054910">
        <ele>61.650487</ele>
        <time>2025-08-12T10:03:30.840Z</time>
      </trkpt>
      <trkpt lat="51.744155" lon="7.054057">
        <ele>60.903627</ele>
        <time>2025-08-12T10:03:36.275Z</time>
      </trkpt>
      <trkpt lat="51.744294" lon="7.053493">
        <ele>60.409415</ele>
        <time>2025-08-12T10:03:39.643Z</time>
      </trkpt>
      <trkpt lat="51.744652" lon="7.052080">
        <ele>58.445337</ele>
        <time>2025-08-12T10:03:47.481Z</time>
      </trkpt>
      <trkpt lat="51.744768" lon="7.051616">
        <ele>57.730867</ele>
        <time>2025-08-12T10:03:49.946Z</time>
      </trkpt>
      <trkpt lat="51.744990" lon="7.050735">
        <ele>56.372787</ele>
        <time>2025-08-12T10:03:54.927Z</time>
      </trkpt>
      <trkpt lat="51.745094" lon="7.050322">
        <ele>56.057255</ele>
        <time>2025-08-12T10:03:57.656Z</time>
      </trkpt>
      <trkpt lat="51.745379" lon="7.049266">
        <ele>56.619914</ele>
        <time>2025-08-12T10:04:06.967Z</time>
      </trkpt>
      <trkpt lat="51.745494" lon="7.048940">
        <ele>56.803174</ele>
        <time>2025-08-12T10:04:10.745Z</time>
      </trkpt>
      <trkpt lat="51.745786" lon="7.048332">
        <ele>57.179007</ele>
        <time>2025-08-12T10:04:19.254Z</time>
      </trkpt>
      <trkpt lat="51.746252" lon="7.047510">
        <ele>57.943269</ele>
        <time>2025-08-12T10:04:31.608Z</time>
      </trkpt>
      <trkpt lat="51.746694" lon="7.046730">
        <ele>58.804842</ele>
        <time>2025-08-12T10:04:42.472Z</time>
      </trkpt>
      <trkpt lat="51.747152" lon="7.045894">
        <ele>59.714415</ele>
        <time>2025-08-12T10:04:52.562Z</time>
      </trkpt>
      <trkpt lat="51.747541" lon="7.045172">
        <ele>59.993512</ele>
        <time>2025-08-12T10:05:01.265Z</time>
      </trkpt>
      <trkpt lat="51.747591" lon="7.045078">
        <ele>60.025490</ele>
        <time>2025-08-12T10:05:02.324Z</time>
      </trkpt>
      <trkpt lat="51.748342" lon="7.043603">
        <ele>60.506949</ele>
        <time>2025-08-12T10:05:17.292Z</time>
      </trkpt>
      <trkpt lat="51.748551" lon="7.043098">
        <ele>60.417221</ele>
        <time>2025-08-12T10:05:21.759Z</time>
      </trkpt>
      <trkpt lat="51.748761" lon="7.042400">
        <ele>60.302586</ele>
        <time>2025-08-12T10:05:26.909Z</time>
      </trkpt>
      <trkpt lat="51.748877" lon="7.041945">
        <ele>60.229900</ele>
        <time>2025-08-12T10:05:29.982Z</time>
      </trkpt>
      <trkpt lat="51.749232" lon="7.040551">
        <ele>60.093729</ele>
        <time>2025-08-12T10:05:40.365Z</time>
      </trkpt>
      <trkpt lat="51.749655" lon="7.038906">
        <ele>60.135295</ele>
        <time>2025-08-12T10:05:55.039Z</time>
      </trkpt>
      <trkpt lat="51.749714" lon="7.038677">
        <ele>60.141083</ele>
        <time>2025-08-12T10:05:57.074Z</time>
      </trkpt>
      <trkpt lat="51.749870" lon="7.038046">
        <ele>59.695720</ele>
        <time>2025-08-12T10:06:02.015Z</time>
      </trkpt>
      <trkpt lat="51.750049" lon="7.037177">
        <ele>58.350510</ele>
        <time>2025-08-12T10:06:07.026Z</time>
      </trkpt>
      <trkpt lat="51.750052" lon="7.037159">
        <ele>58.323129</ele>
        <time>2025-08-12T10:06:07.122Z</time>
      </trkpt>
      <trkpt lat="51.750172" lon="7.036318">
        <ele>57.055462</ele>
        <time>2025-08-12T10:06:11.370Z</time>
      </trkpt>
      <trkpt lat="51.750219" lon="7.035935">
        <ele>56.481957</ele>
        <time>2025-08-12T10:06:13.280Z</time>
      </trkpt>
      <trkpt lat="51.750244" lon="7.035729">
        <ele>56.173621</ele>
        <time>2025-08-12T10:06:14.323Z</time>
      </trkpt>
      <trkpt lat="51.750294" lon="7.035336">
        <ele>55.821205</ele>
        <time>2025-08-12T10:06:16.335Z</time>
      </trkpt>
      <trkpt lat="51.750341" lon="7.034961">
        <ele>55.705899</ele>
        <time>2025-08-12T10:06:18.276Z</time>
      </trkpt>
      <trkpt lat="51.750374" lon="7.034725">
        <ele>55.632985</ele>
        <time>2025-08-12T10:06:19.540Z</time>
      </trkpt>
      <trkpt lat="51.750531" lon="7.033841">
        <ele>55.355831</ele>
        <time>2025-08-12T10:06:25.106Z</time>
      </trkpt>
      <trkpt lat="51.750658" lon="7.033131">
        <ele>55.133108</ele>
        <time>2025-08-12T10:06:32.551Z</time>
      </trkpt>
      <trkpt lat="51.750750" lon="7.032448">
        <ele>55.280697</ele>
        <time>2025-08-12T10:06:41.252Z</time>
      </trkpt>
      <trkpt lat="51.750696" lon="7.032433">
        <ele>55.367328</ele>
        <time>2025-08-12T10:06:42.328Z</time>
      </trkpt>
      <trkpt lat="51.750712" lon="7.032289">
        <ele>55.510530</ele>
        <time>2025-08-12T10:06:44.192Z</time>
      </trkpt>
      <trkpt lat="51.749788" lon="7.032056">
        <ele>56.989139</ele>
        <time>2025-08-12T10:07:01.902Z</time>
      </trkpt>
      <trkpt lat="51.748850" lon="7.031879">
        <ele>57.689940</ele>
        <time>2025-08-12T10:07:14.145Z</time>
      </trkpt>
      <trkpt lat="51.748434" lon="7.031810">
        <ele>57.521797</ele>
        <time>2025-08-12T10:07:18.616Z</time>
      </trkpt>
      <trkpt lat="51.747957" lon="7.031816">
        <ele>57.330000</ele>
        <time>2025-08-12T10:07:23.626Z</time>
      </trkpt>
      <trkpt lat="51.746986" lon="7.031906">
        <ele>56.436539</ele>
        <time>2025-08-12T10:07:33.118Z</time>
      </trkpt>
      <trkpt lat="51.746730" lon="7.031963">
        <ele>56.055625</ele>
        <time>2025-08-12T10:07:35.475Z</time>
      </trkpt>
      <trkpt lat="51.746047" lon="7.032253">
        <ele>55.014670</ele>
        <time>2025-08-12T10:07:41.845Z</time>
      </trkpt>
      <trkpt lat="51.745694" lon="7.032333">
        <ele>54.489248</ele>
        <time>2025-08-12T10:07:45.074Z</time>
      </trkpt>
      <trkpt lat="51.745527" lon="7.032306">
        <ele>54.253116</ele>
        <time>2025-08-12T10:07:46.569Z</time>
      </trkpt>
      <trkpt lat="51.745412" lon="7.032248">
        <ele>54.084064</ele>
        <time>2025-08-12T10:07:47.645Z</time>
      </trkpt>
      <trkpt lat="51.745207" lon="7.032043">
        <ele>53.745735</ele>
        <time>2025-08-12T10:07:49.841Z</time>
      </trkpt>
      <trkpt lat="51.744929" lon="7.031794">
        <ele>53.299677</ele>
        <time>2025-08-12T10:07:52.811Z</time>
      </trkpt>
      <trkpt lat="51.744806" lon="7.031727">
        <ele>53.117532</ele>
        <time>2025-08-12T10:07:54.050Z</time>
      </trkpt>
      <trkpt lat="51.744166" lon="7.031539">
        <ele>52.204755</ele>
        <time>2025-08-12T10:08:00.249Z</time>
      </trkpt>
      <trkpt lat="51.743402" lon="7.031035">
        <ele>51.439760</ele>
        <time>2025-08-12T10:08:08.059Z</time>
      </trkpt>
      <trkpt lat="51.743287" lon="7.030972">
        <ele>51.343314</ele>
        <time>2025-08-12T10:08:09.232Z</time>
      </trkpt>
      <trkpt lat="51.743029" lon="7.030907">
        <ele>51.135929</ele>
        <time>2025-08-12T10:08:11.778Z</time>
      </trkpt>
      <trkpt lat="51.742978" lon="7.030889">
        <ele>51.094468</ele>
        <time>2025-08-12T10:08:12.316Z</time>
      </trkpt>
      <trkpt lat="51.742144" lon="7.030606">
        <ele>50.749272</ele>
        <time>2025-08-12T10:08:21.283Z</time>
      </trkpt>
      <trkpt lat="51.742108" lon="7.030591">
        <ele>50.811957</ele>
        <time>2025-08-12T10:08:21.801Z</time>
      </trkpt>
      <trkpt lat="51.741765" lon="7.030458">
        <ele>51.406708</ele>
        <time>2025-08-12T10:08:26.719Z</time>
      </trkpt>
      <trkpt lat="51.741579" lon="7.030355">
        <ele>51.738238</ele>
        <time>2025-08-12T10:08:29.807Z</time>
      </trkpt>
      <trkpt lat="51.741329" lon="7.030161">
        <ele>52.205886</ele>
        <time>2025-08-12T10:08:34.686Z</time>
      </trkpt>
      <trkpt lat="51.740314" lon="7.029205">
        <ele>54.410686</ele>
        <time>2025-08-12T10:08:59.677Z</time>
      </trkpt>
      <trkpt lat="51.739431" lon="7.028385">
        <ele>56.737226</ele>
        <time>2025-08-12T10:09:20.050Z</time>
      </trkpt>
      <trkpt lat="51.739187" lon="7.028072">
        <ele>57.448978</ele>
        <time>2025-08-12T10:09:25.302Z</time>
      </trkpt>
      <trkpt lat="51.738660" lon="7.027261">
        <ele>58.048377</ele>
        <time>2025-08-12T10:09:36.108Z</time>
      </trkpt>
      <trkpt lat="51.738320" lon="7.026645">
        <ele>58.357853</ele>
        <time>2025-08-12T10:09:42.718Z</time>
      </trkpt>
      <trkpt lat="51.737857" lon="7.025930">
        <ele>58.745847</ele>
        <time>2025-08-12T10:09:50.878Z</time>
      </trkpt>
      <trkpt lat="51.737183" lon="7.024763">
        <ele>58.538170</ele>
        <time>2025-08-12T10:10:02.996Z</time>
      </trkpt>
      <trkpt lat="51.736235" lon="7.023232">
        <ele>57.405226</ele>
        <time>2025-08-12T10:10:16.911Z</time>
      </trkpt>
      <trkpt lat="51.736107" lon="7.023018">
        <ele>57.066377</ele>
        <time>2025-08-12T10:10:18.560Z</time>
      </trkpt>
      <trkpt lat="51.734340" lon="7.020044">
        <ele>51.794154</ele>
        <time>2025-08-12T10:10:40.151Z</time>
      </trkpt>
      <trkpt lat="51.733284" lon="7.018258">
        <ele>49.737403</ele>
        <time>2025-08-12T10:10:54.489Z</time>
      </trkpt>
      <trkpt lat="51.733125" lon="7.018044">
        <ele>49.512545</ele>
        <time>2025-08-12T10:10:56.624Z</time>
      </trkpt>
      <trkpt lat="51.732995" lon="7.017966">
        <ele>49.361891</ele>
        <time>2025-08-12T10:10:58.064Z</time>
      </trkpt>
      <trkpt lat="51.732854" lon="7.017945">
        <ele>49.208073</ele>
        <time>2025-08-12T10:10:59.556Z</time>
      </trkpt>
      <trkpt lat="51.732768" lon="7.017974">
        <ele>49.112636</ele>
        <time>2025-08-12T10:11:00.473Z</time>
      </trkpt>
      <trkpt lat="51.731531" lon="7.019064">
        <ele>48.620254</ele>
        <time>2025-08-12T10:11:16.275Z</time>
      </trkpt>
      <trkpt lat="51.731389" lon="7.019121">
        <ele>48.572127</ele>
        <time>2025-08-12T10:11:17.888Z</time>
      </trkpt>
      <trkpt lat="51.731069" lon="7.018998">
        <ele>48.448036</ele>
        <time>2025-08-12T10:11:21.492Z</time>
      </trkpt>
      <trkpt lat="51.731054" lon="7.018849">
        <ele>48.386130</ele>
        <time>2025-08-12T10:11:22.497Z</time>
      </trkpt>
      <trkpt lat="51.730848" lon="7.016712">
        <ele>47.499203</ele>
        <time>2025-08-12T10:11:36.236Z</time>
      </trkpt>
      <trkpt lat="51.730841" lon="7.016627">
        <ele>47.464038</ele>
        <time>2025-08-12T10:11:36.756Z</time>
      </trkpt>
      <trkpt lat="51.730813" lon="7.016283">
        <ele>47.321751</ele>
        <time>2025-08-12T10:11:38.836Z</time>
      </trkpt>
      <trkpt lat="51.730708" lon="7.015076">
        <ele>47.337338</ele>
        <time>2025-08-12T10:11:46.558Z</time>
      </trkpt>
      <trkpt lat="51.730652" lon="7.014562">
        <ele>47.359646</ele>
        <time>2025-08-12T10:11:50.223Z</time>
      </trkpt>
      <trkpt lat="51.730568" lon="7.014095">
        <ele>47.380433</ele>
        <time>2025-08-12T10:11:54.040Z</time>
      </trkpt>
      <trkpt lat="51.730463" lon="7.013700">
        <ele>47.398807</ele>
        <time>2025-08-12T10:11:57.935Z</time>
      </trkpt>
      <trkpt lat="51.730382" lon="7.013492">
        <ele>47.409310</ele>
        <time>2025-08-12T10:12:00.342Z</time>
      </trkpt>
      <trkpt lat="51.730017" lon="7.012459">
        <ele>48.130449</ele>
        <time>2025-08-12T10:12:12.732Z</time>
      </trkpt>
      <trkpt lat="51.729881" lon="7.012137">
        <ele>48.383065</ele>
        <time>2025-08-12T10:12:16.696Z</time>
      </trkpt>
      <trkpt lat="51.729463" lon="7.011413">
        <ele>49.024596</ele>
        <time>2025-08-12T10:12:26.129Z</time>
      </trkpt>
      <trkpt lat="51.729244" lon="7.011170">
        <ele>49.292954</ele>
        <time>2025-08-12T10:12:29.636Z</time>
      </trkpt>
      <trkpt lat="51.729200" lon="7.011142">
        <ele>49.279129</ele>
        <time>2025-08-12T10:12:30.234Z</time>
      </trkpt>
      <trkpt lat="51.728588" lon="7.010764">
        <ele>49.087592</ele>
        <time>2025-08-12T10:12:37.995Z</time>
      </trkpt>
      <trkpt lat="51.728478" lon="7.010661">
        <ele>49.050421</ele>
        <time>2025-08-12T10:12:39.466Z</time>
      </trkpt>
      <trkpt lat="51.728378" lon="7.010451">
        <ele>49.002462</ele>
        <time>2025-08-12T10:12:41.323Z</time>
      </trkpt>
      <trkpt lat="51.727512" lon="7.007946">
        <ele>47.713434</ele>
        <time>2025-08-12T10:12:59.276Z</time>
      </trkpt>
      <trkpt lat="51.727370" lon="7.007687">
        <ele>47.482438</ele>
        <time>2025-08-12T10:13:01.184Z</time>
      </trkpt>
      <trkpt lat="51.727205" lon="7.007576">
        <ele>47.289709</ele>
        <time>2025-08-12T10:13:02.776Z</time>
      </trkpt>
      <trkpt lat="51.727152" lon="7.007575">
        <ele>47.232561</ele>
        <time>2025-08-12T10:13:03.464Z</time>
      </trkpt>
      <trkpt lat="51.727123" lon="7.007603">
        <ele>47.196128</ele>
        <time>2025-08-12T10:13:03.779Z</time>
      </trkpt>
      <trkpt lat="51.726267" lon="7.007850">
        <ele>46.764034</ele>
        <time>2025-08-12T10:13:12.014Z</time>
      </trkpt>
      <trkpt lat="51.726078" lon="7.007899">
        <ele>46.740199</ele>
        <time>2025-08-12T10:13:14.040Z</time>
      </trkpt>
      <trkpt lat="51.725691" lon="7.008017">
        <ele>46.691160</ele>
        <time>2025-08-12T10:13:19.193Z</time>
      </trkpt>
      <trkpt lat="51.725489" lon="7.008117">
        <ele>46.664852</ele>
        <time>2025-08-12T10:13:22.081Z</time>
      </trkpt>
      <trkpt lat="51.725317" lon="7.008253">
        <ele>46.641005</ele>
        <time>2025-08-12T10:13:24.790Z</time>
      </trkpt>
      <trkpt lat="51.725199" lon="7.008370">
        <ele>46.623763</ele>
        <time>2025-08-12T10:13:26.811Z</time>
      </trkpt>
      <trkpt lat="51.724562" lon="7.009247">
        <ele>46.965487</ele>
        <time>2025-08-12T10:13:38.572Z</time>
      </trkpt>
      <trkpt lat="51.724524" lon="7.009292">
        <ele>46.989855</ele>
        <time>2025-08-12T10:13:39.250Z</time>
      </trkpt>
      <trkpt lat="51.724169" lon="7.009707">
        <ele>47.216484</ele>
        <time>2025-08-12T10:13:45.466Z</time>
      </trkpt>
      <trkpt lat="51.723998" lon="7.009903">
        <ele>47.324922</ele>
        <time>2025-08-12T10:13:48.234Z</time>
      </trkpt>
      <trkpt lat="51.723873" lon="7.010038">
        <ele>47.402685</ele>
        <time>2025-08-12T10:13:50.207Z</time>
      </trkpt>
      <trkpt lat="51.723802" lon="7.010109">
        <ele>47.445869</ele>
        <time>2025-08-12T10:13:51.290Z</time>
      </trkpt>
      <trkpt lat="51.723511" lon="7.010437">
        <ele>47.401290</ele>
        <time>2025-08-12T10:13:55.739Z</time>
      </trkpt>
      <trkpt lat="51.723205" lon="7.010780">
        <ele>47.123010</ele>
        <time>2025-08-12T10:13:59.976Z</time>
      </trkpt>
      <trkpt lat="51.722975" lon="7.010937">
        <ele>46.936473</ele>
        <time>2025-08-12T10:14:02.557Z</time>
      </trkpt>
      <trkpt lat="51.722722" lon="7.011091">
        <ele>46.734495</ele>
        <time>2025-08-12T10:14:05.121Z</time>
      </trkpt>
      <trkpt lat="51.722350" lon="7.011275">
        <ele>46.443862</ele>
        <time>2025-08-12T10:14:08.633Z</time>
      </trkpt>
      <trkpt lat="51.722274" lon="7.011277">
        <ele>46.387083</ele>
        <time>2025-08-12T10:14:09.335Z</time>
      </trkpt>
      <trkpt lat="51.722222" lon="7.011534">
        <ele>46.261975</ele>
        <time>2025-08-12T10:14:10.932Z</time>
      </trkpt>
      <trkpt lat="51.722150" lon="7.011918">
        <ele>46.156370</ele>
        <time>2025-08-12T10:14:13.375Z</time>
      </trkpt>
      <trkpt lat="51.722047" lon="7.012465">
        <ele>46.074087</ele>
        <time>2025-08-12T10:14:16.959Z</time>
      </trkpt>
      <trkpt lat="51.721978" lon="7.012698">
        <ele>46.036918</ele>
        <time>2025-08-12T10:14:18.621Z</time>
      </trkpt>
      <trkpt lat="51.721947" lon="7.012778">
        <ele>46.023337</ele>
        <time>2025-08-12T10:14:19.239Z</time>
      </trkpt>
      <trkpt lat="51.721753" lon="7.013187">
        <ele>45.949198</ele>
        <time>2025-08-12T10:14:22.838Z</time>
      </trkpt>
      <trkpt lat="51.721605" lon="7.013426">
        <ele>45.900561</ele>
        <time>2025-08-12T10:14:25.387Z</time>
      </trkpt>
      <trkpt lat="51.721493" lon="7.013606">
        <ele>45.863842</ele>
        <time>2025-08-12T10:14:27.338Z</time>
      </trkpt>
      <trkpt lat="51.721381" lon="7.013773">
        <ele>45.828419</ele>
        <time>2025-08-12T10:14:29.267Z</time>
      </trkpt>
      <trkpt lat="51.721319" lon="7.013866">
        <ele>45.808755</ele>
        <time>2025-08-12T10:14:30.340Z</time>
      </trkpt>
      <trkpt lat="51.721241" lon="7.013987">
        <ele>45.783622</ele>
        <time>2025-08-12T10:14:31.830Z</time>
      </trkpt>
      <trkpt lat="51.721182" lon="7.014066">
        <ele>45.808856</ele>
        <time>2025-08-12T10:14:32.896Z</time>
      </trkpt>
      <trkpt lat="51.721086" lon="7.014194">
        <ele>45.921225</ele>
        <time>2025-08-12T10:14:34.740Z</time>
      </trkpt>
      <trkpt lat="51.721073" lon="7.014213">
        <ele>45.937051</ele>
        <time>2025-08-12T10:14:34.991Z</time>
      </trkpt>
      <trkpt lat="51.720934" lon="7.014410">
        <ele>46.103982</ele>
        <time>2025-08-12T10:14:37.725Z</time>
      </trkpt>
      <trkpt lat="51.720886" lon="7.014478">
        <ele>46.161616</ele>
        <time>2025-08-12T10:14:38.670Z</time>
      </trkpt>
      <trkpt lat="51.720801" lon="7.014627">
        <ele>46.274856</ele>
        <time>2025-08-12T10:14:40.503Z</time>
      </trkpt>
      <trkpt lat="51.720710" lon="7.014558">
        <ele>46.365589</ele>
        <time>2025-08-12T10:14:41.874Z</time>
      </trkpt>
      <trkpt lat="51.720434" lon="7.014348">
        <ele>46.640952</ele>
        <time>2025-08-12T10:14:46.117Z</time>
      </trkpt>
      <trkpt lat="51.720298" lon="7.014245">
        <ele>46.776524</ele>
        <time>2025-08-12T10:14:48.366Z</time>
      </trkpt>
      <trkpt lat="51.720237" lon="7.014199">
        <ele>46.837285</ele>
        <time>2025-08-12T10:14:49.428Z</time>
      </trkpt>
      <trkpt lat="51.719964" lon="7.013993">
        <ele>47.109247</ele>
        <time>2025-08-12T10:14:54.100Z</time>
      </trkpt>
      <trkpt lat="51.719771" lon="7.013845">
        <ele>47.302077</ele>
        <time>2025-08-12T10:14:57.485Z</time>
      </trkpt>
      <trkpt lat="51.719712" lon="7.013799">
        <ele>47.361208</ele>
        <time>2025-08-12T10:14:58.559Z</time>
      </trkpt>
      <trkpt lat="51.719511" lon="7.013647">
        <ele>47.571821</ele>
        <time>2025-08-12T10:15:02.173Z</time>
      </trkpt>
      <trkpt lat="51.719449" lon="7.013600">
        <ele>47.637526</ele>
        <time>2025-08-12T10:15:03.311Z</time>
      </trkpt>
      <trkpt lat="51.719233" lon="7.013440">
        <ele>47.865497</ele>
        <time>2025-08-12T10:15:07.199Z</time>
      </trkpt>
      <trkpt lat="51.719205" lon="7.013419">
        <ele>47.895113</ele>
        <time>2025-08-12T10:15:07.703Z</time>
      </trkpt>
      <trkpt lat="51.719142" lon="7.013399">
        <ele>47.956703</ele>
        <time>2025-08-12T10:15:08.704Z</time>
      </trkpt>
      <trkpt lat="51.719028" lon="7.013334">
        <ele>48.072678</ele>
        <time>2025-08-12T10:15:10.569Z</time>
      </trkpt>
      <trkpt lat="51.718719" lon="7.013098">
        <ele>48.400589</ele>
        <time>2025-08-12T10:15:15.659Z</time>
      </trkpt>
      <trkpt lat="51.718550" lon="7.012997">
        <ele>48.573455</ele>
        <time>2025-08-12T10:15:18.348Z</time>
      </trkpt>
      <trkpt lat="51.718264" lon="7.012890">
        <ele>48.855071</ele>
        <time>2025-08-12T10:15:22.777Z</time>
      </trkpt>
      <trkpt lat="51.718174" lon="7.012863">
        <ele>48.942881</ele>
        <time>2025-08-12T10:15:24.086Z</time>
      </trkpt>
      <trkpt lat="51.717926" lon="7.012791">
        <ele>49.119960</ele>
        <time>2025-08-12T10:15:27.468Z</time>
      </trkpt>
      <trkpt lat="51.717722" lon="7.012733">
        <ele>49.109604</ele>
        <time>2025-08-12T10:15:30.096Z</time>
      </trkpt>
      <trkpt lat="51.717436" lon="7.012685">
        <ele>49.095227</ele>
        <time>2025-08-12T10:15:33.556Z</time>
      </trkpt>
      <trkpt lat="51.717346" lon="7.012689">
        <ele>49.090726</ele>
        <time>2025-08-12T10:15:34.603Z</time>
      </trkpt>
      <trkpt lat="51.717199" lon="7.012696">
        <ele>49.083373</ele>
        <time>2025-08-12T10:15:36.289Z</time>
      </trkpt>
      <trkpt lat="51.717052" lon="7.012720">
        <ele>49.075986</ele>
        <time>2025-08-12T10:15:37.993Z</time>
      </trkpt>
      <trkpt lat="51.716990" lon="7.012730">
        <ele>49.072871</ele>
        <time>2025-08-12T10:15:38.712Z</time>
      </trkpt>
      <trkpt lat="51.716875" lon="7.012756">
        <ele>49.067065</ele>
        <time>2025-08-12T10:15:40.005Z</time>
      </trkpt>
      <trkpt lat="51.716785" lon="7.012781">
        <ele>49.062499</ele>
        <time>2025-08-12T10:15:41.021Z</time>
      </trkpt>
      <trkpt lat="51.716506" lon="7.012831">
        <ele>49.048464</ele>
        <time>2025-08-12T10:15:44.087Z</time>
      </trkpt>
      <trkpt lat="51.716412" lon="7.012833">
        <ele>49.043763</ele>
        <time>2025-08-12T10:15:45.094Z</time>
      </trkpt>
      <trkpt lat="51.716334" lon="7.012834">
        <ele>49.039864</ele>
        <time>2025-08-12T10:15:45.937Z</time>
      </trkpt>
      <trkpt lat="51.716157" lon="7.012807">
        <ele>49.013324</ele>
        <time>2025-08-12T10:15:47.842Z</time>
      </trkpt>
      <trkpt lat="51.715895" lon="7.012722">
        <ele>48.895594</ele>
        <time>2025-08-12T10:15:50.714Z</time>
      </trkpt>
      <trkpt lat="51.715381" lon="7.012453">
        <ele>48.657550</ele>
        <time>2025-08-12T10:15:56.664Z</time>
      </trkpt>
      <trkpt lat="51.715186" lon="7.012368">
        <ele>48.568566</ele>
        <time>2025-08-12T10:15:58.961Z</time>
      </trkpt>
      <trkpt lat="51.714394" lon="7.012060">
        <ele>48.168329</ele>
        <time>2025-08-12T10:16:07.643Z</time>
      </trkpt>
      <trkpt lat="51.714267" lon="7.012011">
        <ele>48.034539</ele>
        <time>2025-08-12T10:16:08.954Z</time>
      </trkpt>
      <trkpt lat="51.713710" lon="7.011783">
        <ele>47.445771</ele>
        <time>2025-08-12T10:16:14.577Z</time>
      </trkpt>
      <trkpt lat="51.713548" lon="7.011684">
        <ele>47.268287</ele>
        <time>2025-08-12T10:16:16.229Z</time>
      </trkpt>
      <trkpt lat="51.713316" lon="7.011577">
        <ele>47.021066</ele>
        <time>2025-08-12T10:16:18.500Z</time>
      </trkpt>
      <trkpt lat="51.713104" lon="7.011480">
        <ele>46.795292</ele>
        <time>2025-08-12T10:16:20.551Z</time>
      </trkpt>
      <trkpt lat="51.713057" lon="7.011462">
        <ele>46.745798</ele>
        <time>2025-08-12T10:16:21.006Z</time>
      </trkpt>
      <trkpt lat="51.713024" lon="7.011449">
        <ele>46.710994</ele>
        <time>2025-08-12T10:16:21.319Z</time>
      </trkpt>
      <trkpt lat="51.712438" lon="7.011222">
        <ele>46.155601</ele>
        <time>2025-08-12T10:16:27.075Z</time>
      </trkpt>
      <trkpt lat="51.711026" lon="7.010676">
        <ele>44.971241</ele>
        <time>2025-08-12T10:16:41.902Z</time>
      </trkpt>
      <trkpt lat="51.710810" lon="7.010592">
        <ele>44.838882</ele>
        <time>2025-08-12T10:16:44.226Z</time>
      </trkpt>
      <trkpt lat="51.708152" lon="7.009440">
        <ele>43.398532</ele>
        <time>2025-08-12T10:17:13.267Z</time>
      </trkpt>
      <trkpt lat="51.707923" lon="7.009337">
        <ele>43.277293</ele>
        <time>2025-08-12T10:17:15.733Z</time>
      </trkpt>
      <trkpt lat="51.707699" lon="7.009231">
        <ele>43.158244</ele>
        <time>2025-08-12T10:17:18.226Z</time>
      </trkpt>
      <trkpt lat="51.707498" lon="7.009134">
        <ele>43.052871</ele>
        <time>2025-08-12T10:17:20.443Z</time>
      </trkpt>
      <trkpt lat="51.707344" lon="7.009060">
        <ele>43.001555</ele>
        <time>2025-08-12T10:17:22.167Z</time>
      </trkpt>
      <trkpt lat="51.706705" lon="7.008748">
        <ele>42.788345</ele>
        <time>2025-08-12T10:17:29.696Z</time>
      </trkpt>
      <trkpt lat="51.706252" lon="7.008527">
        <ele>42.637207</ele>
        <time>2025-08-12T10:17:35.250Z</time>
      </trkpt>
      <trkpt lat="51.705399" lon="7.008132">
        <ele>42.175578</ele>
        <time>2025-08-12T10:17:44.595Z</time>
      </trkpt>
      <trkpt lat="51.704544" lon="7.007921">
        <ele>41.512840</ele>
        <time>2025-08-12T10:17:53.304Z</time>
      </trkpt>
      <trkpt lat="51.704334" lon="7.007892">
        <ele>41.351345</ele>
        <time>2025-08-12T10:17:55.409Z</time>
      </trkpt>
      <trkpt lat="51.704173" lon="7.007869">
        <ele>41.227500</ele>
        <time>2025-08-12T10:17:56.989Z</time>
      </trkpt>
      <trkpt lat="51.703529" lon="7.007779">
        <ele>40.746568</ele>
        <time>2025-08-12T10:18:03.323Z</time>
      </trkpt>
      <trkpt lat="51.703187" lon="7.007771">
        <ele>40.494644</ele>
        <time>2025-08-12T10:18:06.829Z</time>
      </trkpt>
      <trkpt lat="51.702572" lon="7.007835">
        <ele>40.040728</ele>
        <time>2025-08-12T10:18:13.188Z</time>
      </trkpt>
      <trkpt lat="51.702357" lon="7.007752">
        <ele>39.877902</ele>
        <time>2025-08-12T10:18:15.447Z</time>
      </trkpt>
      <trkpt lat="51.702322" lon="7.007739">
        <ele>39.851449</ele>
        <time>2025-08-12T10:18:15.812Z</time>
      </trkpt>
      <trkpt lat="51.702154" lon="7.007635">
        <ele>39.758307</ele>
        <time>2025-08-12T10:18:17.657Z</time>
      </trkpt>
      <trkpt lat="51.701961" lon="7.007427">
        <ele>39.700902</ele>
        <time>2025-08-12T10:18:20.071Z</time>
      </trkpt>
      <trkpt lat="51.701824" lon="7.007276">
        <ele>39.659866</ele>
        <time>2025-08-12T10:18:21.851Z</time>
      </trkpt>
      <trkpt lat="51.701677" lon="7.007175">
        <ele>39.620349</ele>
        <time>2025-08-12T10:18:23.627Z</time>
      </trkpt>
      <trkpt lat="51.701596" lon="7.007087">
        <ele>39.596196</ele>
        <time>2025-08-12T10:18:24.729Z</time>
      </trkpt>
      <trkpt lat="51.701194" lon="7.006640">
        <ele>39.475444</ele>
        <time>2025-08-12T10:18:30.395Z</time>
      </trkpt>
      <trkpt lat="51.699702" lon="7.004981">
        <ele>39.237755</ele>
        <time>2025-08-12T10:18:51.414Z</time>
      </trkpt>
      <trkpt lat="51.698842" lon="7.004024">
        <ele>39.024795</ele>
        <time>2025-08-12T10:19:03.871Z</time>
      </trkpt>
      <trkpt lat="51.698395" lon="7.003571">
        <ele>38.839643</ele>
        <time>2025-08-12T10:19:09.887Z</time>
      </trkpt>
      <trkpt lat="51.698163" lon="7.003379">
        <ele>38.748187</ele>
        <time>2025-08-12T10:19:12.712Z</time>
      </trkpt>
      <trkpt lat="51.697966" lon="7.003233">
        <ele>38.672146</ele>
        <time>2025-08-12T10:19:14.976Z</time>
      </trkpt>
      <trkpt lat="51.696446" lon="7.002352">
        <ele>37.554471</ele>
        <time>2025-08-12T10:19:30.938Z</time>
      </trkpt>
      <trkpt lat="51.696015" lon="7.001996">
        <ele>37.180198</ele>
        <time>2025-08-12T10:19:35.937Z</time>
      </trkpt>
      <trkpt lat="51.695266" lon="7.001225">
        <ele>36.751464</ele>
        <time>2025-08-12T10:19:45.556Z</time>
      </trkpt>
      <trkpt lat="51.693860" lon="6.999739">
        <ele>36.100436</ele>
        <time>2025-08-12T10:20:03.371Z</time>
      </trkpt>
      <trkpt lat="51.693430" lon="6.999285">
        <ele>35.958604</ele>
        <time>2025-08-12T10:20:09.415Z</time>
      </trkpt>
      <trkpt lat="51.693315" lon="6.999167">
        <ele>35.920990</ele>
        <time>2025-08-12T10:20:11.013Z</time>
      </trkpt>
      <trkpt lat="51.692773" lon="6.998593">
        <ele>35.743359</ele>
        <time>2025-08-12T10:20:18.557Z</time>
      </trkpt>
      <trkpt lat="51.691894" lon="6.997664">
        <ele>35.458591</ele>
        <time>2025-08-12T10:20:30.172Z</time>
      </trkpt>
      <trkpt lat="51.691341" lon="6.997080">
        <ele>35.307254</ele>
        <time>2025-08-12T10:20:37.127Z</time>
      </trkpt>
      <trkpt lat="51.690204" lon="6.995878">
        <ele>35.154970</ele>
        <time>2025-08-12T10:20:53.087Z</time>
      </trkpt>
      <trkpt lat="51.688362" lon="6.993931">
        <ele>35.028983</ele>
        <time>2025-08-12T10:21:19.502Z</time>
      </trkpt>
      <trkpt lat="51.687351" lon="6.992917">
        <ele>34.490244</ele>
        <time>2025-08-12T10:21:31.977Z</time>
      </trkpt>
      <trkpt lat="51.686096" lon="6.991764">
        <ele>33.856273</ele>
        <time>2025-08-12T10:21:47.297Z</time>
      </trkpt>
      <trkpt lat="51.684391" lon="6.990335">
        <ele>33.336621</ele>
        <time>2025-08-12T10:22:08.048Z</time>
      </trkpt>
      <trkpt lat="51.684271" lon="6.990234">
        <ele>33.316455</ele>
        <time>2025-08-12T10:22:09.725Z</time>
      </trkpt>
      <trkpt lat="51.684150" lon="6.990134">
        <ele>33.296199</ele>
        <time>2025-08-12T10:22:11.459Z</time>
      </trkpt>
      <trkpt lat="51.683157" lon="6.989300">
        <ele>33.017024</ele>
        <time>2025-08-12T10:22:25.639Z</time>
      </trkpt>
      <trkpt lat="51.683040" lon="6.989205">
        <ele>32.976183</ele>
        <time>2025-08-12T10:22:27.139Z</time>
      </trkpt>
      <trkpt lat="51.682948" lon="6.989129">
        <ele>32.943955</ele>
        <time>2025-08-12T10:22:28.284Z</time>
      </trkpt>
      <trkpt lat="51.682367" lon="6.988642">
        <ele>32.739803</ele>
        <time>2025-08-12T10:22:35.072Z</time>
      </trkpt>
      <trkpt lat="51.681934" lon="6.988280">
        <ele>32.479378</ele>
        <time>2025-08-12T10:22:39.809Z</time>
      </trkpt>
      <trkpt lat="51.680872" lon="6.987402">
        <ele>31.625580</ele>
        <time>2025-08-12T10:22:51.875Z</time>
      </trkpt>
      <trkpt lat="51.679832" lon="6.986542">
        <ele>31.017682</ele>
        <time>2025-08-12T10:23:04.528Z</time>
      </trkpt>
      <trkpt lat="51.678150" lon="6.985144">
        <ele>30.638839</ele>
        <time>2025-08-12T10:23:24.768Z</time>
      </trkpt>
      <trkpt lat="51.677529" lon="6.984603">
        <ele>30.675092</ele>
        <time>2025-08-12T10:23:33.728Z</time>
      </trkpt>
      <trkpt lat="51.677104" lon="6.984158">
        <ele>30.864325</ele>
        <time>2025-08-12T10:23:41.507Z</time>
      </trkpt>
      <trkpt lat="51.677004" lon="6.984018">
        <ele>30.934799</ele>
        <time>2025-08-12T10:23:43.503Z</time>
      </trkpt>
      <trkpt lat="51.676748" lon="6.983658">
        <ele>31.115558</ele>
        <time>2025-08-12T10:23:48.625Z</time>
      </trkpt>
      <trkpt lat="51.676518" lon="6.983228">
        <ele>31.302955</ele>
        <time>2025-08-12T10:23:53.870Z</time>
      </trkpt>
      <trkpt lat="51.676316" lon="6.982755">
        <ele>31.492482</ele>
        <time>2025-08-12T10:23:58.700Z</time>
      </trkpt>
      <trkpt lat="51.676188" lon="6.982388">
        <ele>31.631436</ele>
        <time>2025-08-12T10:24:01.726Z</time>
      </trkpt>
      <trkpt lat="51.675994" lon="6.981642">
        <ele>31.462518</ele>
        <time>2025-08-12T10:24:06.803Z</time>
      </trkpt>
      <trkpt lat="51.675958" lon="6.981467">
        <ele>31.420375</ele>
        <time>2025-08-12T10:24:07.918Z</time>
      </trkpt>
      <trkpt lat="51.675934" lon="6.981347">
        <ele>31.391556</ele>
        <time>2025-08-12T10:24:08.678Z</time>
      </trkpt>
      <trkpt lat="51.675998" lon="6.981282">
        <ele>31.363677</ele>
        <time>2025-08-12T10:24:09.435Z</time>
      </trkpt>
      <trkpt lat="51.676008" lon="6.981234">
        <ele>31.352103</ele>
        <time>2025-08-12T10:24:09.741Z</time>
      </trkpt>
      <trkpt lat="51.676032" lon="6.981110">
        <ele>31.322412</ele>
        <time>2025-08-12T10:24:10.564Z</time>
      </trkpt>
      <trkpt lat="51.676110" lon="6.981089">
        <ele>31.293264</ele>
        <time>2025-08-12T10:24:11.365Z</time>
      </trkpt>
      <trkpt lat="51.676470" lon="6.980971">
        <ele>31.157857</ele>
        <time>2025-08-12T10:24:15.252Z</time>
      </trkpt>
      <trkpt lat="51.676515" lon="6.980908">
        <ele>31.135892</ele>
        <time>2025-08-12T10:24:15.908Z</time>
      </trkpt>
      <trkpt lat="51.676271" lon="6.979162">
        <ele>30.965479</ele>
        <time>2025-08-12T10:24:29.524Z</time>
      </trkpt>
      <trkpt lat="51.676267" lon="6.978979">
        <ele>30.963407</ele>
        <time>2025-08-12T10:24:30.986Z</time>
      </trkpt>
      <trkpt lat="51.676300" lon="6.978813">
        <ele>30.961435</ele>
        <time>2025-08-12T10:24:32.373Z</time>
      </trkpt>
      <trkpt lat="51.676435" lon="6.978581">
        <ele>30.957836</ele>
        <time>2025-08-12T10:24:34.838Z</time>
      </trkpt>
      <trkpt lat="51.676494" lon="6.978511">
        <ele>30.956499</ele>
        <time>2025-08-12T10:24:35.741Z</time>
      </trkpt>
      <trkpt lat="51.676654" lon="6.978439">
        <ele>30.953468</ele>
        <time>2025-08-12T10:24:37.724Z</time>
      </trkpt>
      <trkpt lat="51.677130" lon="6.978293">
        <ele>30.938941</ele>
        <time>2025-08-12T10:24:43.057Z</time>
      </trkpt>
      <trkpt lat="51.677326" lon="6.977957">
        <ele>30.869735</ele>
        <time>2025-08-12T10:24:46.063Z</time>
      </trkpt>
      <trkpt lat="51.677523" lon="6.978013">
        <ele>30.821340</ele>
        <time>2025-08-12T10:24:48.157Z</time>
      </trkpt>
      <trkpt lat="51.677618" lon="6.977941">
        <ele>30.795944</ele>
        <time>2025-08-12T10:24:49.261Z</time>
      </trkpt>
      <trkpt lat="51.678055" lon="6.977608">
        <ele>30.679011</ele>
        <time>2025-08-12T10:24:54.452Z</time>
      </trkpt>
      <trkpt lat="51.678883" lon="6.976848">
        <ele>30.625706</ele>
        <time>2025-08-12T10:25:05.647Z</time>
      </trkpt>
      <trkpt lat="51.679332" lon="6.976015">
        <ele>30.937778</ele>
        <time>2025-08-12T10:25:14.876Z</time>
      </trkpt>
      <trkpt lat="51.679493" lon="6.975840">
        <ele>31.026310</ele>
        <time>2025-08-12T10:25:17.522Z</time>
      </trkpt>
      <trkpt lat="51.679534" lon="6.975809">
        <ele>31.046958</ele>
        <time>2025-08-12T10:25:18.127Z</time>
      </trkpt>
      <trkpt lat="51.679670" lon="6.975693">
        <ele>31.117110</ele>
        <time>2025-08-12T10:25:20.919Z</time>
      </trkpt>
      <trkpt lat="51.680317" lon="6.975178">
        <ele>31.540299</ele>
        <time>2025-08-12T10:25:34.213Z</time>
      </trkpt>
      <trkpt lat="51.680419" lon="6.975110">
        <ele>31.631487</ele>
        <time>2025-08-12T10:25:35.752Z</time>
      </trkpt>
      <trkpt lat="51.680602" lon="6.974994">
        <ele>31.793939</ele>
        <time>2025-08-12T10:25:38.507Z</time>
      </trkpt>
      <trkpt lat="51.680883" lon="6.974809">
        <ele>32.044697</ele>
        <time>2025-08-12T10:25:42.723Z</time>
      </trkpt>
      <trkpt lat="51.681417" lon="6.974652">
        <ele>32.493155</ele>
        <time>2025-08-12T10:25:50.927Z</time>
      </trkpt>
      <trkpt lat="51.681461" lon="6.974639">
        <ele>32.530113</ele>
        <time>2025-08-12T10:25:51.628Z</time>
      </trkpt>
      <trkpt lat="51.681993" lon="6.974485">
        <ele>32.868433</ele>
        <time>2025-08-12T10:25:59.615Z</time>
      </trkpt>
      <trkpt lat="51.682352" lon="6.974382">
        <ele>32.966592</ele>
        <time>2025-08-12T10:26:05.027Z</time>
      </trkpt>
      <trkpt lat="51.682481" lon="6.974307">
        <ele>33.003506</ele>
        <time>2025-08-12T10:26:07.065Z</time>
      </trkpt>
      <trkpt lat="51.682655" lon="6.974752">
        <ele>33.091315</ele>
        <time>2025-08-12T10:26:11.701Z</time>
      </trkpt>
      <trkpt lat="51.682668" lon="6.974787">
        <ele>33.098125</ele>
        <time>2025-08-12T10:26:12.037Z</time>
      </trkpt>
      <trkpt lat="51.682942" lon="6.975484">
        <ele>33.235871</ele>
        <time>2025-08-12T10:26:18.411Z</time>
      </trkpt>
      <trkpt lat="51.683063" lon="6.975892">
        <ele>33.239750</ele>
        <time>2025-08-12T10:26:21.153Z</time>
      </trkpt>
      <trkpt lat="51.683282" lon="6.976825">
        <ele>32.326939</ele>
        <time>2025-08-12T10:26:26.840Z</time>
      </trkpt>
      <trkpt lat="51.683332" lon="6.977040">
        <ele>32.116834</ele>
        <time>2025-08-12T10:26:28.106Z</time>
      </trkpt>
      <trkpt lat="51.683367" lon="6.977191">
        <ele>31.969333</ele>
        <time>2025-08-12T10:26:28.980Z</time>
      </trkpt>
      <trkpt lat="51.683483" lon="6.977509">
        <ele>31.631745</ele>
        <time>2025-08-12T10:26:30.951Z</time>
      </trkpt>
      <trkpt lat="51.683604" lon="6.977730">
        <ele>31.361977</ele>
        <time>2025-08-12T10:26:32.506Z</time>
      </trkpt>
      <trkpt lat="51.684664" lon="6.979145">
        <ele>30.426559</ele>
        <time>2025-08-12T10:26:45.586Z</time>
      </trkpt>
      <trkpt lat="51.684760" lon="6.979238">
        <ele>30.398979</ele>
        <time>2025-08-12T10:26:46.975Z</time>
      </trkpt>
      <trkpt lat="51.685146" lon="6.979224">
        <ele>30.303886</ele>
        <time>2025-08-12T10:26:52.147Z</time>
      </trkpt>
      <trkpt lat="51.686265" lon="6.982154">
        <ele>32.071496</ele>
        <time>2025-08-12T10:27:25.274Z</time>
      </trkpt>
      <trkpt lat="51.686524" lon="6.982768">
        <ele>32.441111</ele>
        <time>2025-08-12T10:27:32.137Z</time>
      </trkpt>
      <trkpt lat="51.686713" lon="6.983284">
        <ele>32.719086</ele>
        <time>2025-08-12T10:27:37.487Z</time>
      </trkpt>
      <trkpt lat="51.686740" lon="6.983526">
        <ele>32.833131</ele>
        <time>2025-08-12T10:27:39.647Z</time>
      </trkpt>
      <trkpt lat="51.686839" lon="6.983527">
        <ele>32.907197</ele>
        <time>2025-08-12T10:27:41.055Z</time>
      </trkpt>
      <trkpt lat="51.687022" lon="6.983518">
        <ele>33.044168</ele>
        <time>2025-08-12T10:27:43.589Z</time>
      </trkpt>
      <trkpt lat="51.688624" lon="6.983212">
        <ele>33.976411</ele>
        <time>2025-08-12T10:28:05.229Z</time>
      </trkpt>
      <trkpt lat="51.689795" lon="6.982988">
        <ele>34.582766</ele>
        <time>2025-08-12T10:28:21.014Z</time>
      </trkpt>
      <trkpt lat="51.691300" lon="6.982681">
        <ele>35.486410</ele>
        <time>2025-08-12T10:28:42.092Z</time>
      </trkpt>
      <trkpt lat="51.693748" lon="6.982180">
        <ele>36.635137</ele>
        <time>2025-08-12T10:29:16.273Z</time>
      </trkpt>
      <trkpt lat="51.693965" lon="6.982171">
        <ele>36.664944</ele>
        <time>2025-08-12T10:29:18.954Z</time>
      </trkpt>
      <trkpt lat="51.693936" lon="6.982907">
        <ele>36.727714</ele>
        <time>2025-08-12T10:29:24.289Z</time>
      </trkpt>
      <trkpt lat="51.693872" lon="6.984339">
        <ele>36.575687</ele>
        <time>2025-08-12T10:29:33.662Z</time>
      </trkpt>
      <trkpt lat="51.693818" lon="6.985009">
        <ele>36.420326</ele>
        <time>2025-08-12T10:29:38.019Z</time>
      </trkpt>
      <trkpt lat="51.693590" lon="6.986129">
        <ele>36.149252</ele>
        <time>2025-08-12T10:29:45.985Z</time>
      </trkpt>
      <trkpt lat="51.693542" lon="6.986466">
        <ele>36.123276</ele>
        <time>2025-08-12T10:29:48.415Z</time>
      </trkpt>
      <trkpt lat="51.693158" lon="6.990971">
        <ele>36.522676</ele>
        <time>2025-08-12T10:30:23.853Z</time>
      </trkpt>
      <trkpt lat="51.693084" lon="6.991839">
        <ele>36.600949</ele>
        <time>2025-08-12T10:30:30.167Z</time>
      </trkpt>
      <trkpt lat="51.692990" lon="6.992700">
        <ele>36.805897</ele>
        <time>2025-08-12T10:30:36.684Z</time>
      </trkpt>
      <trkpt lat="51.692926" lon="6.993055">
        <ele>36.909602</ele>
        <time>2025-08-12T10:30:39.574Z</time>
      </trkpt>
      <trkpt lat="51.692880" lon="6.993257">
        <ele>36.969967</ele>
        <time>2025-08-12T10:30:41.309Z</time>
      </trkpt>
      <trkpt lat="51.693054" lon="6.993464">
        <ele>37.067800</ele>
        <time>2025-08-12T10:30:44.194Z</time>
      </trkpt>
      <trkpt lat="51.693852" lon="6.994263">
        <ele>37.517148</ele>
        <time>2025-08-12T10:30:57.604Z</time>
      </trkpt>
      <trkpt lat="51.694829" lon="6.995337">
        <ele>38.272438</ele>
        <time>2025-08-12T10:31:15.086Z</time>
      </trkpt>
      <trkpt lat="51.696522" lon="6.996977">
        <ele>38.650223</ele>
        <time>2025-08-12T10:31:38.740Z</time>
      </trkpt>
      <trkpt lat="51.698747" lon="6.999251">
        <ele>38.674126</ele>
        <time>2025-08-12T10:32:09.412Z</time>
      </trkpt>
      <trkpt lat="51.699504" lon="6.999983">
        <ele>38.879787</ele>
        <time>2025-08-12T10:32:20.696Z</time>
      </trkpt>
      <trkpt lat="51.699726" lon="7.000114">
        <ele>38.934872</ele>
        <time>2025-08-12T10:32:23.867Z</time>
      </trkpt>
      <trkpt lat="51.700361" lon="7.000320">
        <ele>39.264445</ele>
        <time>2025-08-12T10:32:32.752Z</time>
      </trkpt>
      <trkpt lat="51.700858" lon="7.000574">
        <ele>39.574633</ele>
        <time>2025-08-12T10:32:40.047Z</time>
      </trkpt>
      <trkpt lat="51.701054" lon="7.000618">
        <ele>39.692374</ele>
        <time>2025-08-12T10:32:42.807Z</time>
      </trkpt>
      <trkpt lat="51.703617" lon="7.000068">
        <ele>41.040018</ele>
        <time>2025-08-12T10:33:18.391Z</time>
      </trkpt>
      <trkpt lat="51.703874" lon="7.000218">
        <ele>41.025075</ele>
        <time>2025-08-12T10:33:21.952Z</time>
      </trkpt>
      <trkpt lat="51.704059" lon="7.000373">
        <ele>41.013678</ele>
        <time>2025-08-12T10:33:24.648Z</time>
      </trkpt>
      <trkpt lat="51.704461" lon="7.000761">
        <ele>40.988066</ele>
        <time>2025-08-12T10:33:29.967Z</time>
      </trkpt>
      <trkpt lat="51.704825" lon="7.001187">
        <ele>40.963481</ele>
        <time>2025-08-12T10:33:34.684Z</time>
      </trkpt>
      <trkpt lat="51.704922" lon="7.001242">
        <ele>40.957859</ele>
        <time>2025-08-12T10:33:35.752Z</time>
      </trkpt>
      <trkpt lat="51.704920" lon="7.001414">
        <ele>40.950384</ele>
        <time>2025-08-12T10:33:36.850Z</time>
      </trkpt>
      <trkpt lat="51.704914" lon="7.001619">
        <ele>40.925446</ele>
        <time>2025-08-12T10:33:38.145Z</time>
      </trkpt>
      <trkpt lat="51.704905" lon="7.002068">
        <ele>40.870858</ele>
        <time>2025-08-12T10:33:41.015Z</time>
      </trkpt>
      <trkpt lat="51.704899" lon="7.002345">
        <ele>40.837179</ele>
        <time>2025-08-12T10:33:42.823Z</time>
      </trkpt>
      <trkpt lat="51.704896" lon="7.003301">
        <ele>40.721011</ele>
        <time>2025-08-12T10:33:49.274Z</time>
      </trkpt>
      <trkpt lat="51.704923" lon="7.003610">
        <ele>40.683092</ele>
        <time>2025-08-12T10:33:51.620Z</time>
      </trkpt>
      <trkpt lat="51.704986" lon="7.003969">
        <ele>40.637754</ele>
        <time>2025-08-12T10:33:54.643Z</time>
      </trkpt>
      <trkpt lat="51.705005" lon="7.004050">
        <ele>40.627230</ele>
        <time>2025-08-12T10:33:55.370Z</time>
      </trkpt>
      <trkpt lat="51.705399" lon="7.005463">
        <ele>40.716575</ele>
        <time>2025-08-12T10:34:08.156Z</time>
      </trkpt>
      <trkpt lat="51.705522" lon="7.005376">
        <ele>40.735639</ele>
        <time>2025-08-12T10:34:09.874Z</time>
      </trkpt>
      <trkpt lat="51.705638" lon="7.005379">
        <ele>40.752108</ele>
        <time>2025-08-12T10:34:11.321Z</time>
      </trkpt>
      <trkpt lat="51.705747" lon="7.005452">
        <ele>40.768860</ele>
        <time>2025-08-12T10:34:12.776Z</time>
      </trkpt>
      <trkpt lat="51.705890" lon="7.005644">
        <ele>40.795268</ele>
        <time>2025-08-12T10:34:15.006Z</time>
      </trkpt>
      <trkpt lat="51.706046" lon="7.005811">
        <ele>40.821842</ele>
        <time>2025-08-12T10:34:17.180Z</time>
      </trkpt>
      <trkpt lat="51.706236" lon="7.005876">
        <ele>40.849413</ele>
        <time>2025-08-12T10:34:19.353Z</time>
      </trkpt>
      <trkpt lat="51.706607" lon="7.005942">
        <ele>40.804326</ele>
        <time>2025-08-12T10:34:23.334Z</time>
      </trkpt>
      <trkpt lat="51.706861" lon="7.005986">
        <ele>40.765052</ele>
        <time>2025-08-12T10:34:25.998Z</time>
      </trkpt>
      <trkpt lat="51.707082" lon="7.006005">
        <ele>40.731028</ele>
        <time>2025-08-12T10:34:28.314Z</time>
      </trkpt>
      <trkpt lat="51.707137" lon="7.006010">
        <ele>40.722559</ele>
        <time>2025-08-12T10:34:28.894Z</time>
      </trkpt>
      <trkpt lat="51.708130" lon="7.005957">
        <ele>40.629885</ele>
        <time>2025-08-12T10:34:40.374Z</time>
      </trkpt>
      <trkpt lat="51.708365" lon="7.005913">
        <ele>40.836735</ele>
        <time>2025-08-12T10:34:43.544Z</time>
      </trkpt>
      <trkpt lat="51.708922" lon="7.005441">
        <ele>41.386804</ele>
        <time>2025-08-12T10:34:53.229Z</time>
      </trkpt>
      <trkpt lat="51.709632" lon="7.004934">
        <ele>42.065646</ele>
        <time>2025-08-12T10:35:05.667Z</time>
      </trkpt>
      <trkpt lat="51.709831" lon="7.004800">
        <ele>42.199313</ele>
        <time>2025-08-12T10:35:08.875Z</time>
      </trkpt>
      <trkpt lat="51.710595" lon="7.004295">
        <ele>42.535704</ele>
        <time>2025-08-12T10:35:19.970Z</time>
      </trkpt>
      <trkpt lat="51.710653" lon="7.004261">
        <ele>42.560846</ele>
        <time>2025-08-12T10:35:20.767Z</time>
      </trkpt>
      <trkpt lat="51.710851" lon="7.004129">
        <ele>42.648134</ele>
        <time>2025-08-12T10:35:23.355Z</time>
      </trkpt>
      <trkpt lat="51.711120" lon="7.003960">
        <ele>42.765750</ele>
        <time>2025-08-12T10:35:26.647Z</time>
      </trkpt>
      <trkpt lat="51.711188" lon="7.003964">
        <ele>42.793475</ele>
        <time>2025-08-12T10:35:27.450Z</time>
      </trkpt>
      <trkpt lat="51.711520" lon="7.004105">
        <ele>42.900181</ele>
        <time>2025-08-12T10:35:31.681Z</time>
      </trkpt>
      <trkpt lat="51.711820" lon="7.004290">
        <ele>42.942562</ele>
        <time>2025-08-12T10:35:35.825Z</time>
      </trkpt>
      <trkpt lat="51.712142" lon="7.004590">
        <ele>42.991628</ele>
        <time>2025-08-12T10:35:40.682Z</time>
      </trkpt>
      <trkpt lat="51.712407" lon="7.004825">
        <ele>43.031530</ele>
        <time>2025-08-12T10:35:44.486Z</time>
      </trkpt>
      <trkpt lat="51.712892" lon="7.004623">
        <ele>43.097631</ele>
        <time>2025-08-12T10:35:50.330Z</time>
      </trkpt>
      <trkpt lat="51.712834" lon="7.004304">
        <ele>43.119873</ele>
        <time>2025-08-12T10:35:52.697Z</time>
      </trkpt>
      <trkpt lat="51.712676" lon="7.003324">
        <ele>43.073369</ele>
        <time>2025-08-12T10:36:00.092Z</time>
      </trkpt>
      <trkpt lat="51.712684" lon="7.003221">
        <ele>43.068602</ele>
        <time>2025-08-12T10:36:00.857Z</time>
      </trkpt>
      <trkpt lat="51.712699" lon="7.003183">
        <ele>43.066533</ele>
        <time>2025-08-12T10:36:01.177Z</time>
      </trkpt>
      <trkpt lat="51.712740" lon="7.003081">
        <ele>43.060949</ele>
        <time>2025-08-12T10:36:02.038Z</time>
      </trkpt>
      <trkpt lat="51.712859" lon="7.002993">
        <ele>43.051247</ele>
        <time>2025-08-12T10:36:03.553Z</time>
      </trkpt>
      <trkpt lat="51.713070" lon="7.002990">
        <ele>43.035608</ele>
        <time>2025-08-12T10:36:06.002Z</time>
      </trkpt>
      <trkpt lat="51.713401" lon="7.003002">
        <ele>43.011068</ele>
        <time>2025-08-12T10:36:09.881Z</time>
      </trkpt>
      <trkpt lat="51.713786" lon="7.003016">
        <ele>42.965818</ele>
        <time>2025-08-12T10:36:14.402Z</time>
      </trkpt>
      <trkpt lat="51.713797" lon="7.002465">
        <ele>42.867727</ele>
        <time>2025-08-12T10:36:19.762Z</time>
      </trkpt>
      <trkpt lat="51.713808" lon="7.001899">
        <ele>42.766970</ele>
        <time>2025-08-12T10:36:25.120Z</time>
      </trkpt>
      <trkpt lat="51.713817" lon="7.001469">
        <ele>42.690416</ele>
        <time>2025-08-12T10:36:29.091Z</time>
      </trkpt>
      <trkpt lat="51.713818" lon="7.001403">
        <ele>42.678669</ele>
        <time>2025-08-12T10:36:29.704Z</time>
      </trkpt>
      <trkpt lat="51.713826" lon="7.000905">
        <ele>42.590030</ele>
        <time>2025-08-12T10:36:34.291Z</time>
      </trkpt>
      <trkpt lat="51.713833" lon="7.000758">
        <ele>42.563797</ele>
        <time>2025-08-12T10:36:35.640Z</time>
      </trkpt>
      <trkpt lat="51.713875" lon="7.000658">
        <ele>42.542302</ele>
        <time>2025-08-12T10:36:36.780Z</time>
      </trkpt>
      <trkpt lat="51.714125" lon="7.000443">
        <ele>42.479574</ele>
        <time>2025-08-12T10:36:41.103Z</time>
      </trkpt>
      <trkpt lat="51.714047" lon="6.999980">
        <ele>42.540556</ele>
        <time>2025-08-12T10:36:44.459Z</time>
      </trkpt>
      <trkpt lat="51.714008" lon="6.999850">
        <ele>42.558914</ele>
        <time>2025-08-12T10:36:45.870Z</time>
      </trkpt>
      <trkpt lat="51.713988" lon="6.999795">
        <ele>42.567019</ele>
        <time>2025-08-12T10:36:46.323Z</time>
      </trkpt>
      <trkpt lat="51.713783" lon="6.999324">
        <ele>42.640177</ele>
        <time>2025-08-12T10:36:50.734Z</time>
      </trkpt>
      <trkpt lat="51.712867" lon="6.996869">
        <ele>43.123685</ele>
        <time>2025-08-12T10:37:14.473Z</time>
      </trkpt>
      <trkpt lat="51.712762" lon="6.996606">
        <ele>43.192434</ele>
        <time>2025-08-12T10:37:17.019Z</time>
      </trkpt>
      <trkpt lat="51.712566" lon="6.996045">
        <ele>43.333956</ele>
        <time>2025-08-12T10:37:22.176Z</time>
      </trkpt>
      <trkpt lat="51.712497" lon="6.995846">
        <ele>43.384065</ele>
        <time>2025-08-12T10:37:23.970Z</time>
      </trkpt>
      <trkpt lat="51.715159" lon="6.997051">
        <ele>43.800426</ele>
        <time>2025-08-12T10:37:57.605Z</time>
      </trkpt>
      <trkpt lat="51.716730" lon="6.997155">
        <ele>44.006196</ele>
        <time>2025-08-12T10:38:17.922Z</time>
      </trkpt>
      <trkpt lat="51.717293" lon="6.997190">
        <ele>43.973662</ele>
        <time>2025-08-12T10:38:24.506Z</time>
      </trkpt>
      <trkpt lat="51.717975" lon="6.997233">
        <ele>43.934251</ele>
        <time>2025-08-12T10:38:31.945Z</time>
      </trkpt>
      <trkpt lat="51.718129" lon="6.997244">
        <ele>43.919730</ele>
        <time>2025-08-12T10:38:33.555Z</time>
      </trkpt>
      <trkpt lat="51.719416" lon="6.997340">
        <ele>43.748124</ele>
        <time>2025-08-12T10:38:47.491Z</time>
      </trkpt>
      <trkpt lat="51.720900" lon="6.997439">
        <ele>44.241642</ele>
        <time>2025-08-12T10:39:07.718Z</time>
      </trkpt>
      <trkpt lat="51.721007" lon="6.997445">
        <ele>44.297911</ele>
        <time>2025-08-12T10:39:09.292Z</time>
      </trkpt>
      <trkpt lat="51.721384" lon="6.997477">
        <ele>44.496321</ele>
        <time>2025-08-12T10:39:14.738Z</time>
      </trkpt>
      <trkpt lat="51.722123" lon="6.997848">
        <ele>44.696723</ele>
        <time>2025-08-12T10:39:24.898Z</time>
      </trkpt>
      <trkpt lat="51.722340" lon="6.997882">
        <ele>44.722983</ele>
        <time>2025-08-12T10:39:27.398Z</time>
      </trkpt>
      <trkpt lat="51.722499" lon="6.997862">
        <ele>44.742192</ele>
        <time>2025-08-12T10:39:29.233Z</time>
      </trkpt>
      <trkpt lat="51.722888" lon="6.997698">
        <ele>44.790618</ele>
        <time>2025-08-12T10:39:34.005Z</time>
      </trkpt>
      <trkpt lat="51.723014" lon="6.997605">
        <ele>44.807305</ele>
        <time>2025-08-12T10:39:35.671Z</time>
      </trkpt>
      <trkpt lat="51.723279" lon="6.997325">
        <ele>44.845453</ele>
        <time>2025-08-12T10:39:39.423Z</time>
      </trkpt>
      <trkpt lat="51.722914" lon="6.996494">
        <ele>45.076019</ele>
        <time>2025-08-12T10:39:46.997Z</time>
      </trkpt>
      <trkpt lat="51.723515" lon="6.995912">
        <ele>45.348313</ele>
        <time>2025-08-12T10:39:56.804Z</time>
      </trkpt>
      <trkpt lat="51.724159" lon="6.995353">
        <ele>45.623395</ele>
        <time>2025-08-12T10:40:06.624Z</time>
      </trkpt>
      <trkpt lat="51.724776" lon="6.994894">
        <ele>45.858208</ele>
        <time>2025-08-12T10:40:15.391Z</time>
      </trkpt>
      <trkpt lat="51.725741" lon="6.994136">
        <ele>46.285274</ele>
        <time>2025-08-12T10:40:29.075Z</time>
      </trkpt>
      <trkpt lat="51.725992" lon="6.993892">
        <ele>46.486948</ele>
        <time>2025-08-12T10:40:32.752Z</time>
      </trkpt>
      <trkpt lat="51.726036" lon="6.993744">
        <ele>46.556942</ele>
        <time>2025-08-12T10:40:34.101Z</time>
      </trkpt>
      <trkpt lat="51.726042" lon="6.993573">
        <ele>46.629967</ele>
        <time>2025-08-12T10:40:35.497Z</time>
      </trkpt>
      <trkpt lat="51.725986" lon="6.992511">
        <ele>47.084405</ele>
        <time>2025-08-12T10:40:44.916Z</time>
      </trkpt>
      <trkpt lat="51.725876" lon="6.991446">
        <ele>47.673039</ele>
        <time>2025-08-12T10:40:54.950Z</time>
      </trkpt>
      <trkpt lat="51.725489" lon="6.988426">
        <ele>50.181678</ele>
        <time>2025-08-12T10:41:26.609Z</time>
      </trkpt>
      <trkpt lat="51.726509" lon="6.987779">
        <ele>51.430786</ele>
        <time>2025-08-12T10:41:43.868Z</time>
      </trkpt>
      <trkpt lat="51.727004" lon="6.987431">
        <ele>51.843007</ele>
        <time>2025-08-12T10:41:51.766Z</time>
      </trkpt>
      <trkpt lat="51.727200" lon="6.987237">
        <ele>51.780133</ele>
        <time>2025-08-12T10:41:54.897Z</time>
      </trkpt>
      <trkpt lat="51.727767" lon="6.986212">
        <ele>51.547340</ele>
        <time>2025-08-12T10:42:04.385Z</time>
      </trkpt>
      <trkpt lat="51.727982" lon="6.985798">
        <ele>51.455823</ele>
        <time>2025-08-12T10:42:07.629Z</time>
      </trkpt>
      <trkpt lat="51.728359" lon="6.985112">
        <ele>51.260529</ele>
        <time>2025-08-12T10:42:13.089Z</time>
      </trkpt>
      <trkpt lat="51.728462" lon="6.984623">
        <ele>51.134184</ele>
        <time>2025-08-12T10:42:16.146Z</time>
      </trkpt>
      <trkpt lat="51.728603" lon="6.982229">
        <ele>50.816288</ele>
        <time>2025-08-12T10:42:33.556Z</time>
      </trkpt>
      <trkpt lat="51.728687" lon="6.981685">
        <ele>50.955532</ele>
        <time>2025-08-12T10:42:38.482Z</time>
      </trkpt>
      <trkpt lat="51.728861" lon="6.981029">
        <ele>51.132769</ele>
        <time>2025-08-12T10:42:44.593Z</time>
      </trkpt>
      <trkpt lat="51.728964" lon="6.980843">
        <ele>51.194735</ele>
        <time>2025-08-12T10:42:46.686Z</time>
      </trkpt>
      <trkpt lat="51.730035" lon="6.979955">
        <ele>51.697755</ele>
        <time>2025-08-12T10:43:02.539Z</time>
      </trkpt>
      <trkpt lat="51.730478" lon="6.979572">
        <ele>51.914028</ele>
        <time>2025-08-12T10:43:09.014Z</time>
      </trkpt>
      <trkpt lat="51.730984" lon="6.978893">
        <ele>52.196804</ele>
        <time>2025-08-12T10:43:18.035Z</time>
      </trkpt>
      <trkpt lat="51.731473" lon="6.978175">
        <ele>52.476159</ele>
        <time>2025-08-12T10:43:26.963Z</time>
      </trkpt>
      <trkpt lat="51.732831" lon="6.976674">
        <ele>53.270465</ele>
        <time>2025-08-12T10:43:48.243Z</time>
      </trkpt>
      <trkpt lat="51.733019" lon="6.976409">
        <ele>53.420053</ele>
        <time>2025-08-12T10:43:51.636Z</time>
      </trkpt>
      <trkpt lat="51.733057" lon="6.976310">
        <ele>53.463291</ele>
        <time>2025-08-12T10:43:52.625Z</time>
      </trkpt>
      <trkpt lat="51.733133" lon="6.976116">
        <ele>53.548508</ele>
        <time>2025-08-12T10:43:54.600Z</time>
      </trkpt>
      <trkpt lat="51.733863" lon="6.973287">
        <ele>54.481805</ele>
        <time>2025-08-12T10:44:21.972Z</time>
      </trkpt>
      <trkpt lat="51.734831" lon="6.973128">
        <ele>54.627990</ele>
        <time>2025-08-12T10:44:33.255Z</time>
      </trkpt>
      <trkpt lat="51.735156" lon="6.973061">
        <ele>54.477434</ele>
        <time>2025-08-12T10:44:36.599Z</time>
      </trkpt>
      <trkpt lat="51.735949" lon="6.972772">
        <ele>54.103868</ele>
        <time>2025-08-12T10:44:44.897Z</time>
      </trkpt>
      <trkpt lat="51.736985" lon="6.972385">
        <ele>53.861798</ele>
        <time>2025-08-12T10:44:56.748Z</time>
      </trkpt>
      <trkpt lat="51.737434" lon="6.972205">
        <ele>53.811798</ele>
        <time>2025-08-12T10:45:02.300Z</time>
      </trkpt>
      <trkpt lat="51.737528" lon="6.972071">
        <ele>53.798246</ele>
        <time>2025-08-12T10:45:03.776Z</time>
      </trkpt>
      <trkpt lat="51.737554" lon="6.971979">
        <ele>53.791478</ele>
        <time>2025-08-12T10:45:04.519Z</time>
      </trkpt>
      <trkpt lat="51.737775" lon="6.970179">
        <ele>53.776860</ele>
        <time>2025-08-12T10:45:18.125Z</time>
      </trkpt>
      <trkpt lat="51.737872" lon="6.969936">
        <ele>53.785586</ele>
        <time>2025-08-12T10:45:20.260Z</time>
      </trkpt>
      <trkpt lat="51.738143" lon="6.969546">
        <ele>53.803280</ele>
        <time>2025-08-12T10:45:24.681Z</time>
      </trkpt>
      <trkpt lat="51.741058" lon="6.965443">
        <ele>53.724348</ele>
        <time>2025-08-12T10:46:11.179Z</time>
      </trkpt>
      <trkpt lat="51.742188" lon="6.964071">
        <ele>53.118762</ele>
        <time>2025-08-12T10:46:25.459Z</time>
      </trkpt>
      <trkpt lat="51.742655" lon="6.963576">
        <ele>52.835413</ele>
        <time>2025-08-12T10:46:31.380Z</time>
      </trkpt>
      <trkpt lat="51.743063" lon="6.963146">
        <ele>53.050456</ele>
        <time>2025-08-12T10:46:37.043Z</time>
      </trkpt>
      <trkpt lat="51.743845" lon="6.962428">
        <ele>53.736992</ele>
        <time>2025-08-12T10:46:50.625Z</time>
      </trkpt>
      <trkpt lat="51.744376" lon="6.961987">
        <ele>54.182769</ele>
        <time>2025-08-12T10:46:59.914Z</time>
      </trkpt>
      <trkpt lat="51.745185" lon="6.961377">
        <ele>54.720661</ele>
        <time>2025-08-12T10:47:13.878Z</time>
      </trkpt>
      <trkpt lat="51.746565" lon="6.960409">
        <ele>54.568465</ele>
        <time>2025-08-12T10:47:31.646Z</time>
      </trkpt>
      <trkpt lat="51.747132" lon="6.959902">
        <ele>53.920150</ele>
        <time>2025-08-12T10:47:40.671Z</time>
      </trkpt>
      <trkpt lat="51.747504" lon="6.959616">
        <ele>53.508016</ele>
        <time>2025-08-12T10:47:44.345Z</time>
      </trkpt>
      <trkpt lat="51.748236" lon="6.958918">
        <ele>51.793535</ele>
        <time>2025-08-12T10:47:51.496Z</time>
      </trkpt>
      <trkpt lat="51.748582" lon="6.958586">
        <ele>50.940442</ele>
        <time>2025-08-12T10:47:54.889Z</time>
      </trkpt>
      <trkpt lat="51.749019" lon="6.958194">
        <ele>49.880845</ele>
        <time>2025-08-12T10:47:59.243Z</time>
      </trkpt>
      <trkpt lat="51.749217" lon="6.958062">
        <ele>49.624163</ele>
        <time>2025-08-12T10:48:01.180Z</time>
      </trkpt>
      <trkpt lat="51.749550" lon="6.957935">
        <ele>49.650565</ele>
        <time>2025-08-12T10:48:04.512Z</time>
      </trkpt>
      <trkpt lat="51.749841" lon="6.957911">
        <ele>49.673048</ele>
        <time>2025-08-12T10:48:07.889Z</time>
      </trkpt>
      <trkpt lat="51.749921" lon="6.957925">
        <ele>49.679257</ele>
        <time>2025-08-12T10:48:08.872Z</time>
      </trkpt>
      <trkpt lat="51.750322" lon="6.957987">
        <ele>49.710340</ele>
        <time>2025-08-12T10:48:14.200Z</time>
      </trkpt>
      <trkpt lat="51.750535" lon="6.958016">
        <ele>49.726834</ele>
        <time>2025-08-12T10:48:17.285Z</time>
      </trkpt>
      <trkpt lat="51.750984" lon="6.957994">
        <ele>49.872713</ele>
        <time>2025-08-12T10:48:24.308Z</time>
      </trkpt>
      <trkpt lat="51.751618" lon="6.957745">
        <ele>50.945168</ele>
        <time>2025-08-12T10:48:35.397Z</time>
      </trkpt>
      <trkpt lat="51.753350" lon="6.957002">
        <ele>53.413250</ele>
        <time>2025-08-12T10:49:07.033Z</time>
      </trkpt>
      <trkpt lat="51.753726" lon="6.956737">
        <ele>53.814308</ele>
        <time>2025-08-12T10:49:13.202Z</time>
      </trkpt>
      <trkpt lat="51.753983" lon="6.956475">
        <ele>54.111412</ele>
        <time>2025-08-12T10:49:17.365Z</time>
      </trkpt>
      <trkpt lat="51.754022" lon="6.956436">
        <ele>54.156254</ele>
        <time>2025-08-12T10:49:17.952Z</time>
      </trkpt>
      <trkpt lat="51.754084" lon="6.956270">
        <ele>54.273587</ele>
        <time>2025-08-12T10:49:19.416Z</time>
      </trkpt>
      <trkpt lat="51.754543" lon="6.955991">
        <ele>54.422078</ele>
        <time>2025-08-12T10:49:24.962Z</time>
      </trkpt>
      <trkpt lat="51.754957" lon="6.955745">
        <ele>54.347543</ele>
        <time>2025-08-12T10:49:29.768Z</time>
      </trkpt>
      <trkpt lat="51.755167" lon="6.955626">
        <ele>54.309940</ele>
        <time>2025-08-12T10:49:32.233Z</time>
      </trkpt>
      <trkpt lat="51.755380" lon="6.955503">
        <ele>54.271719</ele>
        <time>2025-08-12T10:49:34.801Z</time>
      </trkpt>
      <trkpt lat="51.755820" lon="6.955276">
        <ele>54.193674</ele>
        <time>2025-08-12T10:49:39.921Z</time>
      </trkpt>
      <trkpt lat="51.756102" lon="6.955131">
        <ele>54.144593</ele>
        <time>2025-08-12T10:49:43.273Z</time>
      </trkpt>
      <trkpt lat="51.756250" lon="6.955066">
        <ele>54.119708</ele>
        <time>2025-08-12T10:49:45.102Z</time>
      </trkpt>
      <trkpt lat="51.756587" lon="6.954911">
        <ele>54.062854</ele>
        <time>2025-08-12T10:49:49.452Z</time>
      </trkpt>
      <trkpt lat="51.756697" lon="6.954861">
        <ele>54.044313</ele>
        <time>2025-08-12T10:49:50.846Z</time>
      </trkpt>
      <trkpt lat="51.757122" lon="6.954670">
        <ele>53.972736</ele>
        <time>2025-08-12T10:49:55.969Z</time>
      </trkpt>
      <trkpt lat="51.757284" lon="6.954596">
        <ele>53.945420</ele>
        <time>2025-08-12T10:49:57.861Z</time>
      </trkpt>
      <trkpt lat="51.757410" lon="6.954538">
        <ele>53.924162</ele>
        <time>2025-08-12T10:49:59.316Z</time>
      </trkpt>
      <trkpt lat="51.757869" lon="6.954303">
        <ele>53.824882</ele>
        <time>2025-08-12T10:50:04.539Z</time>
      </trkpt>
      <trkpt lat="51.758020" lon="6.954262">
        <ele>53.781952</ele>
        <time>2025-08-12T10:50:06.135Z</time>
      </trkpt>
      <trkpt lat="51.758517" lon="6.954293">
        <ele>53.642503</ele>
        <time>2025-08-12T10:50:11.264Z</time>
      </trkpt>
      <trkpt lat="51.758649" lon="6.954302">
        <ele>53.605460</ele>
        <time>2025-08-12T10:50:12.689Z</time>
      </trkpt>
      <trkpt lat="51.759340" lon="6.954352">
        <ele>53.411528</ele>
        <time>2025-08-12T10:50:20.399Z</time>
      </trkpt>
      <trkpt lat="51.759365" lon="6.954354">
        <ele>53.404510</ele>
        <time>2025-08-12T10:50:20.722Z</time>
      </trkpt>
      <trkpt lat="51.759405" lon="6.954357">
        <ele>53.393283</ele>
        <time>2025-08-12T10:50:21.224Z</time>
      </trkpt>
      <trkpt lat="51.759685" lon="6.954397">
        <ele>53.497022</ele>
        <time>2025-08-12T10:50:24.676Z</time>
      </trkpt>
      <trkpt lat="51.760717" lon="6.954466">
        <ele>54.145911</ele>
        <time>2025-08-12T10:50:39.066Z</time>
      </trkpt>
      <trkpt lat="51.760795" lon="6.954472">
        <ele>54.194969</ele>
        <time>2025-08-12T10:50:40.541Z</time>
      </trkpt>
      <trkpt lat="51.760875" lon="6.955316">
        <ele>54.558703</ele>
        <time>2025-08-12T10:50:50.615Z</time>
      </trkpt>
      <trkpt lat="51.760937" lon="6.955510">
        <ele>54.746364</ele>
        <time>2025-08-12T10:50:53.259Z</time>
      </trkpt>
      <trkpt lat="51.761240" lon="6.956412">
        <ele>55.628464</ele>
        <time>2025-08-12T10:51:06.107Z</time>
      </trkpt>
      <trkpt lat="51.761429" lon="6.956867">
        <ele>56.099446</ele>
        <time>2025-08-12T10:51:13.318Z</time>
      </trkpt>
      <trkpt lat="51.761720" lon="6.957505">
        <ele>56.780622</ele>
        <time>2025-08-12T10:51:23.956Z</time>
      </trkpt>
      <trkpt lat="51.761804" lon="6.957688">
        <ele>56.976444</ele>
        <time>2025-08-12T10:51:27.006Z</time>
      </trkpt>
      <trkpt lat="51.762135" lon="6.958442">
        <ele>57.810528</ele>
        <time>2025-08-12T10:51:36.289Z</time>
      </trkpt>
      <trkpt lat="51.762335" lon="6.959133">
        <ele>58.499748</ele>
        <time>2025-08-12T10:51:43.651Z</time>
      </trkpt>
      <trkpt lat="51.762495" lon="6.959696">
        <ele>59.059484</ele>
        <time>2025-08-12T10:51:49.755Z</time>
      </trkpt>
      <trkpt lat="51.762697" lon="6.960215">
        <ele>59.613415</ele>
        <time>2025-08-12T10:51:56.062Z</time>
      </trkpt>
      <trkpt lat="51.763276" lon="6.961113">
        <ele>61.625943</ele>
        <time>2025-08-12T10:52:11.131Z</time>
      </trkpt>
      <trkpt lat="51.763467" lon="6.961357">
        <ele>62.238866</ele>
        <time>2025-08-12T10:52:16.365Z</time>
      </trkpt>
      <trkpt lat="51.763509" lon="6.961412">
        <ele>62.374955</ele>
        <time>2025-08-12T10:52:17.562Z</time>
      </trkpt>
      <trkpt lat="51.763849" lon="6.961787">
        <ele>63.411217</ele>
        <time>2025-08-12T10:52:26.752Z</time>
      </trkpt>
      <trkpt lat="51.764198" lon="6.962113">
        <ele>64.341072</ele>
        <time>2025-08-12T10:52:35.353Z</time>
      </trkpt>
      <trkpt lat="51.764518" lon="6.962368">
        <ele>64.961052</ele>
        <time>2025-08-12T10:52:42.598Z</time>
      </trkpt>
      <trkpt lat="51.764568" lon="6.962414">
        <ele>65.061029</ele>
        <time>2025-08-12T10:52:43.715Z</time>
      </trkpt>
      <trkpt lat="51.766155" lon="6.963546">
        <ele>67.613429</ele>
        <time>2025-08-12T10:53:11.455Z</time>
      </trkpt>
      <trkpt lat="51.768061" lon="6.965034">
        <ele>68.764039</ele>
        <time>2025-08-12T10:53:39.871Z</time>
      </trkpt>
      <trkpt lat="51.768143" lon="6.965279">
        <ele>68.801776</ele>
        <time>2025-08-12T10:53:42.057Z</time>
      </trkpt>
      <trkpt lat="51.768350" lon="6.966054">
        <ele>68.916137</ele>
        <time>2025-08-12T10:53:48.497Z</time>
      </trkpt>
      <trkpt lat="51.768517" lon="6.966661">
        <ele>68.956712</ele>
        <time>2025-08-12T10:53:53.266Z</time>
      </trkpt>
      <trkpt lat="51.768834" lon="6.966405">
        <ele>68.827504</ele>
        <time>2025-08-12T10:53:57.210Z</time>
      </trkpt>
      <trkpt lat="51.769266" lon="6.966147">
        <ele>68.659584</ele>
        <time>2025-08-12T10:54:02.073Z</time>
      </trkpt>
      <trkpt lat="51.769400" lon="6.966113">
        <ele>68.610129</ele>
        <time>2025-08-12T10:54:03.500Z</time>
      </trkpt>
      <trkpt lat="51.769639" lon="6.966207">
        <ele>68.520446</ele>
        <time>2025-08-12T10:54:06.125Z</time>
      </trkpt>
      <trkpt lat="51.770196" lon="6.966627">
        <ele>68.308543</ele>
        <time>2025-08-12T10:54:12.779Z</time>
      </trkpt>
      <trkpt lat="51.770338" lon="6.966769">
        <ele>68.268603</ele>
        <time>2025-08-12T10:54:14.626Z</time>
      </trkpt>
      <trkpt lat="51.771378" lon="6.968420">
        <ele>67.919919</ele>
        <time>2025-08-12T10:54:30.978Z</time>
      </trkpt>
      <trkpt lat="51.772404" lon="6.966818">
        <ele>67.893085</ele>
        <time>2025-08-12T10:54:47.194Z</time>
      </trkpt>
      <trkpt lat="51.772767" lon="6.966293">
        <ele>67.906820</ele>
        <time>2025-08-12T10:54:53.403Z</time>
      </trkpt>
      <trkpt lat="51.772931" lon="6.966157">
        <ele>67.985869</ele>
        <time>2025-08-12T10:54:55.834Z</time>
      </trkpt>
      <trkpt lat="51.773099" lon="6.966127">
        <ele>68.058353</ele>
        <time>2025-08-12T10:54:58.117Z</time>
      </trkpt>
      <trkpt lat="51.773730" lon="6.966176">
        <ele>68.329265</ele>
        <time>2025-08-12T10:55:06.851Z</time>
      </trkpt>
      <trkpt lat="51.776080" lon="6.966500">
        <ele>69.271450</ele>
        <time>2025-08-12T10:55:37.550Z</time>
      </trkpt>
      <trkpt lat="51.776627" lon="6.966609">
        <ele>69.654428</ele>
        <time>2025-08-12T10:55:44.942Z</time>
      </trkpt>
      <trkpt lat="51.776806" lon="6.966791">
        <ele>69.843287</ele>
        <time>2025-08-12T10:55:47.905Z</time>
      </trkpt>
      <trkpt lat="51.777219" lon="6.967958">
        <ele>70.586151</ele>
        <time>2025-08-12T10:56:00.405Z</time>
      </trkpt>
      <trkpt lat="51.777704" lon="6.969328">
        <ele>71.229646</ele>
        <time>2025-08-12T10:56:16.154Z</time>
      </trkpt>
      <trkpt lat="51.777807" lon="6.969763">
        <ele>71.368779</ele>
        <time>2025-08-12T10:56:20.233Z</time>
      </trkpt>
      <trkpt lat="51.778118" lon="6.971266">
        <ele>71.812805</ele>
        <time>2025-08-12T10:56:32.157Z</time>
      </trkpt>
      <trkpt lat="51.779081" lon="6.975901">
        <ele>69.855692</ele>
        <time>2025-08-12T10:57:03.060Z</time>
      </trkpt>
      <trkpt lat="51.779380" lon="6.978054">
        <ele>69.209557</ele>
        <time>2025-08-12T10:57:16.757Z</time>
      </trkpt>
      <trkpt lat="51.779509" lon="6.979003">
        <ele>69.027334</ele>
        <time>2025-08-12T10:57:23.643Z</time>
      </trkpt>
      <trkpt lat="51.779556" lon="6.979271">
        <ele>68.975093</ele>
        <time>2025-08-12T10:57:25.813Z</time>
      </trkpt>
      <trkpt lat="51.779591" lon="6.979469">
        <ele>68.936473</ele>
        <time>2025-08-12T10:57:27.471Z</time>
      </trkpt>
      <trkpt lat="51.779627" lon="6.979551">
        <ele>68.917617</ele>
        <time>2025-08-12T10:57:28.322Z</time>
      </trkpt>
      <trkpt lat="51.779568" lon="6.979634">
        <ele>68.961377</ele>
        <time>2025-08-12T10:57:29.360Z</time>
      </trkpt>
      <trkpt lat="51.779531" lon="6.979686">
        <ele>68.998971</ele>
        <time>2025-08-12T10:57:30.046Z</time>
      </trkpt>
      <trkpt lat="51.779468" lon="6.979771">
        <ele>69.061894</ele>
        <time>2025-08-12T10:57:31.185Z</time>
      </trkpt>
      <trkpt lat="51.779239" lon="6.980081">
        <ele>69.290925</ele>
        <time>2025-08-12T10:57:35.420Z</time>
      </trkpt>
      <trkpt lat="51.779127" lon="6.980232">
        <ele>69.402754</ele>
        <time>2025-08-12T10:57:37.521Z</time>
      </trkpt>
      <trkpt lat="51.778449" lon="6.981148">
        <ele>70.080299</ele>
        <time>2025-08-12T10:57:50.450Z</time>
      </trkpt>
      <trkpt lat="51.778340" lon="6.981296">
        <ele>70.189451</ele>
        <time>2025-08-12T10:57:52.576Z</time>
      </trkpt>
      <trkpt lat="51.777494" lon="6.982461">
        <ele>70.809442</ele>
        <time>2025-08-12T10:58:09.097Z</time>
      </trkpt>
      <trkpt lat="51.776946" lon="6.983215">
        <ele>71.190310</ele>
        <time>2025-08-12T10:58:18.544Z</time>
      </trkpt>
      <trkpt lat="51.774608" lon="6.986429">
        <ele>69.353016</ele>
        <time>2025-08-12T10:58:50.287Z</time>
      </trkpt>
      <trkpt lat="51.773008" lon="6.988629">
        <ele>67.217349</ele>
        <time>2025-08-12T10:59:10.788Z</time>
      </trkpt>
      <trkpt lat="51.772620" lon="6.989163">
        <ele>66.660387</ele>
        <time>2025-08-12T10:59:15.485Z</time>
      </trkpt>
      <trkpt lat="51.772214" lon="6.989721">
        <ele>66.102916</ele>
        <time>2025-08-12T10:59:20.389Z</time>
      </trkpt>
      <trkpt lat="51.770692" lon="6.991709">
        <ele>65.030108</ele>
        <time>2025-08-12T10:59:40.191Z</time>
      </trkpt>
      <trkpt lat="51.770645" lon="6.991771">
        <ele>65.034296</ele>
        <time>2025-08-12T10:59:40.920Z</time>
      </trkpt>
      <trkpt lat="51.769335" lon="6.993361">
        <ele>65.978444</ele>
        <time>2025-08-12T11:00:05.065Z</time>
      </trkpt>
      <trkpt lat="51.768691" lon="6.994199">
        <ele>66.923242</ele>
        <time>2025-08-12T11:00:18.825Z</time>
      </trkpt>
      <trkpt lat="51.768428" lon="6.994630">
        <ele>67.108713</ele>
        <time>2025-08-12T11:00:24.741Z</time>
      </trkpt>
      <trkpt lat="51.768309" lon="6.994869">
        <ele>67.065241</ele>
        <time>2025-08-12T11:00:27.581Z</time>
      </trkpt>
      <trkpt lat="51.768207" lon="6.995074">
        <ele>67.027963</ele>
        <time>2025-08-12T11:00:29.886Z</time>
      </trkpt>
      <trkpt lat="51.767892" lon="6.995908">
        <ele>66.889496</ele>
        <time>2025-08-12T11:00:37.247Z</time>
      </trkpt>
      <trkpt lat="51.767708" lon="6.996609">
        <ele>66.781585</ele>
        <time>2025-08-12T11:00:41.850Z</time>
      </trkpt>
      <trkpt lat="51.767559" lon="6.997574">
        <ele>65.926834</ele>
        <time>2025-08-12T11:00:47.165Z</time>
      </trkpt>
      <trkpt lat="51.767387" lon="6.999119">
        <ele>64.061801</ele>
        <time>2025-08-12T11:00:55.374Z</time>
      </trkpt>
      <trkpt lat="51.767365" lon="6.999276">
        <ele>63.870552</ele>
        <time>2025-08-12T11:00:56.243Z</time>
      </trkpt>
      <trkpt lat="51.767036" lon="7.000611">
        <ele>63.467974</ele>
        <time>2025-08-12T11:01:05.116Z</time>
      </trkpt>
      <trkpt lat="51.766787" lon="7.001568">
        <ele>63.670076</ele>
        <time>2025-08-12T11:01:14.250Z</time>
      </trkpt>
      <trkpt lat="51.766450" lon="7.003768">
        <ele>65.097973</ele>
        <time>2025-08-12T11:01:36.934Z</time>
      </trkpt>
      <trkpt lat="51.766147" lon="7.005894">
        <ele>66.700482</ele>
        <time>2025-08-12T11:02:00.528Z</time>
      </trkpt>
      <trkpt lat="51.766134" lon="7.006109">
        <ele>66.752025</ele>
        <time>2025-08-12T11:02:02.683Z</time>
      </trkpt>
      <trkpt lat="51.766168" lon="7.007504">
        <ele>67.085131</ele>
        <time>2025-08-12T11:02:13.969Z</time>
      </trkpt>
      <trkpt lat="51.766218" lon="7.009072">
        <ele>67.163441</ele>
        <time>2025-08-12T11:02:23.345Z</time>
      </trkpt>
      <trkpt lat="51.766223" lon="7.009305">
        <ele>67.141694</ele>
        <time>2025-08-12T11:02:24.730Z</time>
      </trkpt>
      <trkpt lat="51.766260" lon="7.010428">
        <ele>67.036795</ele>
        <time>2025-08-12T11:02:32.144Z</time>
      </trkpt>
      <trkpt lat="51.766354" lon="7.012916">
        <ele>68.868321</ele>
        <time>2025-08-12T11:02:58.041Z</time>
      </trkpt>
      <trkpt lat="51.767021" lon="7.014405">
        <ele>70.736885</ele>
        <time>2025-08-12T11:03:19.280Z</time>
      </trkpt>
      <trkpt lat="51.768527" lon="7.017727">
        <ele>73.735783</ele>
        <time>2025-08-12T11:04:01.014Z</time>
      </trkpt>
      <trkpt lat="51.768661" lon="7.018022">
        <ele>73.895986</ele>
        <time>2025-08-12T11:04:03.825Z</time>
      </trkpt>
      <trkpt lat="51.768718" lon="7.018148">
        <ele>73.964313</ele>
        <time>2025-08-12T11:04:04.936Z</time>
      </trkpt>
      <trkpt lat="51.770138" lon="7.021247">
        <ele>71.443257</ele>
        <time>2025-08-12T11:04:27.362Z</time>
      </trkpt>
      <trkpt lat="51.770586" lon="7.022252">
        <ele>70.409304</ele>
        <time>2025-08-12T11:04:34.103Z</time>
      </trkpt>
      <trkpt lat="51.770803" lon="7.022673">
        <ele>69.951924</ele>
        <time>2025-08-12T11:04:37.193Z</time>
      </trkpt>
      <trkpt lat="51.772188" lon="7.024263">
        <ele>69.087912</ele>
        <time>2025-08-12T11:04:55.863Z</time>
      </trkpt>
      <trkpt lat="51.773278" lon="7.025486">
        <ele>68.674431</ele>
        <time>2025-08-12T11:05:11.927Z</time>
      </trkpt>
      <trkpt lat="51.773406" lon="7.025637">
        <ele>68.622935</ele>
        <time>2025-08-12T11:05:13.629Z</time>
      </trkpt>
      <trkpt lat="51.773431" lon="7.026286">
        <ele>68.492189</ele>
        <time>2025-08-12T11:05:17.795Z</time>
      </trkpt>
      <trkpt lat="51.773459" lon="7.027832">
        <ele>68.029220</ele>
        <time>2025-08-12T11:05:27.390Z</time>
      </trkpt>
      <trkpt lat="51.773508" lon="7.029113">
        <ele>67.566858</ele>
        <time>2025-08-12T11:05:35.658Z</time>
      </trkpt>
      <trkpt lat="51.773582" lon="7.031798">
        <ele>66.647394</ele>
        <time>2025-08-12T11:05:54.268Z</time>
      </trkpt>
      <trkpt lat="51.773601" lon="7.032511">
        <ele>66.407534</ele>
        <time>2025-08-12T11:05:58.694Z</time>
      </trkpt>
      <trkpt lat="51.775208" lon="7.032284">
        <ele>64.085859</ele>
        <time>2025-08-12T11:06:19.709Z</time>
      </trkpt>
      <trkpt lat="51.776668" lon="7.032042">
        <ele>62.329790</ele>
        <time>2025-08-12T11:06:39.010Z</time>
      </trkpt>
      <trkpt lat="51.777796" lon="7.031789">
        <ele>61.635152</ele>
        <time>2025-08-12T11:06:56.166Z</time>
      </trkpt>
      <trkpt lat="51.778610" lon="7.031558">
        <ele>61.642230</ele>
        <time>2025-08-12T11:07:10.060Z</time>
      </trkpt>
      <trkpt lat="51.778760" lon="7.031594">
        <ele>61.643528</ele>
        <time>2025-08-12T11:07:12.001Z</time>
      </trkpt>
      <trkpt lat="51.779034" lon="7.031672">
        <ele>61.645911</ele>
        <time>2025-08-12T11:07:15.557Z</time>
      </trkpt>
      <trkpt lat="51.779959" lon="7.032282">
        <ele>61.730270</ele>
        <time>2025-08-12T11:07:27.611Z</time>
      </trkpt>
      <trkpt lat="51.781253" lon="7.033615">
        <ele>61.713690</ele>
        <time>2025-08-12T11:07:46.217Z</time>
      </trkpt>
      <trkpt lat="51.781444" lon="7.033777">
        <ele>61.686776</ele>
        <time>2025-08-12T11:07:48.630Z</time>
      </trkpt>
      <trkpt lat="51.781705" lon="7.033895">
        <ele>61.652959</ele>
        <time>2025-08-12T11:07:51.851Z</time>
      </trkpt>
      <trkpt lat="51.781961" lon="7.034011">
        <ele>61.619785</ele>
        <time>2025-08-12T11:07:55.236Z</time>
      </trkpt>
      <trkpt lat="51.782562" lon="7.034292">
        <ele>61.516334</ele>
        <time>2025-08-12T11:08:01.716Z</time>
      </trkpt>
      <trkpt lat="51.782873" lon="7.034375">
        <ele>61.449093</ele>
        <time>2025-08-12T11:08:04.867Z</time>
      </trkpt>
      <trkpt lat="51.782902" lon="7.034538">
        <ele>61.426711</ele>
        <time>2025-08-12T11:08:05.895Z</time>
      </trkpt>
      <trkpt lat="51.783017" lon="7.034977">
        <ele>61.363796</ele>
        <time>2025-08-12T11:08:08.980Z</time>
      </trkpt>
      <trkpt lat="51.783140" lon="7.035282">
        <ele>61.315749</ele>
        <time>2025-08-12T11:08:11.542Z</time>
      </trkpt>
      <trkpt lat="51.783549" lon="7.036137">
        <ele>61.376507</ele>
        <time>2025-08-12T11:08:19.551Z</time>
      </trkpt>
      <trkpt lat="51.783908" lon="7.036886">
        <ele>62.480812</ele>
        <time>2025-08-12T11:08:29.105Z</time>
      </trkpt>
      <trkpt lat="51.784209" lon="7.037310">
        <ele>63.232992</ele>
        <time>2025-08-12T11:08:36.486Z</time>
      </trkpt>
      <trkpt lat="51.784333" lon="7.037423">
        <ele>63.501171</ele>
        <time>2025-08-12T11:08:39.248Z</time>
      </trkpt>
      <trkpt lat="51.784918" lon="7.037795">
        <ele>64.667064</ele>
        <time>2025-08-12T11:08:52.715Z</time>
      </trkpt>
      <trkpt lat="51.785298" lon="7.037954">
        <ele>65.274275</ele>
        <time>2025-08-12T11:09:01.057Z</time>
      </trkpt>
      <trkpt lat="51.785364" lon="7.037971">
        <ele>65.377661</ele>
        <time>2025-08-12T11:09:02.363Z</time>
      </trkpt>
      <trkpt lat="51.785516" lon="7.037990">
        <ele>65.613498</ele>
        <time>2025-08-12T11:09:05.172Z</time>
      </trkpt>
      <trkpt lat="51.785686" lon="7.037981">
        <ele>65.876620</ele>
        <time>2025-08-12T11:09:08.019Z</time>
      </trkpt>
      <trkpt lat="51.785742" lon="7.037977">
        <ele>65.963333</ele>
        <time>2025-08-12T11:09:08.874Z</time>
      </trkpt>
      <trkpt lat="51.786188" lon="7.037895">
        <ele>66.657717</ele>
        <time>2025-08-12T11:09:17.797Z</time>
      </trkpt>
      <trkpt lat="51.786374" lon="7.037914">
        <ele>66.946022</ele>
        <time>2025-08-12T11:09:21.310Z</time>
      </trkpt>
      <trkpt lat="51.786474" lon="7.037986">
        <ele>67.115366</ele>
        <time>2025-08-12T11:09:23.328Z</time>
      </trkpt>
      <trkpt lat="51.786788" lon="7.038113">
        <ele>67.303236</ele>
        <time>2025-08-12T11:09:27.576Z</time>
      </trkpt>
      <trkpt lat="51.787004" lon="7.038176">
        <ele>67.220033</ele>
        <time>2025-08-12T11:09:30.162Z</time>
      </trkpt>
      <trkpt lat="51.787341" lon="7.038267">
        <ele>67.090515</ele>
        <time>2025-08-12T11:09:33.749Z</time>
      </trkpt>
      <trkpt lat="51.787605" lon="7.038404">
        <ele>66.985409</ele>
        <time>2025-08-12T11:09:36.546Z</time>
      </trkpt>
      <trkpt lat="51.787659" lon="7.038437">
        <ele>66.963526</ele>
        <time>2025-08-12T11:09:37.136Z</time>
      </trkpt>
      <trkpt lat="51.787794" lon="7.038522">
        <ele>66.908606</ele>
        <time>2025-08-12T11:09:38.689Z</time>
      </trkpt>
      <trkpt lat="51.788059" lon="7.038687">
        <ele>66.800958</ele>
        <time>2025-08-12T11:09:41.733Z</time>
      </trkpt>
      <trkpt lat="51.788535" lon="7.038984">
        <ele>66.690822</ele>
        <time>2025-08-12T11:09:46.997Z</time>
      </trkpt>
      <trkpt lat="51.788766" lon="7.039080">
        <ele>66.700211</ele>
        <time>2025-08-12T11:09:49.372Z</time>
      </trkpt>
      <trkpt lat="51.789125" lon="7.039194">
        <ele>66.714614</ele>
        <time>2025-08-12T11:09:52.747Z</time>
      </trkpt>
      <trkpt lat="51.789473" lon="7.039310">
        <ele>66.728601</ele>
        <time>2025-08-12T11:09:56.342Z</time>
      </trkpt>
      <trkpt lat="51.789555" lon="7.039391">
        <ele>66.732384</ele>
        <time>2025-08-12T11:09:57.358Z</time>
      </trkpt>
      <trkpt lat="51.789636" lon="7.039535">
        <ele>66.737123</ele>
        <time>2025-08-12T11:09:58.864Z</time>
      </trkpt>
      <trkpt lat="51.789701" lon="7.039806">
        <ele>66.744201</ele>
        <time>2025-08-12T11:10:01.438Z</time>
      </trkpt>
      <trkpt lat="51.789729" lon="7.040068">
        <ele>66.750675</ele>
        <time>2025-08-12T11:10:04.184Z</time>
      </trkpt>
      <trkpt lat="51.789772" lon="7.040374">
        <ele>67.282039</ele>
        <time>2025-08-12T11:10:08.003Z</time>
      </trkpt>
      <trkpt lat="51.789829" lon="7.040588">
        <ele>67.944612</ele>
        <time>2025-08-12T11:10:11.151Z</time>
      </trkpt>
      <trkpt lat="51.789945" lon="7.040762">
        <ele>68.672094</ele>
        <time>2025-08-12T11:10:14.880Z</time>
      </trkpt>
      <trkpt lat="51.790074" lon="7.040847">
        <ele>69.312520</ele>
        <time>2025-08-12T11:10:18.318Z</time>
      </trkpt>
      <trkpt lat="51.790563" lon="7.042343">
        <ele>74.124118</ele>
        <time>2025-08-12T11:10:49.743Z</time>
      </trkpt>
      <trkpt lat="51.790723" lon="7.042756">
        <ele>75.411043</ele>
        <time>2025-08-12T11:10:59.307Z</time>
      </trkpt>
      <trkpt lat="51.791142" lon="7.043579">
        <ele>77.827060</ele>
        <time>2025-08-12T11:11:17.500Z</time>
      </trkpt>
      <trkpt lat="51.791330" lon="7.043955">
        <ele>78.922913</ele>
        <time>2025-08-12T11:11:24.411Z</time>
      </trkpt>
      <trkpt lat="51.791445" lon="7.044248">
        <ele>79.709434</ele>
        <time>2025-08-12T11:11:28.914Z</time>
      </trkpt>
      <trkpt lat="51.791483" lon="7.044508">
        <ele>80.314965</ele>
        <time>2025-08-12T11:11:32.170Z</time>
      </trkpt>
      <trkpt lat="51.791472" lon="7.044906">
        <ele>81.217951</ele>
        <time>2025-08-12T11:11:36.677Z</time>
      </trkpt>
      <trkpt lat="51.791368" lon="7.045588">
        <ele>82.384640</ele>
        <time>2025-08-12T11:11:43.780Z</time>
      </trkpt>
      <trkpt lat="51.791352" lon="7.046259">
        <ele>83.365388</ele>
        <time>2025-08-12T11:11:50.499Z</time>
      </trkpt>
      <trkpt lat="51.791468" lon="7.046559">
        <ele>83.882121</ele>
        <time>2025-08-12T11:11:54.113Z</time>
      </trkpt>
      <trkpt lat="51.791606" lon="7.046760">
        <ele>84.320718</ele>
        <time>2025-08-12T11:11:57.197Z</time>
      </trkpt>
      <trkpt lat="51.792519" lon="7.047893">
        <ele>87.668170</ele>
        <time>2025-08-12T11:12:24.233Z</time>
      </trkpt>
      <trkpt lat="51.792646" lon="7.048147">
        <ele>88.400308</ele>
        <time>2025-08-12T11:12:29.864Z</time>
      </trkpt>
      <trkpt lat="51.793394" lon="7.049870">
        <ele>92.413024</ele>
        <time>2025-08-12T11:13:01.387Z</time>
      </trkpt>
      <trkpt lat="51.793442" lon="7.049979">
        <ele>92.426583</ele>
        <time>2025-08-12T11:13:02.746Z</time>
      </trkpt>
      <trkpt lat="51.793847" lon="7.050963">
        <ele>92.546362</ele>
        <time>2025-08-12T11:13:12.286Z</time>
      </trkpt>
      <trkpt lat="51.794182" lon="7.051697">
        <ele>92.638804</ele>
        <time>2025-08-12T11:13:17.462Z</time>
      </trkpt>
      <trkpt lat="51.794795" lon="7.052445">
        <ele>91.753250</ele>
        <time>2025-08-12T11:13:24.274Z</time>
      </trkpt>
      <trkpt lat="51.796748" lon="7.055171">
        <ele>87.575952</ele>
        <time>2025-08-12T11:13:47.734Z</time>
      </trkpt>
      <trkpt lat="51.798018" lon="7.056945">
        <ele>85.065346</ele>
        <time>2025-08-12T11:14:03.257Z</time>
      </trkpt>
      <trkpt lat="51.800852" lon="7.060904">
        <ele>79.550711</ele>
        <time>2025-08-12T11:14:37.665Z</time>
      </trkpt>
      <trkpt lat="51.800890" lon="7.061280">
        <ele>79.218233</ele>
        <time>2025-08-12T11:14:39.940Z</time>
      </trkpt>
      <trkpt lat="51.800393" lon="7.063773">
        <ele>77.497521</ele>
        <time>2025-08-12T11:14:55.732Z</time>
      </trkpt>
      <trkpt lat="51.800369" lon="7.064223">
        <ele>77.214758</ele>
        <time>2025-08-12T11:14:58.418Z</time>
      </trkpt>
      <trkpt lat="51.800408" lon="7.064545">
        <ele>77.103226</ele>
        <time>2025-08-12T11:15:00.423Z</time>
      </trkpt>
      <trkpt lat="51.800387" lon="7.064952">
        <ele>77.083459</ele>
        <time>2025-08-12T11:15:03.003Z</time>
      </trkpt>
      <trkpt lat="51.800214" lon="7.065479">
        <ele>77.054580</ele>
        <time>2025-08-12T11:15:06.954Z</time>
      </trkpt>
      <trkpt lat="51.799735" lon="7.066621">
        <ele>76.987791</ele>
        <time>2025-08-12T11:15:17.484Z</time>
      </trkpt>
      <trkpt lat="51.799738" lon="7.066776">
        <ele>76.980285</ele>
        <time>2025-08-12T11:15:18.804Z</time>
      </trkpt>
      <trkpt lat="51.799990" lon="7.067281">
        <ele>77.137290</ele>
        <time>2025-08-12T11:15:24.553Z</time>
      </trkpt>
      <trkpt lat="51.800247" lon="7.067958">
        <ele>77.436727</ele>
        <time>2025-08-12T11:15:31.604Z</time>
      </trkpt>
      <trkpt lat="51.800370" lon="7.068418">
        <ele>77.625635</ele>
        <time>2025-08-12T11:15:35.957Z</time>
      </trkpt>
      <trkpt lat="51.800591" lon="7.069238">
        <ele>77.962806</ele>
        <time>2025-08-12T11:15:43.649Z</time>
      </trkpt>
      <trkpt lat="51.801197" lon="7.071471">
        <ele>78.423587</ele>
        <time>2025-08-12T11:16:03.726Z</time>
      </trkpt>
      <trkpt lat="51.801440" lon="7.072456">
        <ele>78.482031</ele>
        <time>2025-08-12T11:16:11.114Z</time>
      </trkpt>
      <trkpt lat="51.801465" lon="7.073375">
        <ele>78.293427</ele>
        <time>2025-08-12T11:16:17.228Z</time>
      </trkpt>
      <trkpt lat="51.801519" lon="7.074103">
        <ele>78.143096</ele>
        <time>2025-08-12T11:16:22.175Z</time>
      </trkpt>
      <trkpt lat="51.801695" lon="7.075229">
        <ele>77.806915</ele>
        <time>2025-08-12T11:16:30.086Z</time>
      </trkpt>
      <trkpt lat="51.801811" lon="7.075657">
        <ele>77.503646</ele>
        <time>2025-08-12T11:16:33.097Z</time>
      </trkpt>
      <trkpt lat="51.801974" lon="7.076253">
        <ele>77.080718</ele>
        <time>2025-08-12T11:16:37.125Z</time>
      </trkpt>
      <trkpt lat="51.802307" lon="7.078572">
        <ele>75.161591</ele>
        <time>2025-08-12T11:16:50.852Z</time>
      </trkpt>
      <trkpt lat="51.802400" lon="7.078657">
        <ele>74.969881</ele>
        <time>2025-08-12T11:16:51.835Z</time>
      </trkpt>
      <trkpt lat="51.803089" lon="7.078677">
        <ele>73.733201</ele>
        <time>2025-08-12T11:16:57.986Z</time>
      </trkpt>
      <trkpt lat="51.803153" lon="7.078704">
        <ele>73.614503</ele>
        <time>2025-08-12T11:16:58.572Z</time>
      </trkpt>
      <trkpt lat="51.803225" lon="7.078836">
        <ele>73.419175</ele>
        <time>2025-08-12T11:16:59.521Z</time>
      </trkpt>
      <trkpt lat="51.803250" lon="7.078948">
        <ele>73.287037</ele>
        <time>2025-08-12T11:17:00.163Z</time>
      </trkpt>
      <trkpt lat="51.803383" lon="7.080885">
        <ele>70.524010</ele>
        <time>2025-08-12T11:17:10.443Z</time>
      </trkpt>
      <trkpt lat="51.803506" lon="7.081862">
        <ele>69.029273</ele>
        <time>2025-08-12T11:17:15.649Z</time>
      </trkpt>
      <trkpt lat="51.803216" lon="7.081918">
        <ele>68.383299</ele>
        <time>2025-08-12T11:17:18.096Z</time>
      </trkpt>
      <trkpt lat="51.803264" lon="7.083190">
        <ele>67.248707</ele>
        <time>2025-08-12T11:17:24.766Z</time>
      </trkpt>
      <trkpt lat="51.803258" lon="7.083559">
        <ele>66.920066</ele>
        <time>2025-08-12T11:17:26.813Z</time>
      </trkpt>
      <trkpt lat="51.803218" lon="7.083719">
        <ele>66.766414</ele>
        <time>2025-08-12T11:17:27.815Z</time>
      </trkpt>
      <trkpt lat="51.802961" lon="7.084259">
        <ele>66.159731</ele>
        <time>2025-08-12T11:17:32.252Z</time>
      </trkpt>
      <trkpt lat="51.802898" lon="7.084478">
        <ele>65.944684</ele>
        <time>2025-08-12T11:17:34.017Z</time>
      </trkpt>
      <trkpt lat="51.802850" lon="7.084865">
        <ele>66.129244</ele>
        <time>2025-08-12T11:17:37.278Z</time>
      </trkpt>
      <trkpt lat="51.802835" lon="7.085224">
        <ele>66.398598</ele>
        <time>2025-08-12T11:17:40.595Z</time>
      </trkpt>
      <trkpt lat="51.802854" lon="7.085577">
        <ele>66.663848</ele>
        <time>2025-08-12T11:17:44.243Z</time>
      </trkpt>
      <trkpt lat="51.802934" lon="7.085763">
        <ele>66.833453</ele>
        <time>2025-08-12T11:17:46.625Z</time>
      </trkpt>
      <trkpt lat="51.803028" lon="7.086253">
        <ele>67.217504</ele>
        <time>2025-08-12T11:17:52.377Z</time>
      </trkpt>
      <trkpt lat="51.803065" lon="7.086766">
        <ele>67.604130</ele>
        <time>2025-08-12T11:17:58.224Z</time>
      </trkpt>
      <trkpt lat="51.803091" lon="7.087455">
        <ele>68.117936</ele>
        <time>2025-08-12T11:18:05.065Z</time>
      </trkpt>
      <trkpt lat="51.803082" lon="7.089161">
        <ele>69.331760</ele>
        <time>2025-08-12T11:18:20.393Z</time>
      </trkpt>
      <trkpt lat="51.803040" lon="7.090220">
        <ele>70.086763</ele>
        <time>2025-08-12T11:18:30.805Z</time>
      </trkpt>
      <trkpt lat="51.803072" lon="7.090742">
        <ele>70.635160</ele>
        <time>2025-08-12T11:18:36.289Z</time>
      </trkpt>
      <trkpt lat="51.802957" lon="7.091519">
        <ele>71.506575</ele>
        <time>2025-08-12T11:18:45.050Z</time>
      </trkpt>
      <trkpt lat="51.802572" lon="7.095276">
        <ele>75.327258</ele>
        <time>2025-08-12T11:19:27.275Z</time>
      </trkpt>
      <trkpt lat="51.802489" lon="7.095841">
        <ele>75.871151</ele>
        <time>2025-08-12T11:19:32.529Z</time>
      </trkpt>
      <trkpt lat="51.802467" lon="7.096253">
        <ele>76.050908</ele>
        <time>2025-08-12T11:19:36.015Z</time>
      </trkpt>
      <trkpt lat="51.802502" lon="7.096774">
        <ele>76.099633</ele>
        <time>2025-08-12T11:19:40.170Z</time>
      </trkpt>
      <trkpt lat="51.802622" lon="7.097695">
        <ele>76.187143</ele>
        <time>2025-08-12T11:19:47.219Z</time>
      </trkpt>
      <trkpt lat="51.802714" lon="7.098410">
        <ele>76.255044</ele>
        <time>2025-08-12T11:19:52.751Z</time>
      </trkpt>
      <trkpt lat="51.802767" lon="7.099131">
        <ele>76.069330</ele>
        <time>2025-08-12T11:19:57.814Z</time>
      </trkpt>
      <trkpt lat="51.802982" lon="7.100068">
        <ele>75.185259</ele>
        <time>2025-08-12T11:20:04.102Z</time>
      </trkpt>
      <trkpt lat="51.802745" lon="7.101331">
        <ele>74.017730</ele>
        <time>2025-08-12T11:20:11.423Z</time>
      </trkpt>
      <trkpt lat="51.802621" lon="7.102098">
        <ele>73.049981</ele>
        <time>2025-08-12T11:20:15.456Z</time>
      </trkpt>
      <trkpt lat="51.802546" lon="7.102778">
        <ele>72.040942</ele>
        <time>2025-08-12T11:20:18.937Z</time>
      </trkpt>
      <trkpt lat="51.802535" lon="7.103452">
        <ele>71.056002</ele>
        <time>2025-08-12T11:20:22.415Z</time>
      </trkpt>
      <trkpt lat="51.802592" lon="7.104153">
        <ele>70.023147</ele>
        <time>2025-08-12T11:20:26.160Z</time>
      </trkpt>
      <trkpt lat="51.802615" lon="7.104315">
        <ele>69.780336</ele>
        <time>2025-08-12T11:20:27.071Z</time>
      </trkpt>
      <trkpt lat="51.802883" lon="7.106216">
        <ele>68.776496</ele>
        <time>2025-08-12T11:20:38.911Z</time>
      </trkpt>
      <trkpt lat="51.802957" lon="7.106604">
        <ele>68.613324</ele>
        <time>2025-08-12T11:20:41.867Z</time>
      </trkpt>
      <trkpt lat="51.803220" lon="7.107441">
        <ele>68.305383</ele>
        <time>2025-08-12T11:20:49.121Z</time>
      </trkpt>
      <trkpt lat="51.803665" lon="7.108693">
        <ele>68.287830</ele>
        <time>2025-08-12T11:21:00.127Z</time>
      </trkpt>
      <trkpt lat="51.803817" lon="7.109009">
        <ele>68.282964</ele>
        <time>2025-08-12T11:21:02.977Z</time>
      </trkpt>
      <trkpt lat="51.804310" lon="7.109502">
        <ele>68.267279</ele>
        <time>2025-08-12T11:21:09.466Z</time>
      </trkpt>
      <trkpt lat="51.804672" lon="7.109988">
        <ele>68.194085</ele>
        <time>2025-08-12T11:21:14.588Z</time>
      </trkpt>
      <trkpt lat="51.805290" lon="7.110957">
        <ele>68.060173</ele>
        <time>2025-08-12T11:21:24.347Z</time>
      </trkpt>
      <trkpt lat="51.805547" lon="7.111545">
        <ele>67.992306</ele>
        <time>2025-08-12T11:21:29.596Z</time>
      </trkpt>
      <trkpt lat="51.806427" lon="7.113532">
        <ele>67.981824</ele>
        <time>2025-08-12T11:21:47.345Z</time>
      </trkpt>
      <trkpt lat="51.806782" lon="7.115122">
        <ele>67.959856</ele>
        <time>2025-08-12T11:22:00.291Z</time>
      </trkpt>
      <trkpt lat="51.807371" lon="7.115888">
        <ele>67.940116</ele>
        <time>2025-08-12T11:22:09.419Z</time>
      </trkpt>
      <trkpt lat="51.808178" lon="7.116745">
        <ele>67.114308</ele>
        <time>2025-08-12T11:22:19.843Z</time>
      </trkpt>
      <trkpt lat="51.808501" lon="7.117283">
        <ele>66.564121</ele>
        <time>2025-08-12T11:22:24.254Z</time>
      </trkpt>
      <trkpt lat="51.809445" lon="7.118959">
        <ele>64.215912</ele>
        <time>2025-08-12T11:22:36.418Z</time>
      </trkpt>
      <trkpt lat="51.809917" lon="7.119880">
        <ele>62.668830</ele>
        <time>2025-08-12T11:22:42.758Z</time>
      </trkpt>
      <trkpt lat="51.810187" lon="7.120217">
        <ele>62.000249</ele>
        <time>2025-08-12T11:22:45.784Z</time>
      </trkpt>
      <trkpt lat="51.810322" lon="7.120348">
        <ele>61.853308</ele>
        <time>2025-08-12T11:22:47.235Z</time>
      </trkpt>
      <trkpt lat="51.810455" lon="7.120550">
        <ele>61.683021</ele>
        <time>2025-08-12T11:22:48.954Z</time>
      </trkpt>
      <trkpt lat="51.810599" lon="7.121717">
        <ele>60.996309</ele>
        <time>2025-08-12T11:22:59.208Z</time>
      </trkpt>
      <trkpt lat="51.810458" lon="7.121884">
        <ele>60.833193</ele>
        <time>2025-08-12T11:23:00.992Z</time>
      </trkpt>
      <trkpt lat="51.809405" lon="7.125105">
        <ele>60.090337</ele>
        <time>2025-08-12T11:23:25.806Z</time>
      </trkpt>
      <trkpt lat="51.809390" lon="7.125152">
        <ele>60.085323</ele>
        <time>2025-08-12T11:23:26.241Z</time>
      </trkpt>
      <trkpt lat="51.809377" lon="7.125204">
        <ele>60.091702</ele>
        <time>2025-08-12T11:23:26.705Z</time>
      </trkpt>
      <trkpt lat="51.809051" lon="7.126551">
        <ele>60.836693</ele>
        <time>2025-08-12T11:23:40.034Z</time>
      </trkpt>
      <trkpt lat="51.808836" lon="7.127030">
        <ele>61.141544</ele>
        <time>2025-08-12T11:23:45.917Z</time>
      </trkpt>
      <trkpt lat="51.808571" lon="7.127054">
        <ele>61.362632</ele>
        <time>2025-08-12T11:23:50.121Z</time>
      </trkpt>
      <trkpt lat="51.806040" lon="7.125285">
        <ele>62.857991</ele>
        <time>2025-08-12T11:24:27.861Z</time>
      </trkpt>
      <trkpt lat="51.805959" lon="7.125174">
        <ele>62.883764</ele>
        <time>2025-08-12T11:24:29.150Z</time>
      </trkpt>
      <trkpt lat="51.805681" lon="7.124791">
        <ele>62.972421</ele>
        <time>2025-08-12T11:24:33.517Z</time>
      </trkpt>
      <trkpt lat="51.805177" lon="7.123933">
        <ele>63.135733</ele>
        <time>2025-08-12T11:24:42.123Z</time>
      </trkpt>
      <trkpt lat="51.804580" lon="7.123354">
        <ele>63.206931</ele>
        <time>2025-08-12T11:24:50.959Z</time>
      </trkpt>
      <trkpt lat="51.802895" lon="7.122467">
        <ele>63.110166</ele>
        <time>2025-08-12T11:25:12.379Z</time>
      </trkpt>
      <trkpt lat="51.802484" lon="7.122250">
        <ele>62.998599</ele>
        <time>2025-08-12T11:25:16.808Z</time>
      </trkpt>
      <trkpt lat="51.801221" lon="7.121594">
        <ele>63.517498</ele>
        <time>2025-08-12T11:25:31.055Z</time>
      </trkpt>
      <trkpt lat="51.801049" lon="7.121518">
        <ele>63.681327</ele>
        <time>2025-08-12T11:25:33.588Z</time>
      </trkpt>
      <trkpt lat="51.799991" lon="7.121053">
        <ele>64.895592</ele>
        <time>2025-08-12T11:25:53.819Z</time>
      </trkpt>
      <trkpt lat="51.799053" lon="7.120604">
        <ele>66.768247</ele>
        <time>2025-08-12T11:26:12.940Z</time>
      </trkpt>
      <trkpt lat="51.798755" lon="7.120607">
        <ele>67.338725</ele>
        <time>2025-08-12T11:26:18.058Z</time>
      </trkpt>
      <trkpt lat="51.798555" lon="7.120710">
        <ele>67.740538</ele>
        <time>2025-08-12T11:26:21.462Z</time>
      </trkpt>
      <trkpt lat="51.798463" lon="7.120757">
        <ele>67.925236</ele>
        <time>2025-08-12T11:26:22.987Z</time>
      </trkpt>
      <trkpt lat="51.797748" lon="7.121646">
        <ele>68.790451</ele>
        <time>2025-08-12T11:26:35.767Z</time>
      </trkpt>
      <trkpt lat="51.796066" lon="7.123753">
        <ele>71.755300</ele>
        <time>2025-08-12T11:27:07.364Z</time>
      </trkpt>
      <trkpt lat="51.795690" lon="7.124148">
        <ele>72.527078</ele>
        <time>2025-08-12T11:27:16.146Z</time>
      </trkpt>
      <trkpt lat="51.795505" lon="7.124262">
        <ele>73.089839</ele>
        <time>2025-08-12T11:27:20.364Z</time>
      </trkpt>
      <trkpt lat="51.793626" lon="7.124796">
        <ele>82.906278</ele>
        <time>2025-08-12T11:28:13.162Z</time>
      </trkpt>
      <trkpt lat="51.791582" lon="7.125367">
        <ele>99.311716</ele>
        <time>2025-08-12T11:29:33.869Z</time>
      </trkpt>
      <trkpt lat="51.791443" lon="7.125285">
        <ele>100.534102</ele>
        <time>2025-08-12T11:29:39.701Z</time>
      </trkpt>
      <trkpt lat="51.791350" lon="7.125113">
        <ele>101.701474</ele>
        <time>2025-08-12T11:29:45.242Z</time>
      </trkpt>
      <trkpt lat="51.791151" lon="7.124362">
        <ele>105.876323</ele>
        <time>2025-08-12T11:30:05.014Z</time>
      </trkpt>
      <trkpt lat="51.790947" lon="7.124212">
        <ele>107.727754</ele>
        <time>2025-08-12T11:30:13.744Z</time>
      </trkpt>
      <trkpt lat="51.789885" lon="7.124032">
        <ele>114.886849</ele>
        <time>2025-08-12T11:30:52.382Z</time>
      </trkpt>
      <trkpt lat="51.789462" lon="7.124077">
        <ele>117.440713</ele>
        <time>2025-08-12T11:31:06.135Z</time>
      </trkpt>
      <trkpt lat="51.788854" lon="7.124271">
        <ele>121.174254</ele>
        <time>2025-08-12T11:31:23.007Z</time>
      </trkpt>
      <trkpt lat="51.788327" lon="7.124667">
        <ele>121.746136</ele>
        <time>2025-08-12T11:31:34.199Z</time>
      </trkpt>
      <trkpt lat="51.788023" lon="7.125185">
        <ele>122.134816</ele>
        <time>2025-08-12T11:31:40.495Z</time>
      </trkpt>
      <trkpt lat="51.787917" lon="7.125486">
        <ele>122.323355</ele>
        <time>2025-08-12T11:31:43.015Z</time>
      </trkpt>
      <trkpt lat="51.787859" lon="7.125800">
        <ele>122.501737</ele>
        <time>2025-08-12T11:31:45.187Z</time>
      </trkpt>
      <trkpt lat="51.787819" lon="7.126615">
        <ele>122.506371</ele>
        <time>2025-08-12T11:31:50.083Z</time>
      </trkpt>
      <trkpt lat="51.787919" lon="7.127135">
        <ele>121.704833</ele>
        <time>2025-08-12T11:31:53.101Z</time>
      </trkpt>
      <trkpt lat="51.788113" lon="7.127797">
        <ele>120.626601</ele>
        <time>2025-08-12T11:31:57.039Z</time>
      </trkpt>
      <trkpt lat="51.788257" lon="7.128546">
        <ele>119.472112</ele>
        <time>2025-08-12T11:32:01.071Z</time>
      </trkpt>
      <trkpt lat="51.788217" lon="7.129190">
        <ele>118.509962</ele>
        <time>2025-08-12T11:32:04.271Z</time>
      </trkpt>
      <trkpt lat="51.788124" lon="7.129727">
        <ele>117.416285</ele>
        <time>2025-08-12T11:32:07.009Z</time>
      </trkpt>
      <trkpt lat="51.787933" lon="7.130608">
        <ele>115.585390</ele>
        <time>2025-08-12T11:32:11.611Z</time>
      </trkpt>
      <trkpt lat="51.787766" lon="7.131507">
        <ele>113.744447</ele>
        <time>2025-08-12T11:32:16.348Z</time>
      </trkpt>
      <trkpt lat="51.787764" lon="7.131942">
        <ele>112.891283</ele>
        <time>2025-08-12T11:32:18.604Z</time>
      </trkpt>
      <trkpt lat="51.787812" lon="7.132308">
        <ele>112.314556</ele>
        <time>2025-08-12T11:32:20.592Z</time>
      </trkpt>
      <trkpt lat="51.788576" lon="7.136700">
        <ele>104.628097</ele>
        <time>2025-08-12T11:32:44.650Z</time>
      </trkpt>
      <trkpt lat="51.788642" lon="7.137709">
        <ele>102.635552</ele>
        <time>2025-08-12T11:32:49.469Z</time>
      </trkpt>
      <trkpt lat="51.788682" lon="7.139490">
        <ele>98.267942</ele>
        <time>2025-08-12T11:32:57.887Z</time>
      </trkpt>
      <trkpt lat="51.788881" lon="7.141206">
        <ele>94.816544</ele>
        <time>2025-08-12T11:33:06.701Z</time>
      </trkpt>
      <trkpt lat="51.789129" lon="7.142555">
        <ele>92.957234</ele>
        <time>2025-08-12T11:33:14.479Z</time>
      </trkpt>
      <trkpt lat="51.789140" lon="7.142622">
        <ele>92.865650</ele>
        <time>2025-08-12T11:33:14.853Z</time>
      </trkpt>
      <trkpt lat="51.788710" lon="7.143032">
        <ele>91.853509</ele>
        <time>2025-08-12T11:33:19.311Z</time>
      </trkpt>
      <trkpt lat="51.788639" lon="7.144364">
        <ele>90.755180</ele>
        <time>2025-08-12T11:33:27.193Z</time>
      </trkpt>
      <trkpt lat="51.788580" lon="7.145010">
        <ele>90.218720</ele>
        <time>2025-08-12T11:33:31.178Z</time>
      </trkpt>
      <trkpt lat="51.788295" lon="7.146504">
        <ele>88.606240</ele>
        <time>2025-08-12T11:33:40.232Z</time>
      </trkpt>
      <trkpt lat="51.788025" lon="7.147165">
        <ele>87.610803</ele>
        <time>2025-08-12T11:33:44.392Z</time>
      </trkpt>
      <trkpt lat="51.787981" lon="7.147340">
        <ele>87.373410</ele>
        <time>2025-08-12T11:33:45.376Z</time>
      </trkpt>
      <trkpt lat="51.787941" lon="7.147823">
        <ele>86.761013</ele>
        <time>2025-08-12T11:33:47.947Z</time>
      </trkpt>
      <trkpt lat="51.787675" lon="7.148275">
        <ele>85.976992</ele>
        <time>2025-08-12T11:33:51.268Z</time>
      </trkpt>
      <trkpt lat="51.787560" lon="7.148596">
        <ele>85.431419</ele>
        <time>2025-08-12T11:33:53.258Z</time>
      </trkpt>
      <trkpt lat="51.787446" lon="7.148595">
        <ele>85.152512</ele>
        <time>2025-08-12T11:33:54.244Z</time>
      </trkpt>
      <trkpt lat="51.787143" lon="7.148457">
        <ele>84.382359</ele>
        <time>2025-08-12T11:33:56.973Z</time>
      </trkpt>
      <trkpt lat="51.786916" lon="7.148452">
        <ele>83.826947</ele>
        <time>2025-08-12T11:33:58.963Z</time>
      </trkpt>
      <trkpt lat="51.786864" lon="7.148470">
        <ele>83.696844</ele>
        <time>2025-08-12T11:33:59.438Z</time>
      </trkpt>
      <trkpt lat="51.786664" lon="7.148553">
        <ele>83.191674</ele>
        <time>2025-08-12T11:34:01.254Z</time>
      </trkpt>
      <trkpt lat="51.785826" lon="7.148535">
        <ele>81.079266</ele>
        <time>2025-08-12T11:34:08.220Z</time>
      </trkpt>
      <trkpt lat="51.784911" lon="7.148829">
        <ele>78.401211</ele>
        <time>2025-08-12T11:34:15.525Z</time>
      </trkpt>
      <trkpt lat="51.784816" lon="7.148861">
        <ele>78.122639</ele>
        <time>2025-08-12T11:34:16.296Z</time>
      </trkpt>
      <trkpt lat="51.783845" lon="7.149230">
        <ele>76.632121</ele>
        <time>2025-08-12T11:34:25.214Z</time>
      </trkpt>
      <trkpt lat="51.783223" lon="7.149351">
        <ele>77.127041</ele>
        <time>2025-08-12T11:34:34.461Z</time>
      </trkpt>
      <trkpt lat="51.782637" lon="7.149346">
        <ele>77.589982</ele>
        <time>2025-08-12T11:34:45.593Z</time>
      </trkpt>
      <trkpt lat="51.781820" lon="7.149338">
        <ele>78.242102</ele>
        <time>2025-08-12T11:35:01.033Z</time>
      </trkpt>
      <trkpt lat="51.781678" lon="7.149269">
        <ele>78.360876</ele>
        <time>2025-08-12T11:35:03.656Z</time>
      </trkpt>
      <trkpt lat="51.781512" lon="7.149119">
        <ele>78.513213</ele>
        <time>2025-08-12T11:35:06.789Z</time>
      </trkpt>
      <trkpt lat="51.781416" lon="7.149081">
        <ele>78.592383</ele>
        <time>2025-08-12T11:35:08.341Z</time>
      </trkpt>
      <trkpt lat="51.780766" lon="7.149047">
        <ele>79.113322</ele>
        <time>2025-08-12T11:35:16.205Z</time>
      </trkpt>
      <trkpt lat="51.780405" lon="7.148896">
        <ele>78.410298</ele>
        <time>2025-08-12T11:35:19.585Z</time>
      </trkpt>
      <trkpt lat="51.780324" lon="7.148938">
        <ele>78.160232</ele>
        <time>2025-08-12T11:35:20.328Z</time>
      </trkpt>
      <trkpt lat="51.780154" lon="7.149152">
        <ele>77.526810</ele>
        <time>2025-08-12T11:35:22.119Z</time>
      </trkpt>
      <trkpt lat="51.780052" lon="7.149186">
        <ele>77.220654</ele>
        <time>2025-08-12T11:35:22.963Z</time>
      </trkpt>
      <trkpt lat="51.779936" lon="7.149155">
        <ele>76.875023</ele>
        <time>2025-08-12T11:35:23.894Z</time>
      </trkpt>
      <trkpt lat="51.779222" lon="7.148441">
        <ele>74.406869</ele>
        <time>2025-08-12T11:35:30.433Z</time>
      </trkpt>
      <trkpt lat="51.779029" lon="7.148328">
        <ele>73.873764</ele>
        <time>2025-08-12T11:35:32.070Z</time>
      </trkpt>
      <trkpt lat="51.778793" lon="7.148298">
        <ele>73.636708</ele>
        <time>2025-08-12T11:35:33.994Z</time>
      </trkpt>
      <trkpt lat="51.778716" lon="7.148319">
        <ele>73.558511</ele>
        <time>2025-08-12T11:35:34.647Z</time>
      </trkpt>
      <trkpt lat="51.778705" lon="7.148198">
        <ele>73.482740</ele>
        <time>2025-08-12T11:35:35.288Z</time>
      </trkpt>
      <trkpt lat="51.778681" lon="7.147947">
        <ele>73.325386</ele>
        <time>2025-08-12T11:35:36.666Z</time>
      </trkpt>
      <trkpt lat="51.778560" lon="7.146774">
        <ele>72.588614</ele>
        <time>2025-08-12T11:35:44.372Z</time>
      </trkpt>
      <trkpt lat="51.778499" lon="7.146066">
        <ele>72.145734</ele>
        <time>2025-08-12T11:35:50.633Z</time>
      </trkpt>
      <trkpt lat="51.778476" lon="7.145795">
        <ele>72.269411</ele>
        <time>2025-08-12T11:35:53.141Z</time>
      </trkpt>
      <trkpt lat="51.778433" lon="7.143488">
        <ele>73.998256</ele>
        <time>2025-08-12T11:36:15.511Z</time>
      </trkpt>
      <trkpt lat="51.778433" lon="7.141462">
        <ele>76.359520</ele>
        <time>2025-08-12T11:36:37.519Z</time>
      </trkpt>
      <trkpt lat="51.778493" lon="7.140142">
        <ele>78.051978</ele>
        <time>2025-08-12T11:36:53.384Z</time>
      </trkpt>
      <trkpt lat="51.778703" lon="7.135519">
        <ele>85.738628</ele>
        <time>2025-08-12T11:37:52.012Z</time>
      </trkpt>
      <trkpt lat="51.778796" lon="7.134137">
        <ele>88.230440</ele>
        <time>2025-08-12T11:38:10.154Z</time>
      </trkpt>
      <trkpt lat="51.778863" lon="7.133454">
        <ele>89.687157</ele>
        <time>2025-08-12T11:38:19.453Z</time>
      </trkpt>
      <trkpt lat="51.778869" lon="7.133390">
        <ele>89.823512</ele>
        <time>2025-08-12T11:38:20.388Z</time>
      </trkpt>
      <trkpt lat="51.779027" lon="7.132276">
        <ele>92.231027</ele>
        <time>2025-08-12T11:38:37.076Z</time>
      </trkpt>
      <trkpt lat="51.779046" lon="7.132027">
        <ele>92.759519</ele>
        <time>2025-08-12T11:38:40.841Z</time>
      </trkpt>
      <trkpt lat="51.779032" lon="7.131785">
        <ele>93.271515</ele>
        <time>2025-08-12T11:38:44.495Z</time>
      </trkpt>
      <trkpt lat="51.778869" lon="7.130803">
        <ele>94.646955</ele>
        <time>2025-08-12T11:38:58.891Z</time>
      </trkpt>
      <trkpt lat="51.778691" lon="7.129958">
        <ele>95.640790</ele>
        <time>2025-08-12T11:39:09.899Z</time>
      </trkpt>
      <trkpt lat="51.778196" lon="7.128723">
        <ele>97.177452</ele>
        <time>2025-08-12T11:39:21.431Z</time>
      </trkpt>
      <trkpt lat="51.777794" lon="7.127763">
        <ele>97.952487</ele>
        <time>2025-08-12T11:39:29.299Z</time>
      </trkpt>
      <trkpt lat="51.777234" lon="7.126047">
        <ele>100.063583</ele>
        <time>2025-08-12T11:39:50.414Z</time>
      </trkpt>
      <trkpt lat="51.776282" lon="7.123149">
        <ele>108.246994</ele>
        <time>2025-08-12T11:40:46.368Z</time>
      </trkpt>
      <trkpt lat="51.775775" lon="7.122306">
        <ele>110.778826</ele>
        <time>2025-08-12T11:41:02.898Z</time>
      </trkpt>
      <trkpt lat="51.775577" lon="7.121992">
        <ele>111.744360</ele>
        <time>2025-08-12T11:41:08.497Z</time>
      </trkpt>
      <trkpt lat="51.775386" lon="7.121455">
        <ele>112.955956</ele>
        <time>2025-08-12T11:41:15.746Z</time>
      </trkpt>
      <trkpt lat="51.774898" lon="7.119298">
        <ele>115.761919</ele>
        <time>2025-08-12T11:41:41.729Z</time>
      </trkpt>
      <trkpt lat="51.774856" lon="7.118924">
        <ele>116.226322</ele>
        <time>2025-08-12T11:41:45.774Z</time>
      </trkpt>
      <trkpt lat="51.774848" lon="7.118438">
        <ele>116.791704</ele>
        <time>2025-08-12T11:41:50.847Z</time>
      </trkpt>
      <trkpt lat="51.774978" lon="7.116834">
        <ele>118.648689</ele>
        <time>2025-08-12T11:42:07.526Z</time>
      </trkpt>
      <trkpt lat="51.775105" lon="7.115625">
        <ele>120.448269</ele>
        <time>2025-08-12T11:42:21.982Z</time>
      </trkpt>
      <trkpt lat="51.775102" lon="7.115208">
        <ele>121.430661</ele>
        <time>2025-08-12T11:42:27.505Z</time>
      </trkpt>
      <trkpt lat="51.775014" lon="7.114716">
        <ele>122.637117</ele>
        <time>2025-08-12T11:42:34.693Z</time>
      </trkpt>
      <trkpt lat="51.774565" lon="7.112764">
        <ele>127.643646</ele>
        <time>2025-08-12T11:43:08.703Z</time>
      </trkpt>
      <trkpt lat="51.774289" lon="7.110946">
        <ele>132.492595</ele>
        <time>2025-08-12T11:43:41.094Z</time>
      </trkpt>
      <trkpt lat="51.774111" lon="7.110377">
        <ele>134.076498</ele>
        <time>2025-08-12T11:43:49.569Z</time>
      </trkpt>
      <trkpt lat="51.773814" lon="7.109585">
        <ele>134.512217</ele>
        <time>2025-08-12T11:43:58.559Z</time>
      </trkpt>
      <trkpt lat="51.773250" lon="7.108044">
        <ele>135.354586</ele>
        <time>2025-08-12T11:44:11.132Z</time>
      </trkpt>
      <trkpt lat="51.772922" lon="7.108289">
        <ele>135.470911</ele>
        <time>2025-08-12T11:44:16.143Z</time>
      </trkpt>
      <trkpt lat="51.772515" lon="7.108536">
        <ele>135.539921</ele>
        <time>2025-08-12T11:44:22.755Z</time>
      </trkpt>
      <trkpt lat="51.772012" lon="7.108751">
        <ele>135.622510</ele>
        <time>2025-08-12T11:44:30.562Z</time>
      </trkpt>
      <trkpt lat="51.771558" lon="7.108856">
        <ele>135.695310</ele>
        <time>2025-08-12T11:44:35.837Z</time>
      </trkpt>
      <trkpt lat="51.770891" lon="7.108875">
        <ele>134.175517</ele>
        <time>2025-08-12T11:44:41.766Z</time>
      </trkpt>
      <trkpt lat="51.769108" lon="7.108666">
        <ele>129.193876</ele>
        <time>2025-08-12T11:44:56.016Z</time>
      </trkpt>
      <trkpt lat="51.768519" lon="7.108599">
        <ele>127.596937</ele>
        <time>2025-08-12T11:45:00.885Z</time>
      </trkpt>
      <trkpt lat="51.767413" lon="7.108462">
        <ele>125.133993</ele>
        <time>2025-08-12T11:45:10.737Z</time>
      </trkpt>
      <trkpt lat="51.767018" lon="7.108415">
        <ele>124.551188</ele>
        <time>2025-08-12T11:45:14.431Z</time>
      </trkpt>
      <trkpt lat="51.766979" lon="7.108410">
        <ele>124.493620</ele>
        <time>2025-08-12T11:45:14.798Z</time>
      </trkpt>
      <trkpt lat="51.763899" lon="7.108043">
        <ele>120.280074</ele>
        <time>2025-08-12T11:45:43.928Z</time>
      </trkpt>
      <trkpt lat="51.763109" lon="7.107950">
        <ele>119.061615</ele>
        <time>2025-08-12T11:45:51.213Z</time>
      </trkpt>
      <trkpt lat="51.762823" lon="7.107917">
        <ele>118.620548</ele>
        <time>2025-08-12T11:45:53.816Z</time>
      </trkpt>
      <trkpt lat="51.762193" lon="7.107846">
        <ele>117.595478</ele>
        <time>2025-08-12T11:45:59.471Z</time>
      </trkpt>
      <trkpt lat="51.760268" lon="7.107898">
        <ele>114.485222</ele>
        <time>2025-08-12T11:46:16.726Z</time>
      </trkpt>
      <trkpt lat="51.759828" lon="7.107919">
        <ele>113.973294</ele>
        <time>2025-08-12T11:46:21.055Z</time>
      </trkpt>
      <trkpt lat="51.758319" lon="7.107687">
        <ele>112.148919</ele>
        <time>2025-08-12T11:46:36.196Z</time>
      </trkpt>
      <trkpt lat="51.757573" lon="7.107475">
        <ele>111.184428</ele>
        <time>2025-08-12T11:46:43.153Z</time>
      </trkpt>
      <trkpt lat="51.754078" lon="7.106837">
        <ele>105.849645</ele>
        <time>2025-08-12T11:47:15.515Z</time>
      </trkpt>
      <trkpt lat="51.753424" lon="7.106728">
        <ele>104.627369</ele>
        <time>2025-08-12T11:47:21.615Z</time>
      </trkpt>
      <trkpt lat="51.752420" lon="7.106687">
        <ele>101.369011</ele>
        <time>2025-08-12T11:47:29.994Z</time>
      </trkpt>
      <trkpt lat="51.752175" lon="7.106689">
        <ele>100.574138</ele>
        <time>2025-08-12T11:47:31.891Z</time>
      </trkpt>
      <trkpt lat="51.748663" lon="7.106711">
        <ele>85.800919</ele>
        <time>2025-08-12T11:47:58.625Z</time>
      </trkpt>
      <trkpt lat="51.748287" lon="7.106703">
        <ele>84.352679</ele>
        <time>2025-08-12T11:48:01.700Z</time>
      </trkpt>
      <trkpt lat="51.748275" lon="7.106855">
        <ele>83.987308</ele>
        <time>2025-08-12T11:48:02.504Z</time>
      </trkpt>
      <trkpt lat="51.748309" lon="7.108715">
        <ele>82.892861</ele>
        <time>2025-08-12T11:48:13.783Z</time>
      </trkpt>
      <trkpt lat="51.748336" lon="7.110326">
        <ele>82.391848</ele>
        <time>2025-08-12T11:48:26.179Z</time>
      </trkpt>
      <trkpt lat="51.746818" lon="7.111501">
        <ele>82.693556</ele>
        <time>2025-08-12T11:48:46.820Z</time>
      </trkpt>
      <trkpt lat="51.746082" lon="7.112040">
        <ele>82.971292</ele>
        <time>2025-08-12T11:48:57.654Z</time>
      </trkpt>
      <trkpt lat="51.745872" lon="7.112163">
        <ele>83.048064</ele>
        <time>2025-08-12T11:49:00.707Z</time>
      </trkpt>
      <trkpt lat="51.745825" lon="7.112178">
        <ele>83.064529</ele>
        <time>2025-08-12T11:49:01.343Z</time>
      </trkpt>
      <trkpt lat="51.744923" lon="7.112444">
        <ele>83.148703</ele>
        <time>2025-08-12T11:49:13.010Z</time>
      </trkpt>
      <trkpt lat="51.744852" lon="7.112509">
        <ele>83.124917</ele>
        <time>2025-08-12T11:49:14.009Z</time>
      </trkpt>
      <trkpt lat="51.744509" lon="7.113159">
        <ele>82.970799</ele>
        <time>2025-08-12T11:49:20.428Z</time>
      </trkpt>
      <trkpt lat="51.744454" lon="7.113226">
        <ele>82.950720</ele>
        <time>2025-08-12T11:49:21.245Z</time>
      </trkpt>
      <trkpt lat="51.744345" lon="7.113338">
        <ele>82.913067</ele>
        <time>2025-08-12T11:49:22.709Z</time>
      </trkpt>
      <trkpt lat="51.744094" lon="7.113473">
        <ele>82.835963</ele>
        <time>2025-08-12T11:49:25.574Z</time>
      </trkpt>
      <trkpt lat="51.743903" lon="7.113519">
        <ele>82.779680</ele>
        <time>2025-08-12T11:49:27.583Z</time>
      </trkpt>
      <trkpt lat="51.743749" lon="7.113516">
        <ele>82.734793</ele>
        <time>2025-08-12T11:49:29.086Z</time>
      </trkpt>
      <trkpt lat="51.743632" lon="7.113590">
        <ele>82.473559</ele>
        <time>2025-08-12T11:49:30.265Z</time>
      </trkpt>
      <trkpt lat="51.743513" lon="7.113724">
        <ele>82.137188</ele>
        <time>2025-08-12T11:49:31.574Z</time>
      </trkpt>
      <trkpt lat="51.743311" lon="7.114078">
        <ele>81.446043</ele>
        <time>2025-08-12T11:49:34.187Z</time>
      </trkpt>
      <trkpt lat="51.743359" lon="7.114513">
        <ele>80.811674</ele>
        <time>2025-08-12T11:49:36.502Z</time>
      </trkpt>
      <trkpt lat="51.743535" lon="7.115284">
        <ele>79.631923</ele>
        <time>2025-08-12T11:49:40.655Z</time>
      </trkpt>
      <trkpt lat="51.743528" lon="7.116701">
        <ele>77.587927</ele>
        <time>2025-08-12T11:49:47.950Z</time>
      </trkpt>
      <trkpt lat="51.742475" lon="7.117432">
        <ele>74.903958</ele>
        <time>2025-08-12T11:49:58.241Z</time>
      </trkpt>
      <trkpt lat="51.742268" lon="7.117727">
        <ele>74.206189</ele>
        <time>2025-08-12T11:50:00.554Z</time>
      </trkpt>
      <trkpt lat="51.741909" lon="7.117974">
        <ele>72.774997</ele>
        <time>2025-08-12T11:50:03.646Z</time>
      </trkpt>
      <trkpt lat="51.741583" lon="7.118297">
        <ele>71.372261</ele>
        <time>2025-08-12T11:50:06.625Z</time>
      </trkpt>
      <trkpt lat="51.741265" lon="7.118716">
        <ele>69.867015</ele>
        <time>2025-08-12T11:50:09.780Z</time>
      </trkpt>
      <trkpt lat="51.741153" lon="7.118897">
        <ele>69.285888</ele>
        <time>2025-08-12T11:50:11.004Z</time>
      </trkpt>
      <trkpt lat="51.740564" lon="7.119661">
        <ele>67.111580</ele>
        <time>2025-08-12T11:50:16.987Z</time>
      </trkpt>
      <trkpt lat="51.740429" lon="7.119789">
        <ele>66.814459</ele>
        <time>2025-08-12T11:50:18.319Z</time>
      </trkpt>
      <trkpt lat="51.739728" lon="7.120229">
        <ele>65.387026</ele>
        <time>2025-08-12T11:50:25.273Z</time>
      </trkpt>
      <trkpt lat="51.739110" lon="7.120760">
        <ele>64.358115</ele>
        <time>2025-08-12T11:50:32.043Z</time>
      </trkpt>
      <trkpt lat="51.738617" lon="7.121046">
        <ele>64.431417</ele>
        <time>2025-08-12T11:50:37.341Z</time>
      </trkpt>
      <trkpt lat="51.738433" lon="7.121100">
        <ele>64.457586</ele>
        <time>2025-08-12T11:50:39.382Z</time>
      </trkpt>
      <trkpt lat="51.738259" lon="7.121101">
        <ele>64.481934</ele>
        <time>2025-08-12T11:50:41.452Z</time>
      </trkpt>
      <trkpt lat="51.738178" lon="7.121053">
        <ele>64.494008</ele>
        <time>2025-08-12T11:50:42.559Z</time>
      </trkpt>
      <trkpt lat="51.737915" lon="7.120719">
        <ele>64.540827</ele>
        <time>2025-08-12T11:50:47.451Z</time>
      </trkpt>
      <trkpt lat="51.737669" lon="7.120537">
        <ele>64.578690</ele>
        <time>2025-08-12T11:50:51.956Z</time>
      </trkpt>
      <trkpt lat="51.737607" lon="7.120526">
        <ele>64.587418</ele>
        <time>2025-08-12T11:50:53.055Z</time>
      </trkpt>
      <trkpt lat="51.737400" lon="7.120586">
        <ele>64.956903</ele>
        <time>2025-08-12T11:50:56.630Z</time>
      </trkpt>
      <trkpt lat="51.736818" lon="7.121263">
        <ele>66.292715</ele>
        <time>2025-08-12T11:51:09.634Z</time>
      </trkpt>
      <trkpt lat="51.736261" lon="7.121500">
        <ele>67.365440</ele>
        <time>2025-08-12T11:51:20.207Z</time>
      </trkpt>
      <trkpt lat="51.735330" lon="7.121316">
        <ele>69.144894</ele>
        <time>2025-08-12T11:51:36.753Z</time>
      </trkpt>
      <trkpt lat="51.735101" lon="7.121355">
        <ele>69.585679</ele>
        <time>2025-08-12T11:51:41.071Z</time>
      </trkpt>
      <trkpt lat="51.734868" lon="7.121557">
        <ele>70.091910</ele>
        <time>2025-08-12T11:51:46.007Z</time>
      </trkpt>
      <trkpt lat="51.734520" lon="7.122097">
        <ele>71.015788</ele>
        <time>2025-08-12T11:51:54.893Z</time>
      </trkpt>
      <trkpt lat="51.734203" lon="7.122504">
        <ele>71.530882</ele>
        <time>2025-08-12T11:52:02.286Z</time>
      </trkpt>
      <trkpt lat="51.733722" lon="7.123087">
        <ele>71.950161</ele>
        <time>2025-08-12T11:52:12.073Z</time>
      </trkpt>
      <trkpt lat="51.733440" lon="7.123287">
        <ele>72.164879</ele>
        <time>2025-08-12T11:52:16.582Z</time>
      </trkpt>
      <trkpt lat="51.732280" lon="7.123686">
        <ele>71.911544</ele>
        <time>2025-08-12T11:52:29.288Z</time>
      </trkpt>
      <trkpt lat="51.731644" lon="7.123025">
        <ele>70.838703</ele>
        <time>2025-08-12T11:52:36.012Z</time>
      </trkpt>
      <trkpt lat="51.730448" lon="7.122469">
        <ele>69.281420</ele>
        <time>2025-08-12T11:52:47.076Z</time>
      </trkpt>
      <trkpt lat="51.728821" lon="7.122131">
        <ele>67.842502</ele>
        <time>2025-08-12T11:53:04.070Z</time>
      </trkpt>
      <trkpt lat="51.728157" lon="7.121990">
        <ele>67.581996</ele>
        <time>2025-08-12T11:53:12.056Z</time>
      </trkpt>
      <trkpt lat="51.727478" lon="7.121856">
        <ele>67.219609</ele>
        <time>2025-08-12T11:53:19.337Z</time>
      </trkpt>
      <trkpt lat="51.727409" lon="7.121843">
        <ele>67.131651</ele>
        <time>2025-08-12T11:53:20.054Z</time>
      </trkpt>
      <trkpt lat="51.727359" lon="7.121833">
        <ele>67.067860</ele>
        <time>2025-08-12T11:53:20.563Z</time>
      </trkpt>
      <trkpt lat="51.727239" lon="7.121841">
        <ele>66.915792</ele>
        <time>2025-08-12T11:53:21.776Z</time>
      </trkpt>
      <trkpt lat="51.727042" lon="7.121882">
        <ele>66.664296</ele>
        <time>2025-08-12T11:53:23.726Z</time>
      </trkpt>
      <trkpt lat="51.726884" lon="7.121929">
        <ele>66.460877</ele>
        <time>2025-08-12T11:53:25.281Z</time>
      </trkpt>
      <trkpt lat="51.726621" lon="7.122015">
        <ele>66.121117</ele>
        <time>2025-08-12T11:53:27.835Z</time>
      </trkpt>
      <trkpt lat="51.725304" lon="7.122428">
        <ele>64.073320</ele>
        <time>2025-08-12T11:53:39.859Z</time>
      </trkpt>
      <trkpt lat="51.724853" lon="7.122533">
        <ele>63.190665</ele>
        <time>2025-08-12T11:53:43.904Z</time>
      </trkpt>
      <trkpt lat="51.724536" lon="7.122518">
        <ele>62.576352</ele>
        <time>2025-08-12T11:53:46.689Z</time>
      </trkpt>
      <trkpt lat="51.724372" lon="7.122469">
        <ele>62.253278</ele>
        <time>2025-08-12T11:53:48.138Z</time>
      </trkpt>
      <trkpt lat="51.723826" lon="7.122192">
        <ele>61.106195</ele>
        <time>2025-08-12T11:53:53.095Z</time>
      </trkpt>
      <trkpt lat="51.722190" lon="7.121259">
        <ele>57.344798</ele>
        <time>2025-08-12T11:54:08.249Z</time>
      </trkpt>
      <trkpt lat="51.721982" lon="7.121166">
        <ele>56.745431</ele>
        <time>2025-08-12T11:54:10.122Z</time>
      </trkpt>
      <trkpt lat="51.721629" lon="7.121102">
        <ele>55.758978</ele>
        <time>2025-08-12T11:54:13.142Z</time>
      </trkpt>
      <trkpt lat="51.721357" lon="7.121127">
        <ele>55.002405</ele>
        <time>2025-08-12T11:54:15.420Z</time>
      </trkpt>
      <trkpt lat="51.721039" lon="7.121244">
        <ele>54.096664</ele>
        <time>2025-08-12T11:54:18.114Z</time>
      </trkpt>
      <trkpt lat="51.721029" lon="7.121247">
        <ele>54.068418</ele>
        <time>2025-08-12T11:54:18.199Z</time>
      </trkpt>
      <trkpt lat="51.720136" lon="7.121789">
        <ele>50.961013</ele>
        <time>2025-08-12T11:54:25.804Z</time>
      </trkpt>
      <trkpt lat="51.719644" lon="7.122088">
        <ele>49.024548</ele>
        <time>2025-08-12T11:54:29.890Z</time>
      </trkpt>
      <trkpt lat="51.719032" lon="7.122321">
        <ele>46.708392</ele>
        <time>2025-08-12T11:54:34.850Z</time>
      </trkpt>
      <trkpt lat="51.718888" lon="7.122376">
        <ele>46.174329</ele>
        <time>2025-08-12T11:54:36.046Z</time>
      </trkpt>
      <trkpt lat="51.718492" lon="7.122555">
        <ele>45.156111</ele>
        <time>2025-08-12T11:54:39.391Z</time>
      </trkpt>
      <trkpt lat="51.718384" lon="7.122576">
        <ele>44.886769</ele>
        <time>2025-08-12T11:54:40.289Z</time>
      </trkpt>
      <trkpt lat="51.718277" lon="7.122597">
        <ele>44.619886</ele>
        <time>2025-08-12T11:54:41.183Z</time>
      </trkpt>
      <trkpt lat="51.717917" lon="7.122737">
        <ele>43.703019</ele>
        <time>2025-08-12T11:54:44.304Z</time>
      </trkpt>
      <trkpt lat="51.716738" lon="7.123281">
        <ele>41.211907</ele>
        <time>2025-08-12T11:54:55.222Z</time>
      </trkpt>
      <trkpt lat="51.716484" lon="7.123394">
        <ele>40.889815</ele>
        <time>2025-08-12T11:54:57.655Z</time>
      </trkpt>
      <trkpt lat="51.716311" lon="7.123479">
        <ele>40.668742</ele>
        <time>2025-08-12T11:54:59.349Z</time>
      </trkpt>
      <trkpt lat="51.716195" lon="7.123539">
        <ele>40.519829</ele>
        <time>2025-08-12T11:55:00.516Z</time>
      </trkpt>
      <trkpt lat="51.714337" lon="7.124481">
        <ele>38.605510</ele>
        <time>2025-08-12T11:55:20.118Z</time>
      </trkpt>
      <trkpt lat="51.713690" lon="7.124809">
        <ele>38.064237</ele>
        <time>2025-08-12T11:55:26.870Z</time>
      </trkpt>
      <trkpt lat="51.713524" lon="7.124896">
        <ele>37.996893</ele>
        <time>2025-08-12T11:55:28.641Z</time>
      </trkpt>
      <trkpt lat="51.713392" lon="7.124215">
        <ele>37.826304</ele>
        <time>2025-08-12T11:55:33.186Z</time>
      </trkpt>
      <trkpt lat="51.713373" lon="7.124117">
        <ele>37.801755</ele>
        <time>2025-08-12T11:55:33.854Z</time>
      </trkpt>
      <trkpt lat="51.713417" lon="7.124091">
        <ele>37.783675</ele>
        <time>2025-08-12T11:55:34.344Z</time>
      </trkpt>
      <trkpt lat="51.713493" lon="7.124055">
        <ele>37.753114</ele>
        <time>2025-08-12T11:55:35.186Z</time>
      </trkpt>
      <trkpt lat="51.713700" lon="7.124235">
        <ele>37.662388</ele>
        <time>2025-08-12T11:55:37.725Z</time>
      </trkpt>
      <trkpt lat="51.713827" lon="7.124268">
        <ele>37.612753</ele>
        <time>2025-08-12T11:55:39.158Z</time>
      </trkpt>
      <trkpt lat="51.713936" lon="7.124223">
        <ele>37.569341</ele>
        <time>2025-08-12T11:55:40.408Z</time>
      </trkpt>
      <trkpt lat="51.714087" lon="7.124072">
        <ele>37.500801</ele>
        <time>2025-08-12T11:55:42.388Z</time>
      </trkpt>
      <trkpt lat="51.714182" lon="7.123784">
        <ele>37.422800</ele>
        <time>2025-08-12T11:55:44.786Z</time>
      </trkpt>
      <trkpt lat="51.714213" lon="7.123560">
        <ele>37.381537</ele>
        <time>2025-08-12T11:55:46.561Z</time>
      </trkpt>
      <trkpt lat="51.714163" lon="7.122015">
        <ele>37.381537</ele>
        <time>2025-08-12T11:55:58.891Z</time>
      </trkpt>
    </trkseg>
  </trk>
</gpx>